<?xml version='1.0' encoding='UTF-8'?><gpx version="1.1" creator="JPX - https://github.com/jenetics/jpx" xmlns="http://www.topografix.com/GPX/1/1"><trk><trkseg><trkpt lat="44.4578092" lon="7.3738019"><ele>614.2857142857142</ele><time>2026-04-25T15:30:12.24Z</time></trkpt><trkpt lat="44.457793" lon="7.3738897"><ele>614.5714285714286</ele><time>2026-04-25T15:30:18.24Z</time></trkpt><trkpt lat="44.4578097" lon="7.3739784"><ele>614.8571428571429</ele><time>2026-04-25T15:30:23.241Z</time></trkpt><trkpt lat="44.4578305" lon="7.3740733"><ele>615.1428571428571</ele><time>2026-04-25T15:30:36.24Z</time></trkpt><trkpt lat="44.4578685" lon="7.3741482"><ele>615.4285714285714</ele><time>2026-04-25T15:30:58.24Z</time></trkpt><trkpt lat="44.457948" lon="7.3741345"><ele>615.7142857142857</ele><time>2026-04-25T15:31:01.24Z</time></trkpt><trkpt lat="44.4580284" lon="7.3741075"><ele>616.0</ele><time>2026-04-25T15:31:04.241Z</time></trkpt><trkpt lat="44.458114" lon="7.3740968"><ele>616.0</ele><time>2026-04-25T15:31:07.239Z</time></trkpt><trkpt lat="44.4581936" lon="7.3740827"><ele>616.0</ele><time>2026-04-25T15:31:09.24Z</time></trkpt><trkpt lat="44.4582859" lon="7.3740647"><ele>616.0</ele><time>2026-04-25T15:31:11.239Z</time></trkpt><trkpt lat="44.45839" lon="7.3740463"><ele>616.0</ele><time>2026-04-25T15:31:13.241Z</time></trkpt><trkpt lat="44.458499" lon="7.374047"><ele>616.0</ele><time>2026-04-25T15:31:15.239Z</time></trkpt><trkpt lat="44.4586104" lon="7.3740544"><ele>616.0</ele><time>2026-04-25T15:31:17.24Z</time></trkpt><trkpt lat="44.4587251" lon="7.3740454"><ele>616.0</ele><time>2026-04-25T15:31:19.239Z</time></trkpt><trkpt lat="44.4588307" lon="7.3739957"><ele>616.0</ele><time>2026-04-25T15:31:21.241Z</time></trkpt><trkpt lat="44.4588853" lon="7.3738681"><ele>616.0</ele><time>2026-04-25T15:31:23.24Z</time></trkpt><trkpt lat="44.4588963" lon="7.3737268"><ele>616.0</ele><time>2026-04-25T15:31:25.24Z</time></trkpt><trkpt lat="44.4588828" lon="7.3736011"><ele>615.8</ele><time>2026-04-25T15:31:27.239Z</time></trkpt><trkpt lat="44.4588974" lon="7.3734801"><ele>615.6</ele><time>2026-04-25T15:31:29.24Z</time></trkpt><trkpt lat="44.4589701" lon="7.373407"><ele>615.4</ele><time>2026-04-25T15:31:31.241Z</time></trkpt><trkpt lat="44.4590692" lon="7.373383"><ele>615.2</ele><time>2026-04-25T15:31:33.239Z</time></trkpt><trkpt lat="44.4591722" lon="7.3733692"><ele>615.0</ele><time>2026-04-25T15:31:35.239Z</time></trkpt><trkpt lat="44.4592827" lon="7.3733522"><ele>615.0</ele><time>2026-04-25T15:31:37.24Z</time></trkpt><trkpt lat="44.4593952" lon="7.3733439"><ele>615.0</ele><time>2026-04-25T15:31:39.241Z</time></trkpt><trkpt lat="44.4595171" lon="7.3733303"><ele>615.0</ele><time>2026-04-25T15:31:41.24Z</time></trkpt><trkpt lat="44.4596342" lon="7.3733073"><ele>615.0</ele><time>2026-04-25T15:31:43.24Z</time></trkpt><trkpt lat="44.4597016" lon="7.3733012"><ele>615.0</ele><time>2026-04-25T15:31:44.24Z</time></trkpt><trkpt lat="44.4598268" lon="7.3732848"><ele>615.0</ele><time>2026-04-25T15:31:46.24Z</time></trkpt><trkpt lat="44.4599532" lon="7.3732648"><ele>615.0</ele><time>2026-04-25T15:31:48.241Z</time></trkpt><trkpt lat="44.4600178" lon="7.3732566"><ele>615.0</ele><time>2026-04-25T15:31:49.239Z</time></trkpt><trkpt lat="44.4601313" lon="7.3732386"><ele>615.0</ele><time>2026-04-25T15:31:51.239Z</time></trkpt><trkpt lat="44.4602325" lon="7.3732254"><ele>615.0</ele><time>2026-04-25T15:31:53.239Z</time></trkpt><trkpt lat="44.4603096" lon="7.3732126"><ele>615.0</ele><time>2026-04-25T15:31:55.239Z</time></trkpt><trkpt lat="44.4603932" lon="7.3731993"><ele>615.0</ele><time>2026-04-25T15:31:58.24Z</time></trkpt><trkpt lat="44.4604453" lon="7.3731393"><ele>615.0</ele><time>2026-04-25T15:32:01.24Z</time></trkpt><trkpt lat="44.460479" lon="7.3730548"><ele>615.0</ele><time>2026-04-25T15:32:04.239Z</time></trkpt><trkpt lat="44.4605317" lon="7.3729453"><ele>615.0</ele><time>2026-04-25T15:32:07.24Z</time></trkpt><trkpt lat="44.460576" lon="7.3728673"><ele>615.0</ele><time>2026-04-25T15:32:09.241Z</time></trkpt><trkpt lat="44.4606186" lon="7.3727897"><ele>615.2857142857142</ele><time>2026-04-25T15:32:11.24Z</time></trkpt><trkpt lat="44.4606585" lon="7.3727107"><ele>615.5714285714287</ele><time>2026-04-25T15:32:13.239Z</time></trkpt><trkpt lat="44.4606952" lon="7.372637"><ele>615.8571428571429</ele><time>2026-04-25T15:32:15.24Z</time></trkpt><trkpt lat="44.460735" lon="7.3725678"><ele>616.1428571428571</ele><time>2026-04-25T15:32:17.239Z</time></trkpt><trkpt lat="44.4607792" lon="7.3724894"><ele>616.4285714285713</ele><time>2026-04-25T15:32:19.24Z</time></trkpt><trkpt lat="44.4608241" lon="7.3724026"><ele>616.7142857142858</ele><time>2026-04-25T15:32:21.24Z</time></trkpt><trkpt lat="44.4608742" lon="7.3723111"><ele>617.0</ele><time>2026-04-25T15:32:23.241Z</time></trkpt><trkpt lat="44.4609256" lon="7.3722139"><ele>616.8333333333333</ele><time>2026-04-25T15:32:25.24Z</time></trkpt><trkpt lat="44.4609756" lon="7.372113"><ele>616.6666666666666</ele><time>2026-04-25T15:32:27.24Z</time></trkpt><trkpt lat="44.4610281" lon="7.3720126"><ele>616.5</ele><time>2026-04-25T15:32:29.24Z</time></trkpt><trkpt lat="44.4610776" lon="7.3719114"><ele>616.3333333333334</ele><time>2026-04-25T15:32:31.24Z</time></trkpt><trkpt lat="44.4611251" lon="7.3718126"><ele>616.1666666666667</ele><time>2026-04-25T15:32:33.24Z</time></trkpt><trkpt lat="44.4611652" lon="7.3717284"><ele>616.0</ele><time>2026-04-25T15:32:35.24Z</time></trkpt><trkpt lat="44.4611853" lon="7.3716422"><ele>616.0</ele><time>2026-04-25T15:32:39.241Z</time></trkpt><trkpt lat="44.4611638" lon="7.3715371"><ele>616.0</ele><time>2026-04-25T15:32:43.24Z</time></trkpt><trkpt lat="44.4612286" lon="7.3714697"><ele>616.0</ele><time>2026-04-25T15:32:46.239Z</time></trkpt><trkpt lat="44.4612824" lon="7.3714054"><ele>616.0</ele><time>2026-04-25T15:32:48.239Z</time></trkpt><trkpt lat="44.4613286" lon="7.3713105"><ele>616.0</ele><time>2026-04-25T15:32:50.24Z</time></trkpt><trkpt lat="44.4613748" lon="7.3712068"><ele>616.0</ele><time>2026-04-25T15:32:52.24Z</time></trkpt><trkpt lat="44.4614165" lon="7.3710953"><ele>615.8</ele><time>2026-04-25T15:32:54.24Z</time></trkpt><trkpt lat="44.4614676" lon="7.3709823"><ele>615.6</ele><time>2026-04-25T15:32:56.24Z</time></trkpt><trkpt lat="44.4615288" lon="7.3708802"><ele>615.4</ele><time>2026-04-25T15:32:58.24Z</time></trkpt><trkpt lat="44.4615853" lon="7.3707703"><ele>615.2</ele><time>2026-04-25T15:33:00.24Z</time></trkpt><trkpt lat="44.4616389" lon="7.3706657"><ele>615.0</ele><time>2026-04-25T15:33:02.241Z</time></trkpt><trkpt lat="44.4616957" lon="7.3705446"><ele>615.0</ele><time>2026-04-25T15:33:04.24Z</time></trkpt><trkpt lat="44.4617552" lon="7.3704205"><ele>615.0</ele><time>2026-04-25T15:33:06.24Z</time></trkpt><trkpt lat="44.4618189" lon="7.3703054"><ele>615.0</ele><time>2026-04-25T15:33:08.239Z</time></trkpt><trkpt lat="44.4618717" lon="7.3701944"><ele>615.0</ele><time>2026-04-25T15:33:10.24Z</time></trkpt><trkpt lat="44.4619264" lon="7.3700825"><ele>615.0</ele><time>2026-04-25T15:33:12.24Z</time></trkpt><trkpt lat="44.4619733" lon="7.3699934"><ele>615.0</ele><time>2026-04-25T15:33:14.24Z</time></trkpt><trkpt lat="44.4619868" lon="7.3698967"><ele>615.0</ele><time>2026-04-25T15:33:16.24Z</time></trkpt><trkpt lat="44.4619246" lon="7.369811"><ele>615.0</ele><time>2026-04-25T15:33:18.239Z</time></trkpt><trkpt lat="44.461851" lon="7.3697398"><ele>615.0</ele><time>2026-04-25T15:33:20.239Z</time></trkpt><trkpt lat="44.4617769" lon="7.3696662"><ele>615.0</ele><time>2026-04-25T15:33:22.24Z</time></trkpt><trkpt lat="44.461719" lon="7.3695837"><ele>615.0</ele><time>2026-04-25T15:33:24.24Z</time></trkpt><trkpt lat="44.461668" lon="7.3694855"><ele>615.1666666666666</ele><time>2026-04-25T15:33:26.24Z</time></trkpt><trkpt lat="44.4616164" lon="7.3693887"><ele>615.3333333333334</ele><time>2026-04-25T15:33:28.24Z</time></trkpt><trkpt lat="44.4615712" lon="7.3692946"><ele>615.5</ele><time>2026-04-25T15:33:30.241Z</time></trkpt><trkpt lat="44.4615251" lon="7.3692009"><ele>615.6666666666667</ele><time>2026-04-25T15:33:32.239Z</time></trkpt><trkpt lat="44.4614847" lon="7.3691043"><ele>615.8333333333334</ele><time>2026-04-25T15:33:34.24Z</time></trkpt><trkpt lat="44.4614398" lon="7.3690266"><ele>616.0</ele><time>2026-04-25T15:33:36.241Z</time></trkpt><trkpt lat="44.4614056" lon="7.3689453"><ele>616.1666666666667</ele><time>2026-04-25T15:33:38.241Z</time></trkpt><trkpt lat="44.4614383" lon="7.3688543"><ele>616.3333333333334</ele><time>2026-04-25T15:33:41.239Z</time></trkpt><trkpt lat="44.4615146" lon="7.3687967"><ele>616.5</ele><time>2026-04-25T15:33:44.24Z</time></trkpt><trkpt lat="44.4615746" lon="7.368756"><ele>616.6666666666666</ele><time>2026-04-25T15:33:46.239Z</time></trkpt><trkpt lat="44.4616408" lon="7.3687152"><ele>616.8333333333333</ele><time>2026-04-25T15:33:48.241Z</time></trkpt><trkpt lat="44.4617152" lon="7.3686657"><ele>617.0</ele><time>2026-04-25T15:33:50.241Z</time></trkpt><trkpt lat="44.4617915" lon="7.3686108"><ele>617.0</ele><time>2026-04-25T15:33:52.239Z</time></trkpt><trkpt lat="44.4618687" lon="7.3685513"><ele>617.0</ele><time>2026-04-25T15:33:54.239Z</time></trkpt><trkpt lat="44.4619451" lon="7.3685031"><ele>617.0</ele><time>2026-04-25T15:33:56.24Z</time></trkpt><trkpt lat="44.4619957" lon="7.3684231"><ele>617.0</ele><time>2026-04-25T15:33:58.239Z</time></trkpt><trkpt lat="44.4619928" lon="7.3683251"><ele>617.0</ele><time>2026-04-25T15:34:00.24Z</time></trkpt><trkpt lat="44.461953" lon="7.3682322"><ele>617.0</ele><time>2026-04-25T15:34:02.24Z</time></trkpt><trkpt lat="44.4619187" lon="7.3681381"><ele>617.0</ele><time>2026-04-25T15:34:04.239Z</time></trkpt><trkpt lat="44.4619115" lon="7.3680329"><ele>617.0</ele><time>2026-04-25T15:34:06.239Z</time></trkpt><trkpt lat="44.4619134" lon="7.3679298"><ele>617.0</ele><time>2026-04-25T15:34:08.24Z</time></trkpt><trkpt lat="44.4619555" lon="7.367844"><ele>617.0</ele><time>2026-04-25T15:34:10.24Z</time></trkpt><trkpt lat="44.4620125" lon="7.3677753"><ele>617.0</ele><time>2026-04-25T15:34:12.24Z</time></trkpt><trkpt lat="44.4620724" lon="7.3677131"><ele>617.0</ele><time>2026-04-25T15:34:14.24Z</time></trkpt><trkpt lat="44.4621292" lon="7.3676442"><ele>617.0</ele><time>2026-04-25T15:34:16.239Z</time></trkpt><trkpt lat="44.462192" lon="7.3675866"><ele>617.0</ele><time>2026-04-25T15:34:18.24Z</time></trkpt><trkpt lat="44.4622582" lon="7.367533"><ele>617.0</ele><time>2026-04-25T15:34:20.24Z</time></trkpt><trkpt lat="44.4623285" lon="7.367486"><ele>617.0</ele><time>2026-04-25T15:34:22.239Z</time></trkpt><trkpt lat="44.4623986" lon="7.3674374"><ele>617.0</ele><time>2026-04-25T15:34:24.239Z</time></trkpt><trkpt lat="44.4624701" lon="7.3673998"><ele>617.0</ele><time>2026-04-25T15:34:26.24Z</time></trkpt><trkpt lat="44.4625397" lon="7.3673639"><ele>617.0</ele><time>2026-04-25T15:34:28.24Z</time></trkpt><trkpt lat="44.4626097" lon="7.3673324"><ele>617.0</ele><time>2026-04-25T15:34:30.239Z</time></trkpt><trkpt lat="44.4626794" lon="7.3672937"><ele>617.0</ele><time>2026-04-25T15:34:32.239Z</time></trkpt><trkpt lat="44.46275" lon="7.3672622"><ele>617.0</ele><time>2026-04-25T15:34:34.24Z</time></trkpt><trkpt lat="44.4628222" lon="7.3672309"><ele>617.0</ele><time>2026-04-25T15:34:36.24Z</time></trkpt><trkpt lat="44.4628938" lon="7.3672116"><ele>617.0</ele><time>2026-04-25T15:34:38.24Z</time></trkpt><trkpt lat="44.4629745" lon="7.3671804"><ele>617.0</ele><time>2026-04-25T15:34:41.24Z</time></trkpt><trkpt lat="44.4630405" lon="7.3671315"><ele>616.8333333333333</ele><time>2026-04-25T15:34:44.245Z</time></trkpt><trkpt lat="44.4630509" lon="7.3670428"><ele>616.6666666666666</ele><time>2026-04-25T15:34:47.24Z</time></trkpt><trkpt lat="44.463018" lon="7.3669225"><ele>616.5</ele><time>2026-04-25T15:34:50.239Z</time></trkpt><trkpt lat="44.4629796" lon="7.3668158"><ele>616.3333333333334</ele><time>2026-04-25T15:34:52.239Z</time></trkpt><trkpt lat="44.462945" lon="7.3667156"><ele>616.1666666666667</ele><time>2026-04-25T15:34:54.24Z</time></trkpt><trkpt lat="44.4629211" lon="7.3666064"><ele>616.0</ele><time>2026-04-25T15:34:56.239Z</time></trkpt><trkpt lat="44.4628987" lon="7.3664963"><ele>616.3333333333334</ele><time>2026-04-25T15:34:58.24Z</time></trkpt><trkpt lat="44.462877" lon="7.3663842"><ele>616.6666666666667</ele><time>2026-04-25T15:35:00.24Z</time></trkpt><trkpt lat="44.4628604" lon="7.3662728"><ele>617.0</ele><time>2026-04-25T15:35:02.24Z</time></trkpt><trkpt lat="44.4628541" lon="7.3661674"><ele>617.3333333333334</ele><time>2026-04-25T15:35:04.239Z</time></trkpt><trkpt lat="44.4628403" lon="7.3660692"><ele>617.6666666666666</ele><time>2026-04-25T15:35:06.24Z</time></trkpt><trkpt lat="44.4628386" lon="7.3659784"><ele>618.0</ele><time>2026-04-25T15:35:08.24Z</time></trkpt><trkpt lat="44.4628905" lon="7.365885"><ele>617.5</ele><time>2026-04-25T15:35:11.24Z</time></trkpt><trkpt lat="44.4629867" lon="7.3658675"><ele>617.0</ele><time>2026-04-25T15:35:14.239Z</time></trkpt><trkpt lat="44.46306" lon="7.3658645"><ele>616.5</ele><time>2026-04-25T15:35:16.24Z</time></trkpt><trkpt lat="44.4631316" lon="7.3658727"><ele>616.0</ele><time>2026-04-25T15:35:18.24Z</time></trkpt><trkpt lat="44.4632002" lon="7.3658821"><ele>615.5</ele><time>2026-04-25T15:35:20.24Z</time></trkpt><trkpt lat="44.4632657" lon="7.3659019"><ele>615.0</ele><time>2026-04-25T15:35:22.239Z</time></trkpt><trkpt lat="44.4633393" lon="7.3659504"><ele>615.0</ele><time>2026-04-25T15:35:25.239Z</time></trkpt><trkpt lat="44.4633918" lon="7.3660124"><ele>615.0</ele><time>2026-04-25T15:35:28.239Z</time></trkpt><trkpt lat="44.4634255" lon="7.3660998"><ele>615.0</ele><time>2026-04-25T15:35:30.239Z</time></trkpt><trkpt lat="44.4634491" lon="7.3661924"><ele>615.0</ele><time>2026-04-25T15:35:32.24Z</time></trkpt><trkpt lat="44.4635189" lon="7.3661828"><ele>615.0</ele><time>2026-04-25T15:35:35.238Z</time></trkpt><trkpt lat="44.4635706" lon="7.3661122"><ele>615.0</ele><time>2026-04-25T15:35:37.239Z</time></trkpt><trkpt lat="44.4636263" lon="7.366026"><ele>615.0</ele><time>2026-04-25T15:35:39.239Z</time></trkpt><trkpt lat="44.4636869" lon="7.3659324"><ele>615.0</ele><time>2026-04-25T15:35:41.239Z</time></trkpt><trkpt lat="44.4637528" lon="7.3658374"><ele>615.0</ele><time>2026-04-25T15:35:43.239Z</time></trkpt><trkpt lat="44.4638212" lon="7.3657371"><ele>615.0</ele><time>2026-04-25T15:35:45.238Z</time></trkpt><trkpt lat="44.4638814" lon="7.365622"><ele>615.0</ele><time>2026-04-25T15:35:47.239Z</time></trkpt><trkpt lat="44.4639403" lon="7.3654932"><ele>615.0</ele><time>2026-04-25T15:35:49.24Z</time></trkpt><trkpt lat="44.4640232" lon="7.3653722"><ele>614.4</ele><time>2026-04-25T15:35:51.238Z</time></trkpt><trkpt lat="44.4640941" lon="7.3652307"><ele>613.8</ele><time>2026-04-25T15:35:53.239Z</time></trkpt><trkpt lat="44.464157" lon="7.3651116"><ele>613.2</ele><time>2026-04-25T15:35:55.24Z</time></trkpt><trkpt lat="44.4642089" lon="7.3650293"><ele>612.6</ele><time>2026-04-25T15:35:57.239Z</time></trkpt><trkpt lat="44.4642709" lon="7.3649668"><ele>612.0</ele><time>2026-04-25T15:35:59.238Z</time></trkpt><trkpt lat="44.464344" lon="7.3649302"><ele>612.0</ele><time>2026-04-25T15:36:01.239Z</time></trkpt><trkpt lat="44.4644251" lon="7.3649088"><ele>612.0</ele><time>2026-04-25T15:36:03.239Z</time></trkpt><trkpt lat="44.46451" lon="7.3648856"><ele>612.0</ele><time>2026-04-25T15:36:05.239Z</time></trkpt><trkpt lat="44.4645935" lon="7.3648686"><ele>612.0</ele><time>2026-04-25T15:36:07.24Z</time></trkpt><trkpt lat="44.4646829" lon="7.364847"><ele>612.0</ele><time>2026-04-25T15:36:09.238Z</time></trkpt><trkpt lat="44.4647637" lon="7.3648206"><ele>612.0</ele><time>2026-04-25T15:36:11.239Z</time></trkpt><trkpt lat="44.4648288" lon="7.3648121"><ele>610.1666666666666</ele><time>2026-04-25T15:36:13.238Z</time></trkpt><trkpt lat="44.4648992" lon="7.3648283"><ele>608.3333333333334</ele><time>2026-04-25T15:36:16.239Z</time></trkpt><trkpt lat="44.4649869" lon="7.3648521"><ele>606.5</ele><time>2026-04-25T15:36:35.238Z</time></trkpt><trkpt lat="44.4650491" lon="7.3648821"><ele>604.6666666666667</ele><time>2026-04-25T15:36:37.239Z</time></trkpt><trkpt lat="44.465121" lon="7.3649219"><ele>602.8333333333334</ele><time>2026-04-25T15:36:39.239Z</time></trkpt><trkpt lat="44.4652037" lon="7.3649631"><ele>601.0</ele><time>2026-04-25T15:36:41.239Z</time></trkpt><trkpt lat="44.4652953" lon="7.365004"><ele>601.0</ele><time>2026-04-25T15:36:43.238Z</time></trkpt><trkpt lat="44.4653814" lon="7.3650474"><ele>601.0</ele><time>2026-04-25T15:36:45.238Z</time></trkpt><trkpt lat="44.4654536" lon="7.3650708"><ele>601.0</ele><time>2026-04-25T15:36:47.238Z</time></trkpt><trkpt lat="44.4655133" lon="7.3649784"><ele>601.0</ele><time>2026-04-25T15:36:50.24Z</time></trkpt><trkpt lat="44.465567" lon="7.364921"><ele>601.0</ele><time>2026-04-25T15:36:52.239Z</time></trkpt><trkpt lat="44.4656196" lon="7.3648459"><ele>601.0</ele><time>2026-04-25T15:36:54.239Z</time></trkpt><trkpt lat="44.4656807" lon="7.3647805"><ele>600.7142857142857</ele><time>2026-04-25T15:36:56.238Z</time></trkpt><trkpt lat="44.4657483" lon="7.3647248"><ele>600.4285714285714</ele><time>2026-04-25T15:36:58.239Z</time></trkpt><trkpt lat="44.4658188" lon="7.3646805"><ele>600.1428571428571</ele><time>2026-04-25T15:37:00.239Z</time></trkpt><trkpt lat="44.4658901" lon="7.3646463"><ele>599.8571428571429</ele><time>2026-04-25T15:37:02.24Z</time></trkpt><trkpt lat="44.4659607" lon="7.3646487"><ele>599.5714285714286</ele><time>2026-04-25T15:37:04.239Z</time></trkpt><trkpt lat="44.4660317" lon="7.3646575"><ele>599.2857142857143</ele><time>2026-04-25T15:37:06.239Z</time></trkpt><trkpt lat="44.4661023" lon="7.3646585"><ele>599.0</ele><time>2026-04-25T15:37:08.239Z</time></trkpt><trkpt lat="44.4661712" lon="7.3645878"><ele>599.0</ele><time>2026-04-25T15:37:10.238Z</time></trkpt><trkpt lat="44.4662131" lon="7.3644773"><ele>599.0</ele><time>2026-04-25T15:37:12.24Z</time></trkpt><trkpt lat="44.4662541" lon="7.3643909"><ele>599.0</ele><time>2026-04-25T15:37:14.238Z</time></trkpt><trkpt lat="44.4662937" lon="7.364317"><ele>599.0</ele><time>2026-04-25T15:37:16.238Z</time></trkpt><trkpt lat="44.4663284" lon="7.3642387"><ele>599.0</ele><time>2026-04-25T15:37:18.238Z</time></trkpt><trkpt lat="44.4663723" lon="7.3641337"><ele>599.0</ele><time>2026-04-25T15:37:21.238Z</time></trkpt><trkpt lat="44.466406" lon="7.3640465"><ele>602.0</ele><time>2026-04-25T15:37:23.238Z</time></trkpt><trkpt lat="44.4664526" lon="7.3639463"><ele>605.0</ele><time>2026-04-25T15:37:25.238Z</time></trkpt><trkpt lat="44.4665027" lon="7.363829"><ele>608.0</ele><time>2026-04-25T15:37:27.238Z</time></trkpt><trkpt lat="44.4665594" lon="7.3637197"><ele>611.0</ele><time>2026-04-25T15:37:29.238Z</time></trkpt><trkpt lat="44.4666075" lon="7.3636066"><ele>614.0</ele><time>2026-04-25T15:37:31.238Z</time></trkpt><trkpt lat="44.4666563" lon="7.3634901"><ele>614.0</ele><time>2026-04-25T15:37:33.238Z</time></trkpt><trkpt lat="44.466708" lon="7.3633794"><ele>614.0</ele><time>2026-04-25T15:37:35.238Z</time></trkpt><trkpt lat="44.4667524" lon="7.3632508"><ele>614.0</ele><time>2026-04-25T15:37:37.239Z</time></trkpt><trkpt lat="44.4667898" lon="7.3631438"><ele>614.0</ele><time>2026-04-25T15:37:39.24Z</time></trkpt><trkpt lat="44.46683" lon="7.3630413"><ele>614.0</ele><time>2026-04-25T15:37:41.238Z</time></trkpt><trkpt lat="44.4668791" lon="7.3629489"><ele>614.0</ele><time>2026-04-25T15:37:43.239Z</time></trkpt><trkpt lat="44.466934" lon="7.362862"><ele>614.8333333333333</ele><time>2026-04-25T15:37:45.239Z</time></trkpt><trkpt lat="44.4669886" lon="7.3627752"><ele>615.6666666666666</ele><time>2026-04-25T15:37:47.238Z</time></trkpt><trkpt lat="44.4670534" lon="7.3627075"><ele>616.5</ele><time>2026-04-25T15:37:49.24Z</time></trkpt><trkpt lat="44.4671206" lon="7.362638"><ele>617.3333333333334</ele><time>2026-04-25T15:37:51.238Z</time></trkpt><trkpt lat="44.4671897" lon="7.3625653"><ele>618.1666666666667</ele><time>2026-04-25T15:37:53.24Z</time></trkpt><trkpt lat="44.4672588" lon="7.3625249"><ele>619.0</ele><time>2026-04-25T15:37:55.238Z</time></trkpt><trkpt lat="44.4673232" lon="7.3625065"><ele>619.0</ele><time>2026-04-25T15:37:57.238Z</time></trkpt><trkpt lat="44.4674069" lon="7.3625403"><ele>619.0</ele><time>2026-04-25T15:38:00.238Z</time></trkpt><trkpt lat="44.4674716" lon="7.362486"><ele>619.0</ele><time>2026-04-25T15:38:08.238Z</time></trkpt><trkpt lat="44.4675176" lon="7.3623998"><ele>619.0</ele><time>2026-04-25T15:38:11.239Z</time></trkpt><trkpt lat="44.4676088" lon="7.3624108"><ele>619.0</ele><time>2026-04-25T15:38:13.24Z</time></trkpt><trkpt lat="44.4677074" lon="7.3624499"><ele>619.0</ele><time>2026-04-25T15:38:15.238Z</time></trkpt><trkpt lat="44.4677967" lon="7.3625114"><ele>619.0</ele><time>2026-04-25T15:38:17.239Z</time></trkpt><trkpt lat="44.4678878" lon="7.3625745"><ele>619.0</ele><time>2026-04-25T15:38:19.238Z</time></trkpt><trkpt lat="44.4679487" lon="7.3626166"><ele>619.0</ele><time>2026-04-25T15:38:21.238Z</time></trkpt><trkpt lat="44.4679914" lon="7.3627213"><ele>619.0</ele><time>2026-04-25T15:38:23.239Z</time></trkpt><trkpt lat="44.4680442" lon="7.3627805"><ele>619.0</ele><time>2026-04-25T15:38:25.239Z</time></trkpt><trkpt lat="44.468088" lon="7.3628601"><ele>619.0</ele><time>2026-04-25T15:38:28.238Z</time></trkpt><trkpt lat="44.4681459" lon="7.362914"><ele>619.4</ele><time>2026-04-25T15:38:35.238Z</time></trkpt><trkpt lat="44.4682146" lon="7.3629291"><ele>619.8</ele><time>2026-04-25T15:38:38.239Z</time></trkpt><trkpt lat="44.4682895" lon="7.3630251"><ele>620.2</ele><time>2026-04-25T15:38:41.238Z</time></trkpt><trkpt lat="44.4683857" lon="7.3631076"><ele>620.6</ele><time>2026-04-25T15:38:43.239Z</time></trkpt><trkpt lat="44.4684829" lon="7.3631693"><ele>621.0</ele><time>2026-04-25T15:38:45.238Z</time></trkpt><trkpt lat="44.4685815" lon="7.3632274"><ele>621.0</ele><time>2026-04-25T15:38:47.238Z</time></trkpt><trkpt lat="44.4686774" lon="7.363287"><ele>621.0</ele><time>2026-04-25T15:38:49.238Z</time></trkpt><trkpt lat="44.468786" lon="7.3632954"><ele>621.0</ele><time>2026-04-25T15:38:51.238Z</time></trkpt><trkpt lat="44.4689121" lon="7.3633034"><ele>621.0</ele><time>2026-04-25T15:38:53.239Z</time></trkpt><trkpt lat="44.4690199" lon="7.3633308"><ele>621.0</ele><time>2026-04-25T15:38:55.239Z</time></trkpt><trkpt lat="44.469088" lon="7.3633664"><ele>620.5714285714286</ele><time>2026-04-25T15:38:57.24Z</time></trkpt><trkpt lat="44.4691385" lon="7.36342"><ele>620.1428571428571</ele><time>2026-04-25T15:38:59.24Z</time></trkpt><trkpt lat="44.4691982" lon="7.3634869"><ele>619.7142857142858</ele><time>2026-04-25T15:39:02.238Z</time></trkpt><trkpt lat="44.4692611" lon="7.3634919"><ele>619.2857142857142</ele><time>2026-04-25T15:39:08.238Z</time></trkpt><trkpt lat="44.4693157" lon="7.3634452"><ele>618.8571428571429</ele><time>2026-04-25T15:39:10.238Z</time></trkpt><trkpt lat="44.469366" lon="7.3633678"><ele>618.4285714285714</ele><time>2026-04-25T15:39:12.239Z</time></trkpt><trkpt lat="44.4694229" lon="7.3633101"><ele>618.0</ele><time>2026-04-25T15:39:14.239Z</time></trkpt><trkpt lat="44.4694808" lon="7.3632468"><ele>618.0</ele><time>2026-04-25T15:39:16.238Z</time></trkpt><trkpt lat="44.4695367" lon="7.3631667"><ele>618.0</ele><time>2026-04-25T15:39:18.239Z</time></trkpt><trkpt lat="44.469595" lon="7.3630856"><ele>618.0</ele><time>2026-04-25T15:39:20.239Z</time></trkpt><trkpt lat="44.4696552" lon="7.3630286"><ele>618.0</ele><time>2026-04-25T15:39:22.239Z</time></trkpt><trkpt lat="44.469716" lon="7.3629749"><ele>618.0</ele><time>2026-04-25T15:39:24.239Z</time></trkpt><trkpt lat="44.4697775" lon="7.362919"><ele>618.0</ele><time>2026-04-25T15:39:26.238Z</time></trkpt><trkpt lat="44.4698535" lon="7.3628724"><ele>618.0000000000001</ele><time>2026-04-25T15:39:28.238Z</time></trkpt><trkpt lat="44.4699378" lon="7.3628743"><ele>618.0</ele><time>2026-04-25T15:39:30.238Z</time></trkpt><trkpt lat="44.4700119" lon="7.3628849"><ele>618.0</ele><time>2026-04-25T15:39:32.239Z</time></trkpt><trkpt lat="44.4700819" lon="7.3628765"><ele>618.0</ele><time>2026-04-25T15:39:34.239Z</time></trkpt><trkpt lat="44.4701556" lon="7.3628638"><ele>618.0</ele><time>2026-04-25T15:39:36.238Z</time></trkpt><trkpt lat="44.470229" lon="7.362848"><ele>618.0000000000001</ele><time>2026-04-25T15:39:38.239Z</time></trkpt><trkpt lat="44.4702966" lon="7.3628327"><ele>618.0</ele><time>2026-04-25T15:39:40.238Z</time></trkpt><trkpt lat="44.4703677" lon="7.3628173"><ele>619.8333333333334</ele><time>2026-04-25T15:39:42.237Z</time></trkpt><trkpt lat="44.4704423" lon="7.3628054"><ele>621.6666666666666</ele><time>2026-04-25T15:39:44.238Z</time></trkpt><trkpt lat="44.4705106" lon="7.3627934"><ele>623.5</ele><time>2026-04-25T15:39:46.237Z</time></trkpt><trkpt lat="44.4705789" lon="7.3627869"><ele>625.3333333333333</ele><time>2026-04-25T15:39:48.238Z</time></trkpt><trkpt lat="44.4706662" lon="7.3627715"><ele>627.1666666666666</ele><time>2026-04-25T15:39:51.238Z</time></trkpt><trkpt lat="44.4707437" lon="7.3627575"><ele>629.0</ele><time>2026-04-25T15:39:54.237Z</time></trkpt><trkpt lat="44.4708161" lon="7.3627693"><ele>629.0</ele><time>2026-04-25T15:39:57.238Z</time></trkpt><trkpt lat="44.4709034" lon="7.3627935"><ele>629.0</ele><time>2026-04-25T15:40:00.237Z</time></trkpt><trkpt lat="44.4709653" lon="7.3628107"><ele>629.0</ele><time>2026-04-25T15:40:02.237Z</time></trkpt><trkpt lat="44.4710451" lon="7.3628163"><ele>629.0</ele><time>2026-04-25T15:40:05.238Z</time></trkpt><trkpt lat="44.4711226" lon="7.3628266"><ele>629.0</ele><time>2026-04-25T15:40:08.237Z</time></trkpt><trkpt lat="44.4712147" lon="7.3628302"><ele>629.0</ele><time>2026-04-25T15:40:11.237Z</time></trkpt><trkpt lat="44.4713049" lon="7.362872"><ele>629.7142857142857</ele><time>2026-04-25T15:40:14.238Z</time></trkpt><trkpt lat="44.471367" lon="7.3629016"><ele>630.4285714285714</ele><time>2026-04-25T15:40:16.238Z</time></trkpt><trkpt lat="44.4714304" lon="7.3629383"><ele>631.1428571428571</ele><time>2026-04-25T15:40:18.238Z</time></trkpt><trkpt lat="44.4714956" lon="7.3629777"><ele>631.8571428571429</ele><time>2026-04-25T15:40:20.239Z</time></trkpt><trkpt lat="44.4715633" lon="7.363001"><ele>632.5714285714286</ele><time>2026-04-25T15:40:22.238Z</time></trkpt><trkpt lat="44.4716399" lon="7.3630636"><ele>633.2857142857143</ele><time>2026-04-25T15:40:25.238Z</time></trkpt><trkpt lat="44.4717035" lon="7.3630958"><ele>634.0</ele><time>2026-04-25T15:40:27.238Z</time></trkpt><trkpt lat="44.4717952" lon="7.3631433"><ele>635.6666666666667</ele><time>2026-04-25T15:40:30.238Z</time></trkpt><trkpt lat="44.4718638" lon="7.3631798"><ele>637.3333333333334</ele><time>2026-04-25T15:40:32.237Z</time></trkpt><trkpt lat="44.4719309" lon="7.3632171"><ele>639.0</ele><time>2026-04-25T15:40:34.237Z</time></trkpt><trkpt lat="44.4720025" lon="7.3632779"><ele>640.6666666666666</ele><time>2026-04-25T15:40:37.237Z</time></trkpt><trkpt lat="44.4720725" lon="7.3633307"><ele>642.3333333333333</ele><time>2026-04-25T15:40:40.239Z</time></trkpt><trkpt lat="44.47211" lon="7.3634181"><ele>644.0</ele><time>2026-04-25T15:40:44.239Z</time></trkpt><trkpt lat="44.4720297" lon="7.3634757"><ele>644.0</ele><time>2026-04-25T15:40:47.238Z</time></trkpt><trkpt lat="44.4719455" lon="7.363488"><ele>644.0</ele><time>2026-04-25T15:40:50.237Z</time></trkpt><trkpt lat="44.4718602" lon="7.3634929"><ele>644.0</ele><time>2026-04-25T15:40:53.237Z</time></trkpt><trkpt lat="44.4717797" lon="7.3634906"><ele>644.0</ele><time>2026-04-25T15:40:56.238Z</time></trkpt><trkpt lat="44.4717048" lon="7.3635023"><ele>644.0</ele><time>2026-04-25T15:40:59.238Z</time></trkpt><trkpt lat="44.4716299" lon="7.3635399"><ele>644.0</ele><time>2026-04-25T15:41:02.237Z</time></trkpt><trkpt lat="44.47156" lon="7.3635843"><ele>644.0</ele><time>2026-04-25T15:41:05.237Z</time></trkpt><trkpt lat="44.471481" lon="7.3636537"><ele>644.0</ele><time>2026-04-25T15:41:08.237Z</time></trkpt><trkpt lat="44.4714014" lon="7.3637152"><ele>644.0</ele><time>2026-04-25T15:41:11.238Z</time></trkpt><trkpt lat="44.4713379" lon="7.3637521"><ele>644.0</ele><time>2026-04-25T15:41:13.237Z</time></trkpt><trkpt lat="44.4712704" lon="7.3637828"><ele>644.0</ele><time>2026-04-25T15:41:15.238Z</time></trkpt><trkpt lat="44.4711943" lon="7.3637877"><ele>644.0</ele><time>2026-04-25T15:41:17.238Z</time></trkpt><trkpt lat="44.4711255" lon="7.3637946"><ele>644.3333333333333</ele><time>2026-04-25T15:41:19.139Z</time></trkpt><trkpt lat="44.471056" lon="7.3637566"><ele>644.6666666666666</ele><time>2026-04-25T15:41:21.237Z</time></trkpt><trkpt lat="44.4709871" lon="7.3637135"><ele>645.0</ele><time>2026-04-25T15:41:23.237Z</time></trkpt><trkpt lat="44.4709168" lon="7.3636804"><ele>645.3333333333334</ele><time>2026-04-25T15:41:25.238Z</time></trkpt><trkpt lat="44.4708496" lon="7.3636623"><ele>645.6666666666667</ele><time>2026-04-25T15:41:27.238Z</time></trkpt><trkpt lat="44.470758" lon="7.3636599"><ele>646.0</ele><time>2026-04-25T15:41:30.237Z</time></trkpt><trkpt lat="44.4706897" lon="7.3636932"><ele>646.0000000000001</ele><time>2026-04-25T15:41:32.238Z</time></trkpt><trkpt lat="44.470629" lon="7.3637548"><ele>646.0</ele><time>2026-04-25T15:41:34.237Z</time></trkpt><trkpt lat="44.4705987" lon="7.3638476"><ele>646.0</ele><time>2026-04-25T15:41:36.141Z</time></trkpt><trkpt lat="44.4706169" lon="7.3639572"><ele>646.0</ele><time>2026-04-25T15:41:38.237Z</time></trkpt><trkpt lat="44.4706418" lon="7.364056"><ele>646.0</ele><time>2026-04-25T15:41:40.237Z</time></trkpt><trkpt lat="44.470647" lon="7.3641509"><ele>646.0000000000001</ele><time>2026-04-25T15:41:42.176Z</time></trkpt><trkpt lat="44.4706231" lon="7.3642417"><ele>646.0</ele><time>2026-04-25T15:41:44.238Z</time></trkpt><trkpt lat="44.4705973" lon="7.364358"><ele>648.8333333333334</ele><time>2026-04-25T15:41:47.238Z</time></trkpt><trkpt lat="44.4705763" lon="7.364466"><ele>651.6666666666667</ele><time>2026-04-25T15:41:50.146Z</time></trkpt><trkpt lat="44.4705598" lon="7.3645667"><ele>654.5</ele><time>2026-04-25T15:41:53.237Z</time></trkpt><trkpt lat="44.4705623" lon="7.3646683"><ele>657.3333333333334</ele><time>2026-04-25T15:41:56.177Z</time></trkpt><trkpt lat="44.4705762" lon="7.3647748"><ele>660.1666666666666</ele><time>2026-04-25T15:41:59.238Z</time></trkpt><trkpt lat="44.4706166" lon="7.3648723"><ele>663.0</ele><time>2026-04-25T15:42:02.237Z</time></trkpt><trkpt lat="44.4706725" lon="7.3649592"><ele>664.3333333333334</ele><time>2026-04-25T15:42:05.237Z</time></trkpt><trkpt lat="44.4707168" lon="7.3650579"><ele>665.6666666666666</ele><time>2026-04-25T15:42:08.237Z</time></trkpt><trkpt lat="44.4707825" lon="7.3650938"><ele>667.0</ele><time>2026-04-25T15:42:11.238Z</time></trkpt><trkpt lat="44.4708663" lon="7.3650734"><ele>668.3333333333333</ele><time>2026-04-25T15:42:14.238Z</time></trkpt><trkpt lat="44.4709519" lon="7.3650356"><ele>669.6666666666666</ele><time>2026-04-25T15:42:17.239Z</time></trkpt><trkpt lat="44.4710405" lon="7.3650159"><ele>671.0</ele><time>2026-04-25T15:42:20.237Z</time></trkpt><trkpt lat="44.4711286" lon="7.3650101"><ele>671.0</ele><time>2026-04-25T15:42:23.238Z</time></trkpt><trkpt lat="44.4712105" lon="7.3649888"><ele>671.0</ele><time>2026-04-25T15:42:26.237Z</time></trkpt><trkpt lat="44.4712957" lon="7.3649757"><ele>671.0</ele><time>2026-04-25T15:42:29.238Z</time></trkpt><trkpt lat="44.4713671" lon="7.3649606"><ele>671.0</ele><time>2026-04-25T15:42:32.238Z</time></trkpt><trkpt lat="44.4714437" lon="7.3649492"><ele>671.0</ele><time>2026-04-25T15:42:35.239Z</time></trkpt><trkpt lat="44.47152" lon="7.3649297"><ele>671.0</ele><time>2026-04-25T15:42:38.176Z</time></trkpt><trkpt lat="44.4715958" lon="7.3649068"><ele>673.3333333333333</ele><time>2026-04-25T15:42:41.237Z</time></trkpt><trkpt lat="44.4716674" lon="7.3649192"><ele>675.6666666666666</ele><time>2026-04-25T15:42:44.238Z</time></trkpt><trkpt lat="44.471736" lon="7.3649538"><ele>678.0</ele><time>2026-04-25T15:42:47.238Z</time></trkpt><trkpt lat="44.4717998" lon="7.364996"><ele>680.3333333333334</ele><time>2026-04-25T15:42:50.238Z</time></trkpt><trkpt lat="44.4718515" lon="7.3650554"><ele>682.6666666666667</ele><time>2026-04-25T15:42:53.238Z</time></trkpt><trkpt lat="44.4719185" lon="7.3651295"><ele>685.0</ele><time>2026-04-25T15:42:57.237Z</time></trkpt><trkpt lat="44.4719476" lon="7.365242"><ele>685.0</ele><time>2026-04-25T15:43:00.238Z</time></trkpt><trkpt lat="44.4719926" lon="7.3653474"><ele>685.0</ele><time>2026-04-25T15:43:03.238Z</time></trkpt><trkpt lat="44.4720444" lon="7.3654458"><ele>685.0</ele><time>2026-04-25T15:43:06.238Z</time></trkpt><trkpt lat="44.4720933" lon="7.3655511"><ele>685.0</ele><time>2026-04-25T15:43:09.244Z</time></trkpt><trkpt lat="44.4721196" lon="7.3656536"><ele>685.0</ele><time>2026-04-25T15:43:12.238Z</time></trkpt><trkpt lat="44.4721574" lon="7.36575"><ele>685.0</ele><time>2026-04-25T15:43:15.237Z</time></trkpt><trkpt lat="44.4721817" lon="7.3658562"><ele>685.6666666666667</ele><time>2026-04-25T15:43:18.237Z</time></trkpt><trkpt lat="44.4722066" lon="7.3659707"><ele>686.3333333333334</ele><time>2026-04-25T15:43:21.238Z</time></trkpt><trkpt lat="44.4722309" lon="7.3660559"><ele>687.0</ele><time>2026-04-25T15:43:23.238Z</time></trkpt><trkpt lat="44.472279" lon="7.3661545"><ele>687.6666666666666</ele><time>2026-04-25T15:43:26.238Z</time></trkpt><trkpt lat="44.4723524" lon="7.3662522"><ele>688.3333333333333</ele><time>2026-04-25T15:43:29.237Z</time></trkpt><trkpt lat="44.4724249" lon="7.3663356"><ele>689.0</ele><time>2026-04-25T15:43:32.237Z</time></trkpt><trkpt lat="44.4724903" lon="7.3663683"><ele>689.0</ele><time>2026-04-25T15:43:34.237Z</time></trkpt><trkpt lat="44.4725577" lon="7.3663789"><ele>689.0</ele><time>2026-04-25T15:43:36.238Z</time></trkpt><trkpt lat="44.4726236" lon="7.3663727"><ele>689.0</ele><time>2026-04-25T15:43:38.238Z</time></trkpt><trkpt lat="44.4726866" lon="7.3663488"><ele>689.0</ele><time>2026-04-25T15:43:40.238Z</time></trkpt><trkpt lat="44.4727608" lon="7.3662766"><ele>689.0</ele><time>2026-04-25T15:43:43.238Z</time></trkpt><trkpt lat="44.4728288" lon="7.3661897"><ele>689.0</ele><time>2026-04-25T15:43:46.237Z</time></trkpt><trkpt lat="44.4728796" lon="7.3661318"><ele>689.0</ele><time>2026-04-25T15:43:48.237Z</time></trkpt><trkpt lat="44.4729254" lon="7.3660696"><ele>691.0</ele><time>2026-04-25T15:43:50.238Z</time></trkpt><trkpt lat="44.4729908" lon="7.3659805"><ele>693.0</ele><time>2026-04-25T15:43:53.236Z</time></trkpt><trkpt lat="44.4730586" lon="7.3658938"><ele>695.0</ele><time>2026-04-25T15:43:56.246Z</time></trkpt><trkpt lat="44.4730952" lon="7.3657933"><ele>697.0</ele><time>2026-04-25T15:43:59.237Z</time></trkpt><trkpt lat="44.4731485" lon="7.365731"><ele>699.0</ele><time>2026-04-25T15:44:02.237Z</time></trkpt><trkpt lat="44.4732228" lon="7.3657348"><ele>701.0</ele><time>2026-04-25T15:44:05.236Z</time></trkpt><trkpt lat="44.4732848" lon="7.3657718"><ele>701.0</ele><time>2026-04-25T15:44:08.237Z</time></trkpt><trkpt lat="44.473353" lon="7.3657938"><ele>701.0</ele><time>2026-04-25T15:44:11.236Z</time></trkpt><trkpt lat="44.4734304" lon="7.3658354"><ele>701.0</ele><time>2026-04-25T15:44:14.236Z</time></trkpt><trkpt lat="44.4735048" lon="7.3658781"><ele>701.0</ele><time>2026-04-25T15:44:17.236Z</time></trkpt><trkpt lat="44.4735633" lon="7.3659464"><ele>701.0</ele><time>2026-04-25T15:44:20.236Z</time></trkpt><trkpt lat="44.4736189" lon="7.3660109"><ele>701.0</ele><time>2026-04-25T15:44:23.237Z</time></trkpt><trkpt lat="44.4736548" lon="7.3661083"><ele>701.0</ele><time>2026-04-25T15:44:26.237Z</time></trkpt><trkpt lat="44.4736921" lon="7.3662157"><ele>701.0</ele><time>2026-04-25T15:44:29.236Z</time></trkpt><trkpt lat="44.4737356" lon="7.3663141"><ele>701.0</ele><time>2026-04-25T15:44:32.237Z</time></trkpt><trkpt lat="44.4737965" lon="7.3663788"><ele>701.0</ele><time>2026-04-25T15:44:35.237Z</time></trkpt><trkpt lat="44.4738646" lon="7.3664366"><ele>701.0</ele><time>2026-04-25T15:44:38.237Z</time></trkpt><trkpt lat="44.4739237" lon="7.3664849"><ele>701.0</ele><time>2026-04-25T15:44:41.247Z</time></trkpt><trkpt lat="44.4739812" lon="7.3665278"><ele>703.0</ele><time>2026-04-25T15:46:22.237Z</time></trkpt><trkpt lat="44.4740341" lon="7.3665863"><ele>705.0</ele><time>2026-04-25T15:46:24.236Z</time></trkpt><trkpt lat="44.4741056" lon="7.3666297"><ele>707.0</ele><time>2026-04-25T15:46:26.236Z</time></trkpt><trkpt lat="44.4741742" lon="7.3666651"><ele>709.0</ele><time>2026-04-25T15:46:28.236Z</time></trkpt><trkpt lat="44.4742473" lon="7.3667278"><ele>711.0</ele><time>2026-04-25T15:46:31.236Z</time></trkpt><trkpt lat="44.4742998" lon="7.3667807"><ele>713.0</ele><time>2026-04-25T15:46:34.236Z</time></trkpt><trkpt lat="44.4743607" lon="7.3668247"><ele>715.0</ele><time>2026-04-25T15:46:37.237Z</time></trkpt><trkpt lat="44.4744264" lon="7.3668555"><ele>715.0</ele><time>2026-04-25T15:46:39.236Z</time></trkpt><trkpt lat="44.4744871" lon="7.3668794"><ele>715.0</ele><time>2026-04-25T15:46:41.237Z</time></trkpt><trkpt lat="44.4745655" lon="7.366925"><ele>715.0</ele><time>2026-04-25T15:46:44.218Z</time></trkpt><trkpt lat="44.4746592" lon="7.3669731"><ele>715.0</ele><time>2026-04-25T15:46:47.237Z</time></trkpt><trkpt lat="44.4747294" lon="7.3670302"><ele>715.0</ele><time>2026-04-25T15:46:49.163Z</time></trkpt><trkpt lat="44.4748038" lon="7.3671189"><ele>715.0</ele><time>2026-04-25T15:46:51.236Z</time></trkpt><trkpt lat="44.4748754" lon="7.3671933"><ele>716.6666666666667</ele><time>2026-04-25T15:46:53.186Z</time></trkpt><trkpt lat="44.4749387" lon="7.3672386"><ele>718.3333333333334</ele><time>2026-04-25T15:46:55.141Z</time></trkpt><trkpt lat="44.4750243" lon="7.367287"><ele>720.0</ele><time>2026-04-25T15:46:58.237Z</time></trkpt><trkpt lat="44.4751094" lon="7.3673059"><ele>721.6666666666666</ele><time>2026-04-25T15:47:01.236Z</time></trkpt><trkpt lat="44.4751953" lon="7.3673223"><ele>723.3333333333333</ele><time>2026-04-25T15:47:04.14Z</time></trkpt><trkpt lat="44.4752785" lon="7.3673332"><ele>725.0</ele><time>2026-04-25T15:47:07.237Z</time></trkpt><trkpt lat="44.4753414" lon="7.3673127"><ele>725.0</ele><time>2026-04-25T15:47:10.263Z</time></trkpt><trkpt lat="44.4754331" lon="7.3672562"><ele>725.0</ele><time>2026-04-25T15:47:13.237Z</time></trkpt><trkpt lat="44.4755029" lon="7.3672021"><ele>725.0</ele><time>2026-04-25T15:47:15.236Z</time></trkpt><trkpt lat="44.4755575" lon="7.3671446"><ele>725.0</ele><time>2026-04-25T15:47:17.236Z</time></trkpt><trkpt lat="44.4756347" lon="7.367075"><ele>725.0</ele><time>2026-04-25T15:47:20.237Z</time></trkpt><trkpt lat="44.475717" lon="7.3670331"><ele>725.0</ele><time>2026-04-25T15:47:23.236Z</time></trkpt><trkpt lat="44.4757832" lon="7.3669965"><ele>723.3333333333333</ele><time>2026-04-25T15:47:25.237Z</time></trkpt><trkpt lat="44.4758454" lon="7.366959"><ele>721.6666666666666</ele><time>2026-04-25T15:47:27.237Z</time></trkpt><trkpt lat="44.4759093" lon="7.3669065"><ele>720.0</ele><time>2026-04-25T15:47:29.236Z</time></trkpt><trkpt lat="44.4759724" lon="7.3668161"><ele>718.3333333333334</ele><time>2026-04-25T15:47:31.236Z</time></trkpt><trkpt lat="44.4760157" lon="7.366713"><ele>716.6666666666667</ele><time>2026-04-25T15:47:33.236Z</time></trkpt><trkpt lat="44.4760576" lon="7.3666151"><ele>715.0</ele><time>2026-04-25T15:47:35.236Z</time></trkpt><trkpt lat="44.47609" lon="7.3665237"><ele>715.0</ele><time>2026-04-25T15:47:37.236Z</time></trkpt><trkpt lat="44.4761275" lon="7.3664432"><ele>715.0</ele><time>2026-04-25T15:47:39.236Z</time></trkpt><trkpt lat="44.4761829" lon="7.3663866"><ele>715.0</ele><time>2026-04-25T15:47:41.238Z</time></trkpt><trkpt lat="44.4762957" lon="7.3663679"><ele>715.0</ele><time>2026-04-25T15:47:43.237Z</time></trkpt><trkpt lat="44.476407" lon="7.3663714"><ele>715.0</ele><time>2026-04-25T15:47:45.237Z</time></trkpt><trkpt lat="44.476546" lon="7.3663845"><ele>715.4</ele><time>2026-04-25T15:47:47.236Z</time></trkpt><trkpt lat="44.4766439" lon="7.3663003"><ele>715.8</ele><time>2026-04-25T15:47:49.236Z</time></trkpt><trkpt lat="44.4767316" lon="7.3661777"><ele>716.2</ele><time>2026-04-25T15:47:51.235Z</time></trkpt><trkpt lat="44.4768206" lon="7.3660756"><ele>716.6</ele><time>2026-04-25T15:47:53.236Z</time></trkpt><trkpt lat="44.4769036" lon="7.3660103"><ele>717.0</ele><time>2026-04-25T15:47:55.236Z</time></trkpt><trkpt lat="44.4769723" lon="7.3659443"><ele>717.0</ele><time>2026-04-25T15:47:57.236Z</time></trkpt><trkpt lat="44.47703" lon="7.3658794"><ele>717.0</ele><time>2026-04-25T15:47:59.236Z</time></trkpt><trkpt lat="44.4770765" lon="7.3658167"><ele>717.0</ele><time>2026-04-25T15:48:01.237Z</time></trkpt><trkpt lat="44.4771353" lon="7.3657489"><ele>717.0</ele><time>2026-04-25T15:48:03.236Z</time></trkpt><trkpt lat="44.4771848" lon="7.3656743"><ele>717.0</ele><time>2026-04-25T15:48:05.236Z</time></trkpt><trkpt lat="44.4772295" lon="7.3656094"><ele>717.0</ele><time>2026-04-25T15:48:07.235Z</time></trkpt><trkpt lat="44.4772855" lon="7.3655351"><ele>717.0</ele><time>2026-04-25T15:48:10.236Z</time></trkpt><trkpt lat="44.4773538" lon="7.3654777"><ele>717.8333333333334</ele><time>2026-04-25T15:48:13.235Z</time></trkpt><trkpt lat="44.4774213" lon="7.365407"><ele>718.6666666666666</ele><time>2026-04-25T15:48:16.236Z</time></trkpt><trkpt lat="44.4774828" lon="7.3653373"><ele>719.5</ele><time>2026-04-25T15:48:19.236Z</time></trkpt><trkpt lat="44.477556" lon="7.3652824"><ele>720.3333333333333</ele><time>2026-04-25T15:48:22.235Z</time></trkpt><trkpt lat="44.4776419" lon="7.3652293"><ele>721.1666666666666</ele><time>2026-04-25T15:48:25.245Z</time></trkpt><trkpt lat="44.4777151" lon="7.3651727"><ele>722.0</ele><time>2026-04-25T15:48:28.235Z</time></trkpt><trkpt lat="44.4777686" lon="7.3651227"><ele>722.0</ele><time>2026-04-25T15:48:30.235Z</time></trkpt><trkpt lat="44.4778209" lon="7.3650715"><ele>722.0</ele><time>2026-04-25T15:48:32.24Z</time></trkpt><trkpt lat="44.4778936" lon="7.3650043"><ele>722.0</ele><time>2026-04-25T15:48:35.235Z</time></trkpt><trkpt lat="44.47796" lon="7.364914"><ele>722.0</ele><time>2026-04-25T15:48:38.185Z</time></trkpt><trkpt lat="44.4780268" lon="7.364821"><ele>722.0</ele><time>2026-04-25T15:48:41.235Z</time></trkpt><trkpt lat="44.4780715" lon="7.3647536"><ele>722.0</ele><time>2026-04-25T15:48:43.235Z</time></trkpt><trkpt lat="44.4781181" lon="7.364688"><ele>723.3333333333333</ele><time>2026-04-25T15:48:45.235Z</time></trkpt><trkpt lat="44.4781658" lon="7.3646255"><ele>724.6666666666666</ele><time>2026-04-25T15:48:47.236Z</time></trkpt><trkpt lat="44.4782076" lon="7.3645582"><ele>726.0</ele><time>2026-04-25T15:48:49.236Z</time></trkpt><trkpt lat="44.4782746" lon="7.3644713"><ele>727.3333333333334</ele><time>2026-04-25T15:48:52.236Z</time></trkpt><trkpt lat="44.478339" lon="7.3643811"><ele>728.6666666666667</ele><time>2026-04-25T15:48:55.235Z</time></trkpt><trkpt lat="44.4783991" lon="7.3642926"><ele>730.0</ele><time>2026-04-25T15:48:58.243Z</time></trkpt><trkpt lat="44.4784429" lon="7.3642122"><ele>730.0000000000001</ele><time>2026-04-25T15:49:01.236Z</time></trkpt><trkpt lat="44.4784738" lon="7.3641273"><ele>730.0</ele><time>2026-04-25T15:49:04.235Z</time></trkpt><trkpt lat="44.4785342" lon="7.3640894"><ele>730.0</ele><time>2026-04-25T15:49:07.235Z</time></trkpt><trkpt lat="44.4786045" lon="7.3641055"><ele>730.0</ele><time>2026-04-25T15:49:10.235Z</time></trkpt><trkpt lat="44.4786793" lon="7.3641088"><ele>730.0</ele><time>2026-04-25T15:49:13.236Z</time></trkpt><trkpt lat="44.4787548" lon="7.3641403"><ele>730.0000000000001</ele><time>2026-04-25T15:49:16.236Z</time></trkpt><trkpt lat="44.4788352" lon="7.3641396"><ele>730.0</ele><time>2026-04-25T15:49:19.235Z</time></trkpt><trkpt lat="44.4789201" lon="7.3641285"><ele>731.1666666666667</ele><time>2026-04-25T15:49:22.236Z</time></trkpt><trkpt lat="44.4790051" lon="7.3641181"><ele>732.3333333333334</ele><time>2026-04-25T15:49:25.235Z</time></trkpt><trkpt lat="44.4790822" lon="7.3641208"><ele>733.5</ele><time>2026-04-25T15:49:28.235Z</time></trkpt><trkpt lat="44.4791593" lon="7.3640967"><ele>734.6666666666666</ele><time>2026-04-25T15:49:32.235Z</time></trkpt><trkpt lat="44.4792187" lon="7.364057"><ele>735.8333333333333</ele><time>2026-04-25T15:49:36.235Z</time></trkpt><trkpt lat="44.4792662" lon="7.3639796"><ele>737.0</ele><time>2026-04-25T15:49:40.236Z</time></trkpt><trkpt lat="44.4792865" lon="7.3638786"><ele>739.3333333333333</ele><time>2026-04-25T15:49:44.235Z</time></trkpt><trkpt lat="44.4793497" lon="7.363822"><ele>741.6666666666666</ele><time>2026-04-25T15:49:47.236Z</time></trkpt><trkpt lat="44.4794261" lon="7.3638074"><ele>744.0</ele><time>2026-04-25T15:49:50.236Z</time></trkpt><trkpt lat="44.4795027" lon="7.3637874"><ele>746.3333333333334</ele><time>2026-04-25T15:49:53.235Z</time></trkpt><trkpt lat="44.4795775" lon="7.3637652"><ele>748.6666666666667</ele><time>2026-04-25T15:49:56.236Z</time></trkpt><trkpt lat="44.4796662" lon="7.363768"><ele>751.0</ele><time>2026-04-25T15:49:59.236Z</time></trkpt><trkpt lat="44.4797494" lon="7.3637717"><ele>750.6666666666667</ele><time>2026-04-25T15:50:02.235Z</time></trkpt><trkpt lat="44.4798295" lon="7.3637755"><ele>750.3333333333334</ele><time>2026-04-25T15:50:05.236Z</time></trkpt><trkpt lat="44.4799052" lon="7.3637868"><ele>750.0</ele><time>2026-04-25T15:50:08.235Z</time></trkpt><trkpt lat="44.4799793" lon="7.3637905"><ele>749.6666666666666</ele><time>2026-04-25T15:50:11.236Z</time></trkpt><trkpt lat="44.4800503" lon="7.3638462"><ele>749.3333333333333</ele><time>2026-04-25T15:50:14.235Z</time></trkpt><trkpt lat="44.4800956" lon="7.3639304"><ele>749.0</ele><time>2026-04-25T15:50:17.235Z</time></trkpt><trkpt lat="44.4801109" lon="7.3640363"><ele>749.0</ele><time>2026-04-25T15:50:20.236Z</time></trkpt><trkpt lat="44.4801125" lon="7.3641401"><ele>749.0</ele><time>2026-04-25T15:50:23.235Z</time></trkpt><trkpt lat="44.4801362" lon="7.3642399"><ele>749.0</ele><time>2026-04-25T15:50:26.235Z</time></trkpt><trkpt lat="44.4801708" lon="7.3643496"><ele>749.0</ele><time>2026-04-25T15:50:29.235Z</time></trkpt><trkpt lat="44.4802094" lon="7.3644642"><ele>749.0</ele><time>2026-04-25T15:50:32.236Z</time></trkpt><trkpt lat="44.4802495" lon="7.3645695"><ele>749.0</ele><time>2026-04-25T15:50:35.236Z</time></trkpt><trkpt lat="44.4802986" lon="7.3646676"><ele>750.1428571428571</ele><time>2026-04-25T15:50:38.235Z</time></trkpt><trkpt lat="44.4803451" lon="7.3647502"><ele>751.2857142857142</ele><time>2026-04-25T15:50:41.235Z</time></trkpt><trkpt lat="44.480391" lon="7.364825"><ele>752.4285714285714</ele><time>2026-04-25T15:50:44.235Z</time></trkpt><trkpt lat="44.4804553" lon="7.3648801"><ele>753.5714285714286</ele><time>2026-04-25T15:50:47.235Z</time></trkpt><trkpt lat="44.480521" lon="7.3649133"><ele>754.7142857142857</ele><time>2026-04-25T15:50:50.236Z</time></trkpt><trkpt lat="44.4805866" lon="7.3649387"><ele>755.8571428571429</ele><time>2026-04-25T15:50:53.236Z</time></trkpt><trkpt lat="44.4806527" lon="7.3649286"><ele>757.0</ele><time>2026-04-25T15:50:56.235Z</time></trkpt><trkpt lat="44.4807278" lon="7.3649252"><ele>757.0</ele><time>2026-04-25T15:51:00.236Z</time></trkpt><trkpt lat="44.4808046" lon="7.3649041"><ele>757.0</ele><time>2026-04-25T15:51:04.235Z</time></trkpt><trkpt lat="44.4808675" lon="7.3648836"><ele>757.0</ele><time>2026-04-25T15:51:07.236Z</time></trkpt><trkpt lat="44.4809363" lon="7.3648775"><ele>757.0</ele><time>2026-04-25T15:51:10.236Z</time></trkpt><trkpt lat="44.4810012" lon="7.3648744"><ele>757.0</ele><time>2026-04-25T15:51:13.235Z</time></trkpt><trkpt lat="44.4810829" lon="7.3648428"><ele>757.0</ele><time>2026-04-25T15:51:17.235Z</time></trkpt><trkpt lat="44.4811436" lon="7.3648055"><ele>757.0</ele><time>2026-04-25T15:51:20.236Z</time></trkpt><trkpt lat="44.4812096" lon="7.3647787"><ele>757.4285714285714</ele><time>2026-04-25T15:51:23.236Z</time></trkpt><trkpt lat="44.4812809" lon="7.36476"><ele>757.8571428571428</ele><time>2026-04-25T15:51:26.235Z</time></trkpt><trkpt lat="44.4813549" lon="7.3647543"><ele>758.2857142857142</ele><time>2026-04-25T15:51:29.235Z</time></trkpt><trkpt lat="44.481419" lon="7.3647557"><ele>758.7142857142858</ele><time>2026-04-25T15:51:32.236Z</time></trkpt><trkpt lat="44.4814866" lon="7.364761"><ele>759.1428571428571</ele><time>2026-04-25T15:51:35.236Z</time></trkpt><trkpt lat="44.4815531" lon="7.364768"><ele>759.5714285714286</ele><time>2026-04-25T15:51:38.235Z</time></trkpt><trkpt lat="44.4816237" lon="7.3647913"><ele>760.0</ele><time>2026-04-25T15:51:41.236Z</time></trkpt><trkpt lat="44.4817021" lon="7.364789"><ele>760.0</ele><time>2026-04-25T15:51:45.236Z</time></trkpt><trkpt lat="44.4817658" lon="7.3647688"><ele>760.0</ele><time>2026-04-25T15:51:48.235Z</time></trkpt><trkpt lat="44.4818352" lon="7.3647374"><ele>760.0</ele><time>2026-04-25T15:51:51.236Z</time></trkpt><trkpt lat="44.4819077" lon="7.3646848"><ele>760.0</ele><time>2026-04-25T15:51:55.236Z</time></trkpt><trkpt lat="44.4819627" lon="7.3646294"><ele>760.0</ele><time>2026-04-25T15:51:58.236Z</time></trkpt><trkpt lat="44.4820262" lon="7.3645492"><ele>760.0</ele><time>2026-04-25T15:52:02.235Z</time></trkpt><trkpt lat="44.4820824" lon="7.3644931"><ele>760.0</ele><time>2026-04-25T15:52:05.235Z</time></trkpt><trkpt lat="44.4821401" lon="7.364455"><ele>765.5</ele><time>2026-04-25T15:52:08.235Z</time></trkpt><trkpt lat="44.4822213" lon="7.3644257"><ele>771.0</ele><time>2026-04-25T15:52:11.235Z</time></trkpt><trkpt lat="44.4822846" lon="7.3644012"><ele>776.5</ele><time>2026-04-25T15:52:14.235Z</time></trkpt><trkpt lat="44.4823557" lon="7.3643791"><ele>782.0</ele><time>2026-04-25T15:52:17.234Z</time></trkpt><trkpt lat="44.4824359" lon="7.3643512"><ele>787.4999999999999</ele><time>2026-04-25T15:52:20.235Z</time></trkpt><trkpt lat="44.4824931" lon="7.3642937"><ele>793.0</ele><time>2026-04-25T15:52:23.234Z</time></trkpt><trkpt lat="44.4825716" lon="7.3642641"><ele>792.9999999999999</ele><time>2026-04-25T15:52:26.235Z</time></trkpt><trkpt lat="44.482653" lon="7.3642619"><ele>793.0</ele><time>2026-04-25T15:52:29.235Z</time></trkpt><trkpt lat="44.4827174" lon="7.3642687"><ele>793.0</ele><time>2026-04-25T15:52:32.234Z</time></trkpt><trkpt lat="44.4828012" lon="7.3642611"><ele>793.0</ele><time>2026-04-25T15:52:36.235Z</time></trkpt><trkpt lat="44.4828754" lon="7.3642397"><ele>792.9999999999999</ele><time>2026-04-25T15:52:40.234Z</time></trkpt><trkpt lat="44.4829479" lon="7.3641869"><ele>793.0</ele><time>2026-04-25T15:52:44.234Z</time></trkpt><trkpt lat="44.4830182" lon="7.3641404"><ele>793.4999999999999</ele><time>2026-04-25T15:52:48.234Z</time></trkpt><trkpt lat="44.4830865" lon="7.3641021"><ele>794.0</ele><time>2026-04-25T15:52:52.235Z</time></trkpt><trkpt lat="44.4831629" lon="7.3640614"><ele>794.5</ele><time>2026-04-25T15:52:56.235Z</time></trkpt><trkpt lat="44.4832378" lon="7.3640499"><ele>795.0</ele><time>2026-04-25T15:53:00.234Z</time></trkpt><trkpt lat="44.4833178" lon="7.3640111"><ele>795.4999999999999</ele><time>2026-04-25T15:53:04.234Z</time></trkpt><trkpt lat="44.483377" lon="7.3639658"><ele>796.0</ele><time>2026-04-25T15:53:07.235Z</time></trkpt><trkpt lat="44.4834327" lon="7.3638995"><ele>799.4999999999999</ele><time>2026-04-25T15:53:11.234Z</time></trkpt><trkpt lat="44.4834784" lon="7.3638164"><ele>803.0</ele><time>2026-04-25T15:53:15.236Z</time></trkpt><trkpt lat="44.4835183" lon="7.3637316"><ele>806.5</ele><time>2026-04-25T15:53:19.234Z</time></trkpt><trkpt lat="44.483583" lon="7.3636626"><ele>810.0</ele><time>2026-04-25T15:53:23.234Z</time></trkpt><trkpt lat="44.4836423" lon="7.3636172"><ele>813.4999999999999</ele><time>2026-04-25T15:53:26.235Z</time></trkpt><trkpt lat="44.483721" lon="7.3635955"><ele>817.0</ele><time>2026-04-25T15:53:30.235Z</time></trkpt><trkpt lat="44.4838034" lon="7.3636055"><ele>817.3333333333333</ele><time>2026-04-25T15:53:34.234Z</time></trkpt><trkpt lat="44.4838631" lon="7.3636414"><ele>817.6666666666666</ele><time>2026-04-25T15:53:37.235Z</time></trkpt><trkpt lat="44.4839177" lon="7.3637152"><ele>818.0</ele><time>2026-04-25T15:53:41.235Z</time></trkpt><trkpt lat="44.4839739" lon="7.3637688"><ele>818.3333333333333</ele><time>2026-04-25T15:53:44.234Z</time></trkpt><trkpt lat="44.4840366" lon="7.3638345"><ele>818.6666666666666</ele><time>2026-04-25T15:53:48.234Z</time></trkpt><trkpt lat="44.4840913" lon="7.3639214"><ele>819.0</ele><time>2026-04-25T15:53:52.235Z</time></trkpt><trkpt lat="44.4841582" lon="7.3639958"><ele>819.0</ele><time>2026-04-25T15:53:56.235Z</time></trkpt><trkpt lat="44.4842261" lon="7.3640021"><ele>819.0</ele><time>2026-04-25T15:55:01.234Z</time></trkpt><trkpt lat="44.4842471" lon="7.3639088"><ele>819.0</ele><time>2026-04-25T15:55:04.234Z</time></trkpt><trkpt lat="44.4842074" lon="7.3638086"><ele>819.0</ele><time>2026-04-25T15:55:07.236Z</time></trkpt><trkpt lat="44.4841717" lon="7.363728"><ele>819.0</ele><time>2026-04-25T15:55:10.234Z</time></trkpt><trkpt lat="44.4841269" lon="7.3636432"><ele>819.0</ele><time>2026-04-25T15:55:14.234Z</time></trkpt><trkpt lat="44.4841032" lon="7.3635323"><ele>819.0</ele><time>2026-04-25T15:55:18.235Z</time></trkpt><trkpt lat="44.4840965" lon="7.363409"><ele>819.0</ele><time>2026-04-25T15:55:22.235Z</time></trkpt><trkpt lat="44.4841033" lon="7.3633023"><ele>819.0</ele><time>2026-04-25T15:55:25.234Z</time></trkpt><trkpt lat="44.4841014" lon="7.363207"><ele>819.0</ele><time>2026-04-25T15:55:28.234Z</time></trkpt><trkpt lat="44.4840796" lon="7.3631133"><ele>819.0</ele><time>2026-04-25T15:55:31.234Z</time></trkpt><trkpt lat="44.4840101" lon="7.3630388"><ele>819.0</ele><time>2026-04-25T15:55:34.234Z</time></trkpt><trkpt lat="44.4839469" lon="7.3630344"><ele>819.0</ele><time>2026-04-25T15:55:36.235Z</time></trkpt><trkpt lat="44.4838714" lon="7.3630337"><ele>819.0</ele><time>2026-04-25T15:55:39.235Z</time></trkpt><trkpt lat="44.4838059" lon="7.3630337"><ele>820.4285714285714</ele><time>2026-04-25T15:55:42.234Z</time></trkpt><trkpt lat="44.4837298" lon="7.363013"><ele>821.8571428571429</ele><time>2026-04-25T15:55:45.234Z</time></trkpt><trkpt lat="44.4836477" lon="7.3629799"><ele>823.2857142857142</ele><time>2026-04-25T15:55:48.234Z</time></trkpt><trkpt lat="44.4835726" lon="7.3629424"><ele>824.7142857142858</ele><time>2026-04-25T15:55:51.235Z</time></trkpt><trkpt lat="44.4835107" lon="7.3629077"><ele>826.1428571428571</ele><time>2026-04-25T15:55:54.235Z</time></trkpt><trkpt lat="44.4834526" lon="7.3628549"><ele>827.5714285714286</ele><time>2026-04-25T15:55:57.235Z</time></trkpt><trkpt lat="44.4833989" lon="7.362799"><ele>829.0</ele><time>2026-04-25T15:56:00.234Z</time></trkpt><trkpt lat="44.4833336" lon="7.362789"><ele>829.0</ele><time>2026-04-25T15:56:03.234Z</time></trkpt><trkpt lat="44.483259" lon="7.3628159"><ele>829.0</ele><time>2026-04-25T15:56:07.235Z</time></trkpt><trkpt lat="44.483192" lon="7.36287"><ele>829.0</ele><time>2026-04-25T15:56:11.234Z</time></trkpt><trkpt lat="44.4831241" lon="7.3628937"><ele>829.0</ele><time>2026-04-25T15:56:14.235Z</time></trkpt><trkpt lat="44.4830645" lon="7.3629381"><ele>829.0</ele><time>2026-04-25T15:56:17.235Z</time></trkpt><trkpt lat="44.4830097" lon="7.3630015"><ele>829.0</ele><time>2026-04-25T15:56:20.235Z</time></trkpt><trkpt lat="44.4829431" lon="7.363063"><ele>829.0</ele><time>2026-04-25T15:56:24.234Z</time></trkpt><trkpt lat="44.4828761" lon="7.3631123"><ele>828.5714285714286</ele><time>2026-04-25T15:56:28.236Z</time></trkpt><trkpt lat="44.4828108" lon="7.3631422"><ele>828.1428571428571</ele><time>2026-04-25T15:56:31.235Z</time></trkpt><trkpt lat="44.482745" lon="7.3631537"><ele>827.7142857142858</ele><time>2026-04-25T15:56:34.235Z</time></trkpt><trkpt lat="44.4826765" lon="7.3631592"><ele>827.2857142857142</ele><time>2026-04-25T15:56:37.235Z</time></trkpt><trkpt lat="44.482607" lon="7.3631417"><ele>826.8571428571429</ele><time>2026-04-25T15:56:40.235Z</time></trkpt><trkpt lat="44.4825368" lon="7.3631126"><ele>826.4285714285714</ele><time>2026-04-25T15:56:43.234Z</time></trkpt><trkpt lat="44.4824602" lon="7.3630922"><ele>826.0</ele><time>2026-04-25T15:56:46.235Z</time></trkpt><trkpt lat="44.4823819" lon="7.3631153"><ele>826.0</ele><time>2026-04-25T15:56:50.235Z</time></trkpt><trkpt lat="44.4823118" lon="7.3631316"><ele>826.0</ele><time>2026-04-25T15:56:53.235Z</time></trkpt><trkpt lat="44.4822423" lon="7.3631557"><ele>826.0</ele><time>2026-04-25T15:56:56.235Z</time></trkpt><trkpt lat="44.4821613" lon="7.3631674"><ele>826.0</ele><time>2026-04-25T15:56:59.235Z</time></trkpt><trkpt lat="44.4820896" lon="7.3631899"><ele>826.0</ele><time>2026-04-25T15:57:02.234Z</time></trkpt><trkpt lat="44.4820352" lon="7.3632403"><ele>826.0</ele><time>2026-04-25T15:57:05.233Z</time></trkpt><trkpt lat="44.481963" lon="7.3632918"><ele>826.0</ele><time>2026-04-25T15:57:08.234Z</time></trkpt><trkpt lat="44.4818938" lon="7.3633239"><ele>826.8333333333333</ele><time>2026-04-25T15:57:11.233Z</time></trkpt><trkpt lat="44.4818182" lon="7.3633459"><ele>827.6666666666666</ele><time>2026-04-25T15:57:14.234Z</time></trkpt><trkpt lat="44.4817445" lon="7.3633644"><ele>828.5</ele><time>2026-04-25T15:57:18.234Z</time></trkpt><trkpt lat="44.4816614" lon="7.3633846"><ele>829.3333333333333</ele><time>2026-04-25T15:57:22.233Z</time></trkpt><trkpt lat="44.4815921" lon="7.3633869"><ele>830.1666666666666</ele><time>2026-04-25T15:57:25.233Z</time></trkpt><trkpt lat="44.4815249" lon="7.3633581"><ele>831.0</ele><time>2026-04-25T15:57:28.234Z</time></trkpt><trkpt lat="44.4814723" lon="7.3632847"><ele>830.9999999999999</ele><time>2026-04-25T15:57:31.234Z</time></trkpt><trkpt lat="44.4814592" lon="7.3631776"><ele>831.0</ele><time>2026-04-25T15:57:34.234Z</time></trkpt><trkpt lat="44.4814622" lon="7.3630831"><ele>831.0</ele><time>2026-04-25T15:57:37.233Z</time></trkpt><trkpt lat="44.4814703" lon="7.3629778"><ele>831.0</ele><time>2026-04-25T15:57:42.234Z</time></trkpt><trkpt lat="44.4814873" lon="7.3628822"><ele>831.0</ele><time>2026-04-25T15:57:46.234Z</time></trkpt><trkpt lat="44.4814973" lon="7.362787"><ele>830.9999999999999</ele><time>2026-04-25T15:57:50.233Z</time></trkpt><trkpt lat="44.4814729" lon="7.3626805"><ele>831.0</ele><time>2026-04-25T15:57:54.233Z</time></trkpt><trkpt lat="44.4814161" lon="7.362617"><ele>833.8571428571428</ele><time>2026-04-25T15:57:59.233Z</time></trkpt><trkpt lat="44.4813806" lon="7.362535"><ele>836.7142857142857</ele><time>2026-04-25T15:58:02.234Z</time></trkpt><trkpt lat="44.4813721" lon="7.3624431"><ele>839.5714285714286</ele><time>2026-04-25T15:58:05.233Z</time></trkpt><trkpt lat="44.4813675" lon="7.3623479"><ele>842.4285714285713</ele><time>2026-04-25T15:58:09.234Z</time></trkpt><trkpt lat="44.4813673" lon="7.3622438"><ele>845.2857142857143</ele><time>2026-04-25T15:58:13.234Z</time></trkpt><trkpt lat="44.4813367" lon="7.3621562"><ele>848.1428571428571</ele><time>2026-04-25T15:58:17.233Z</time></trkpt><trkpt lat="44.4813123" lon="7.3620711"><ele>851.0</ele><time>2026-04-25T15:58:21.234Z</time></trkpt><trkpt lat="44.4813178" lon="7.3619775"><ele>853.5000000000001</ele><time>2026-04-25T15:58:24.234Z</time></trkpt><trkpt lat="44.4813194" lon="7.3618696"><ele>856.0</ele><time>2026-04-25T15:58:37.233Z</time></trkpt><trkpt lat="44.481286" lon="7.3617678"><ele>858.5</ele><time>2026-04-25T15:58:41.233Z</time></trkpt><trkpt lat="44.4812546" lon="7.3616678"><ele>861.0</ele><time>2026-04-25T15:58:45.234Z</time></trkpt><trkpt lat="44.4812177" lon="7.3615864"><ele>863.5000000000001</ele><time>2026-04-25T15:58:48.234Z</time></trkpt><trkpt lat="44.4811975" lon="7.3614909"><ele>866.0</ele><time>2026-04-25T15:58:51.233Z</time></trkpt><trkpt lat="44.481181" lon="7.3613871"><ele>862.8571428571428</ele><time>2026-04-25T15:58:55.233Z</time></trkpt><trkpt lat="44.481165" lon="7.3612764"><ele>859.7142857142857</ele><time>2026-04-25T15:58:59.233Z</time></trkpt><trkpt lat="44.4811292" lon="7.3612007"><ele>856.5714285714286</ele><time>2026-04-25T15:59:02.234Z</time></trkpt><trkpt lat="44.4810875" lon="7.3611291"><ele>853.4285714285713</ele><time>2026-04-25T15:59:05.233Z</time></trkpt><trkpt lat="44.4810491" lon="7.3610278"><ele>850.2857142857143</ele><time>2026-04-25T15:59:09.235Z</time></trkpt><trkpt lat="44.481028" lon="7.3609297"><ele>847.1428571428571</ele><time>2026-04-25T15:59:12.233Z</time></trkpt><trkpt lat="44.4810211" lon="7.360828"><ele>844.0</ele><time>2026-04-25T15:59:15.234Z</time></trkpt><trkpt lat="44.4810248" lon="7.3607301"><ele>844.0</ele><time>2026-04-25T15:59:18.233Z</time></trkpt><trkpt lat="44.4810405" lon="7.3606143"><ele>844.0</ele><time>2026-04-25T15:59:22.234Z</time></trkpt><trkpt lat="44.4810578" lon="7.3605026"><ele>844.0</ele><time>2026-04-25T15:59:26.234Z</time></trkpt><trkpt lat="44.4810818" lon="7.3604195"><ele>844.0</ele><time>2026-04-25T15:59:29.233Z</time></trkpt><trkpt lat="44.4811031" lon="7.3603336"><ele>844.0</ele><time>2026-04-25T15:59:32.234Z</time></trkpt><trkpt lat="44.4811321" lon="7.3602246"><ele>844.0</ele><time>2026-04-25T15:59:36.233Z</time></trkpt><trkpt lat="44.4811408" lon="7.3601282"><ele>844.0</ele><time>2026-04-25T15:59:39.234Z</time></trkpt><trkpt lat="44.4811377" lon="7.3600342"><ele>844.7142857142858</ele><time>2026-04-25T15:59:42.233Z</time></trkpt><trkpt lat="44.481135" lon="7.3599442"><ele>845.4285714285714</ele><time>2026-04-25T15:59:45.234Z</time></trkpt><trkpt lat="44.4811211" lon="7.3598522"><ele>846.1428571428571</ele><time>2026-04-25T15:59:48.233Z</time></trkpt><trkpt lat="44.4811133" lon="7.3597381"><ele>846.8571428571429</ele><time>2026-04-25T15:59:52.233Z</time></trkpt><trkpt lat="44.4811178" lon="7.3596222"><ele>847.5714285714286</ele><time>2026-04-25T15:59:56.233Z</time></trkpt><trkpt lat="44.4811538" lon="7.3595253"><ele>848.2857142857143</ele><time>2026-04-25T16:00:00.234Z</time></trkpt><trkpt lat="44.4812047" lon="7.3594607"><ele>849.0</ele><time>2026-04-25T16:00:04.233Z</time></trkpt><trkpt lat="44.4812601" lon="7.3593957"><ele>851.4285714285714</ele><time>2026-04-25T16:00:08.234Z</time></trkpt><trkpt lat="44.4813313" lon="7.3593788"><ele>853.8571428571429</ele><time>2026-04-25T16:00:12.235Z</time></trkpt><trkpt lat="44.4813507" lon="7.3594674"><ele>856.2857142857142</ele><time>2026-04-25T16:00:16.234Z</time></trkpt><trkpt lat="44.4813327" lon="7.3595532"><ele>858.7142857142858</ele><time>2026-04-25T16:00:19.234Z</time></trkpt><trkpt lat="44.4813043" lon="7.3596352"><ele>861.1428571428571</ele><time>2026-04-25T16:00:22.233Z</time></trkpt><trkpt lat="44.4812986" lon="7.359735"><ele>863.5714285714286</ele><time>2026-04-25T16:00:25.234Z</time></trkpt><trkpt lat="44.481326" lon="7.3598332"><ele>866.0</ele><time>2026-04-25T16:00:28.234Z</time></trkpt><trkpt lat="44.4813438" lon="7.3599306"><ele>867.5000000000001</ele><time>2026-04-25T16:00:31.233Z</time></trkpt><trkpt lat="44.4813948" lon="7.3599915"><ele>869.0</ele><time>2026-04-25T16:00:34.234Z</time></trkpt><trkpt lat="44.4814592" lon="7.3599627"><ele>870.5</ele><time>2026-04-25T16:00:37.234Z</time></trkpt><trkpt lat="44.4815138" lon="7.3598794"><ele>872.0</ele><time>2026-04-25T16:00:40.233Z</time></trkpt><trkpt lat="44.4815788" lon="7.3598296"><ele>873.5000000000001</ele><time>2026-04-25T16:00:44.234Z</time></trkpt><trkpt lat="44.4816569" lon="7.3598715"><ele>875.0</ele><time>2026-04-25T16:00:48.234Z</time></trkpt><trkpt lat="44.4817278" lon="7.359943"><ele>875.0</ele><time>2026-04-25T16:00:51.234Z</time></trkpt><trkpt lat="44.4817955" lon="7.3599818"><ele>875.0</ele><time>2026-04-25T16:00:54.233Z</time></trkpt><trkpt lat="44.4818701" lon="7.3600028"><ele>875.0</ele><time>2026-04-25T16:00:57.234Z</time></trkpt><trkpt lat="44.4819456" lon="7.3600288"><ele>875.0</ele><time>2026-04-25T16:01:01.233Z</time></trkpt><trkpt lat="44.4820046" lon="7.359995"><ele>875.0</ele><time>2026-04-25T16:01:04.234Z</time></trkpt><trkpt lat="44.4820702" lon="7.3599941"><ele>875.0</ele><time>2026-04-25T16:01:07.234Z</time></trkpt><trkpt lat="44.4821378" lon="7.3600432"><ele>875.0</ele><time>2026-04-25T16:01:11.234Z</time></trkpt><trkpt lat="44.4822068" lon="7.3601079"><ele>877.2857142857143</ele><time>2026-04-25T16:01:15.233Z</time></trkpt><trkpt lat="44.4822704" lon="7.3601315"><ele>879.5714285714286</ele><time>2026-04-25T16:01:18.233Z</time></trkpt><trkpt lat="44.4823424" lon="7.3601418"><ele>881.8571428571429</ele><time>2026-04-25T16:01:21.234Z</time></trkpt><trkpt lat="44.4824156" lon="7.3601242"><ele>884.1428571428571</ele><time>2026-04-25T16:01:24.234Z</time></trkpt><trkpt lat="44.4824853" lon="7.3600917"><ele>886.4285714285714</ele><time>2026-04-25T16:01:27.233Z</time></trkpt><trkpt lat="44.4825478" lon="7.3600541"><ele>888.7142857142858</ele><time>2026-04-25T16:01:30.234Z</time></trkpt><trkpt lat="44.4825949" lon="7.35998"><ele>891.0</ele><time>2026-04-25T16:01:33.233Z</time></trkpt><trkpt lat="44.4826246" lon="7.3598832"><ele>891.0</ele><time>2026-04-25T16:01:37.233Z</time></trkpt><trkpt lat="44.482622" lon="7.3597762"><ele>891.0</ele><time>2026-04-25T16:01:42.234Z</time></trkpt><trkpt lat="44.4826248" lon="7.3596584"><ele>891.0</ele><time>2026-04-25T16:01:45.234Z</time></trkpt><trkpt lat="44.482628" lon="7.359543"><ele>891.0</ele><time>2026-04-25T16:01:48.233Z</time></trkpt><trkpt lat="44.482636" lon="7.3594311"><ele>891.0</ele><time>2026-04-25T16:01:51.233Z</time></trkpt><trkpt lat="44.4826533" lon="7.3593181"><ele>891.0</ele><time>2026-04-25T16:01:55.235Z</time></trkpt><trkpt lat="44.4826778" lon="7.3592297"><ele>891.2857142857143</ele><time>2026-04-25T16:01:58.233Z</time></trkpt><trkpt lat="44.4826906" lon="7.359105"><ele>891.5714285714286</ele><time>2026-04-25T16:02:01.234Z</time></trkpt><trkpt lat="44.4826972" lon="7.3590163"><ele>891.8571428571429</ele><time>2026-04-25T16:02:03.234Z</time></trkpt><trkpt lat="44.4827108" lon="7.3589282"><ele>892.1428571428571</ele><time>2026-04-25T16:02:05.235Z</time></trkpt><trkpt lat="44.4827273" lon="7.3588242"><ele>892.4285714285714</ele><time>2026-04-25T16:02:09.234Z</time></trkpt><trkpt lat="44.4827152" lon="7.3587183"><ele>892.7142857142858</ele><time>2026-04-25T16:02:13.234Z</time></trkpt><trkpt lat="44.4826992" lon="7.3586293"><ele>893.0</ele><time>2026-04-25T16:02:16.234Z</time></trkpt><trkpt lat="44.4826846" lon="7.3585255"><ele>893.0</ele><time>2026-04-25T16:02:19.233Z</time></trkpt><trkpt lat="44.4826633" lon="7.3584362"><ele>893.0</ele><time>2026-04-25T16:02:21.233Z</time></trkpt><trkpt lat="44.4826387" lon="7.3583479"><ele>893.0</ele><time>2026-04-25T16:02:23.233Z</time></trkpt><trkpt lat="44.482621" lon="7.3582583"><ele>893.0</ele><time>2026-04-25T16:02:26.235Z</time></trkpt><trkpt lat="44.4826089" lon="7.358151"><ele>893.0</ele><time>2026-04-25T16:02:28.233Z</time></trkpt><trkpt lat="44.4826222" lon="7.3580528"><ele>893.0</ele><time>2026-04-25T16:02:30.233Z</time></trkpt><trkpt lat="44.4826441" lon="7.3579484"><ele>893.0</ele><time>2026-04-25T16:02:32.234Z</time></trkpt><trkpt lat="44.4826603" lon="7.357839"><ele>892.7142857142858</ele><time>2026-04-25T16:02:34.233Z</time></trkpt><trkpt lat="44.4826531" lon="7.3577388"><ele>892.4285714285714</ele><time>2026-04-25T16:02:36.235Z</time></trkpt><trkpt lat="44.4826404" lon="7.3576506"><ele>892.1428571428571</ele><time>2026-04-25T16:02:38.234Z</time></trkpt><trkpt lat="44.4826369" lon="7.3575407"><ele>891.8571428571429</ele><time>2026-04-25T16:02:40.234Z</time></trkpt><trkpt lat="44.482637" lon="7.3574455"><ele>891.5714285714286</ele><time>2026-04-25T16:02:42.234Z</time></trkpt><trkpt lat="44.4826333" lon="7.3573166"><ele>891.2857142857143</ele><time>2026-04-25T16:02:45.234Z</time></trkpt><trkpt lat="44.482646" lon="7.357222"><ele>891.0</ele><time>2026-04-25T16:02:47.234Z</time></trkpt><trkpt lat="44.4826753" lon="7.3571183"><ele>890.5999999999999</ele><time>2026-04-25T16:02:49.234Z</time></trkpt><trkpt lat="44.4827179" lon="7.3570149"><ele>890.1999999999999</ele><time>2026-04-25T16:02:51.233Z</time></trkpt><trkpt lat="44.482731" lon="7.3568758"><ele>889.8000000000001</ele><time>2026-04-25T16:02:53.235Z</time></trkpt><trkpt lat="44.4827251" lon="7.356718"><ele>889.4000000000001</ele><time>2026-04-25T16:02:55.234Z</time></trkpt><trkpt lat="44.4827394" lon="7.3565841"><ele>889.0</ele><time>2026-04-25T16:02:57.234Z</time></trkpt><trkpt lat="44.4827811" lon="7.3564694"><ele>888.2</ele><time>2026-04-25T16:02:59.233Z</time></trkpt><trkpt lat="44.4828261" lon="7.3563576"><ele>887.4000000000001</ele><time>2026-04-25T16:03:01.233Z</time></trkpt><trkpt lat="44.482875" lon="7.3562403"><ele>886.6</ele><time>2026-04-25T16:03:03.233Z</time></trkpt><trkpt lat="44.4829068" lon="7.3561185"><ele>885.8</ele><time>2026-04-25T16:03:05.232Z</time></trkpt><trkpt lat="44.4829465" lon="7.3560045"><ele>885.0</ele><time>2026-04-25T16:03:07.232Z</time></trkpt><trkpt lat="44.4829999" lon="7.3558919"><ele>888.6666666666666</ele><time>2026-04-25T16:03:09.232Z</time></trkpt><trkpt lat="44.4830479" lon="7.3557668"><ele>892.3333333333333</ele><time>2026-04-25T16:03:11.232Z</time></trkpt><trkpt lat="44.4830715" lon="7.3556342"><ele>896.0</ele><time>2026-04-25T16:03:13.234Z</time></trkpt><trkpt lat="44.4830798" lon="7.3555134"><ele>899.6666666666666</ele><time>2026-04-25T16:03:15.233Z</time></trkpt><trkpt lat="44.4830777" lon="7.3554038"><ele>903.3333333333333</ele><time>2026-04-25T16:03:17.234Z</time></trkpt><trkpt lat="44.4830827" lon="7.3553049"><ele>907.0</ele><time>2026-04-25T16:03:19.232Z</time></trkpt><trkpt lat="44.483097" lon="7.3551589"><ele>907.9999999999999</ele><time>2026-04-25T16:03:23.233Z</time></trkpt><trkpt lat="44.4831031" lon="7.3550443"><ele>909.0</ele><time>2026-04-25T16:03:26.233Z</time></trkpt><trkpt lat="44.4831042" lon="7.3549088"><ele>910.0</ele><time>2026-04-25T16:03:29.233Z</time></trkpt><trkpt lat="44.4830973" lon="7.3548193"><ele>911.0</ele><time>2026-04-25T16:03:31.232Z</time></trkpt><trkpt lat="44.4830815" lon="7.3546858"><ele>911.9999999999999</ele><time>2026-04-25T16:03:34.233Z</time></trkpt><trkpt lat="44.4830665" lon="7.3545988"><ele>913.0</ele><time>2026-04-25T16:03:36.252Z</time></trkpt><trkpt lat="44.4830244" lon="7.3544834"><ele>914.1666666666666</ele><time>2026-04-25T16:03:39.233Z</time></trkpt><trkpt lat="44.4829842" lon="7.3543712"><ele>915.3333333333333</ele><time>2026-04-25T16:03:42.233Z</time></trkpt><trkpt lat="44.4829579" lon="7.3542745"><ele>916.5</ele><time>2026-04-25T16:03:45.233Z</time></trkpt><trkpt lat="44.4829787" lon="7.3541854"><ele>917.6666666666667</ele><time>2026-04-25T16:03:48.183Z</time></trkpt><trkpt lat="44.4830497" lon="7.3541241"><ele>918.8333333333334</ele><time>2026-04-25T16:03:51.232Z</time></trkpt><trkpt lat="44.4831179" lon="7.3540499"><ele>920.0</ele><time>2026-04-25T16:03:54.234Z</time></trkpt><trkpt lat="44.483145" lon="7.3539178"><ele>921.2857142857142</ele><time>2026-04-25T16:03:57.233Z</time></trkpt><trkpt lat="44.4831305" lon="7.3538292"><ele>922.5714285714286</ele><time>2026-04-25T16:03:59.206Z</time></trkpt><trkpt lat="44.4830924" lon="7.3537413"><ele>923.8571428571429</ele><time>2026-04-25T16:04:02.234Z</time></trkpt><trkpt lat="44.4830392" lon="7.3536468"><ele>925.1428571428571</ele><time>2026-04-25T16:04:06.233Z</time></trkpt><trkpt lat="44.4829649" lon="7.3535866"><ele>926.4285714285716</ele><time>2026-04-25T16:04:09.233Z</time></trkpt><trkpt lat="44.4829109" lon="7.3535324"><ele>927.7142857142858</ele><time>2026-04-25T16:04:11.232Z</time></trkpt><trkpt lat="44.4828489" lon="7.3534822"><ele>929.0</ele><time>2026-04-25T16:04:13.234Z</time></trkpt><trkpt lat="44.4827624" lon="7.3534492"><ele>925.2857142857143</ele><time>2026-04-25T16:04:16.233Z</time></trkpt><trkpt lat="44.4826834" lon="7.3534257"><ele>921.5714285714287</ele><time>2026-04-25T16:04:19.233Z</time></trkpt><trkpt lat="44.4826185" lon="7.3533873"><ele>917.8571428571429</ele><time>2026-04-25T16:04:22.233Z</time></trkpt><trkpt lat="44.482553" lon="7.3533298"><ele>914.1428571428571</ele><time>2026-04-25T16:04:26.232Z</time></trkpt><trkpt lat="44.4824949" lon="7.3532643"><ele>910.4285714285714</ele><time>2026-04-25T16:04:29.233Z</time></trkpt><trkpt lat="44.4824425" lon="7.353214"><ele>906.7142857142858</ele><time>2026-04-25T16:04:31.233Z</time></trkpt><trkpt lat="44.4823859" lon="7.353155"><ele>903.0</ele><time>2026-04-25T16:04:33.232Z</time></trkpt><trkpt lat="44.4823107" lon="7.3530804"><ele>904.0</ele><time>2026-04-25T16:04:35.233Z</time></trkpt><trkpt lat="44.4822418" lon="7.3530059"><ele>905.0</ele><time>2026-04-25T16:04:37.232Z</time></trkpt><trkpt lat="44.4821933" lon="7.3529306"><ele>906.0</ele><time>2026-04-25T16:04:39.232Z</time></trkpt><trkpt lat="44.4821421" lon="7.3528446"><ele>907.0</ele><time>2026-04-25T16:04:41.234Z</time></trkpt><trkpt lat="44.4820868" lon="7.352764"><ele>908.0</ele><time>2026-04-25T16:04:43.234Z</time></trkpt><trkpt lat="44.4820196" lon="7.3526983"><ele>909.0</ele><time>2026-04-25T16:04:45.232Z</time></trkpt><trkpt lat="44.4819659" lon="7.352644"><ele>905.3333333333334</ele><time>2026-04-25T16:04:47.233Z</time></trkpt><trkpt lat="44.4819107" lon="7.3525762"><ele>901.6666666666667</ele><time>2026-04-25T16:04:49.234Z</time></trkpt><trkpt lat="44.4818372" lon="7.3525085"><ele>898.0</ele><time>2026-04-25T16:04:51.232Z</time></trkpt><trkpt lat="44.4817678" lon="7.3524855"><ele>894.3333333333334</ele><time>2026-04-25T16:04:53.233Z</time></trkpt><trkpt lat="44.4817031" lon="7.3524588"><ele>890.6666666666667</ele><time>2026-04-25T16:04:55.233Z</time></trkpt><trkpt lat="44.4816513" lon="7.3524005"><ele>887.0</ele><time>2026-04-25T16:04:57.233Z</time></trkpt><trkpt lat="44.4815735" lon="7.3522951"><ele>887.0000000000001</ele><time>2026-04-25T16:04:59.232Z</time></trkpt><trkpt lat="44.4814993" lon="7.352256"><ele>887.0</ele><time>2026-04-25T16:05:01.233Z</time></trkpt><trkpt lat="44.481422" lon="7.3522594"><ele>887.0</ele><time>2026-04-25T16:05:03.232Z</time></trkpt><trkpt lat="44.4813514" lon="7.3523076"><ele>887.0</ele><time>2026-04-25T16:05:05.233Z</time></trkpt><trkpt lat="44.4812861" lon="7.3523717"><ele>887.0000000000001</ele><time>2026-04-25T16:05:08.233Z</time></trkpt><trkpt lat="44.4812547" lon="7.3524581"><ele>887.0</ele><time>2026-04-25T16:05:11.233Z</time></trkpt><trkpt lat="44.4811759" lon="7.3524431"><ele>886.3333333333334</ele><time>2026-04-25T16:05:15.233Z</time></trkpt><trkpt lat="44.4811637" lon="7.3523523"><ele>885.6666666666667</ele><time>2026-04-25T16:05:17.232Z</time></trkpt><trkpt lat="44.4811741" lon="7.3522275"><ele>885.0</ele><time>2026-04-25T16:05:19.233Z</time></trkpt><trkpt lat="44.4811896" lon="7.3521406"><ele>884.3333333333333</ele><time>2026-04-25T16:05:21.232Z</time></trkpt><trkpt lat="44.4812149" lon="7.3520131"><ele>883.6666666666666</ele><time>2026-04-25T16:05:24.233Z</time></trkpt><trkpt lat="44.4812511" lon="7.3519389"><ele>883.0</ele><time>2026-04-25T16:05:26.233Z</time></trkpt><trkpt lat="44.4812951" lon="7.3518305"><ele>882.9999999999999</ele><time>2026-04-25T16:05:28.233Z</time></trkpt><trkpt lat="44.4813241" lon="7.3517418"><ele>883.0</ele><time>2026-04-25T16:05:30.232Z</time></trkpt><trkpt lat="44.4813508" lon="7.3516477"><ele>883.0</ele><time>2026-04-25T16:05:33.232Z</time></trkpt><trkpt lat="44.4813826" lon="7.3515581"><ele>883.0</ele><time>2026-04-25T16:05:43.234Z</time></trkpt><trkpt lat="44.4813949" lon="7.3514499"><ele>882.9999999999999</ele><time>2026-04-25T16:05:45.232Z</time></trkpt><trkpt lat="44.4813913" lon="7.3513285"><ele>883.0</ele><time>2026-04-25T16:05:47.233Z</time></trkpt><trkpt lat="44.4813835" lon="7.3512099"><ele>881.0</ele><time>2026-04-25T16:05:49.232Z</time></trkpt><trkpt lat="44.4813976" lon="7.3511199"><ele>879.0</ele><time>2026-04-25T16:05:51.232Z</time></trkpt><trkpt lat="44.4814311" lon="7.3510342"><ele>877.0</ele><time>2026-04-25T16:05:53.233Z</time></trkpt><trkpt lat="44.4814904" lon="7.3509651"><ele>875.0</ele><time>2026-04-25T16:05:55.233Z</time></trkpt><trkpt lat="44.4815527" lon="7.3509061"><ele>873.0</ele><time>2026-04-25T16:05:57.233Z</time></trkpt><trkpt lat="44.4816137" lon="7.3508299"><ele>871.0</ele><time>2026-04-25T16:06:00.233Z</time></trkpt><trkpt lat="44.481644" lon="7.350752"><ele>869.0</ele><time>2026-04-25T16:06:02.233Z</time></trkpt><trkpt lat="44.4816658" lon="7.3506607"><ele>869.0000000000001</ele><time>2026-04-25T16:06:06.186Z</time></trkpt><trkpt lat="44.4815786" lon="7.35064"><ele>869.0</ele><time>2026-04-25T16:06:10.232Z</time></trkpt><trkpt lat="44.4815005" lon="7.3506797"><ele>869.0</ele><time>2026-04-25T16:06:13.234Z</time></trkpt><trkpt lat="44.4814406" lon="7.350734"><ele>869.0</ele><time>2026-04-25T16:06:15.233Z</time></trkpt><trkpt lat="44.4813588" lon="7.3507471"><ele>869.0000000000001</ele><time>2026-04-25T16:06:17.233Z</time></trkpt><trkpt lat="44.481242" lon="7.3507191"><ele>869.0</ele><time>2026-04-25T16:06:19.232Z</time></trkpt><trkpt lat="44.4811496" lon="7.3507265"><ele>866.0000000000001</ele><time>2026-04-25T16:06:22.233Z</time></trkpt><trkpt lat="44.481052" lon="7.3507125"><ele>863.0</ele><time>2026-04-25T16:06:24.233Z</time></trkpt><trkpt lat="44.4809648" lon="7.3507469"><ele>860.0</ele><time>2026-04-25T16:06:27.234Z</time></trkpt><trkpt lat="44.4808791" lon="7.3507691"><ele>857.0</ele><time>2026-04-25T16:06:30.232Z</time></trkpt><trkpt lat="44.4807987" lon="7.3508166"><ele>854.0000000000001</ele><time>2026-04-25T16:06:33.233Z</time></trkpt><trkpt lat="44.4807252" lon="7.3508707"><ele>851.0</ele><time>2026-04-25T16:06:36.233Z</time></trkpt><trkpt lat="44.4806727" lon="7.3509374"><ele>851.0000000000001</ele><time>2026-04-25T16:06:39.232Z</time></trkpt><trkpt lat="44.4806342" lon="7.3510132"><ele>851.0</ele><time>2026-04-25T16:06:43.234Z</time></trkpt><trkpt lat="44.4805698" lon="7.3510639"><ele>851.0</ele><time>2026-04-25T16:06:47.233Z</time></trkpt><trkpt lat="44.48051" lon="7.3511405"><ele>851.0</ele><time>2026-04-25T16:06:51.233Z</time></trkpt><trkpt lat="44.4804296" lon="7.351188"><ele>851.0000000000001</ele><time>2026-04-25T16:06:54.233Z</time></trkpt><trkpt lat="44.4803346" lon="7.3512767"><ele>851.0</ele><time>2026-04-25T16:06:56.232Z</time></trkpt><trkpt lat="44.4802457" lon="7.3513298"><ele>849.2857142857143</ele><time>2026-04-25T16:06:58.234Z</time></trkpt><trkpt lat="44.4801753" lon="7.3513837"><ele>847.5714285714287</ele><time>2026-04-25T16:07:00.232Z</time></trkpt><trkpt lat="44.4800905" lon="7.3513862"><ele>845.8571428571429</ele><time>2026-04-25T16:07:02.233Z</time></trkpt><trkpt lat="44.4800273" lon="7.3513678"><ele>844.1428571428571</ele><time>2026-04-25T16:07:04.232Z</time></trkpt><trkpt lat="44.4799581" lon="7.3513849"><ele>842.4285714285714</ele><time>2026-04-25T16:07:06.232Z</time></trkpt><trkpt lat="44.4798909" lon="7.3514202"><ele>840.7142857142857</ele><time>2026-04-25T16:07:09.233Z</time></trkpt><trkpt lat="44.4798262" lon="7.3514072"><ele>839.0</ele><time>2026-04-25T16:07:11.232Z</time></trkpt><trkpt lat="44.4797631" lon="7.3513402"><ele>836.6666666666667</ele><time>2026-04-25T16:07:15.232Z</time></trkpt><trkpt lat="44.479767" lon="7.3512313"><ele>834.3333333333334</ele><time>2026-04-25T16:07:18.232Z</time></trkpt><trkpt lat="44.4797372" lon="7.3511513"><ele>832.0</ele><time>2026-04-25T16:07:23.232Z</time></trkpt><trkpt lat="44.4796514" lon="7.3511092"><ele>829.6666666666667</ele><time>2026-04-25T16:07:25.233Z</time></trkpt><trkpt lat="44.4795714" lon="7.3511131"><ele>827.3333333333334</ele><time>2026-04-25T16:07:26.232Z</time></trkpt><trkpt lat="44.4795033" lon="7.3511084"><ele>825.0</ele><time>2026-04-25T16:07:29.233Z</time></trkpt><trkpt lat="44.4794337" lon="7.3511164"><ele>822.0</ele><time>2026-04-25T16:07:31.232Z</time></trkpt><trkpt lat="44.4793417" lon="7.3511202"><ele>819.0</ele><time>2026-04-25T16:07:33.232Z</time></trkpt><trkpt lat="44.4792623" lon="7.3511152"><ele>816.0</ele><time>2026-04-25T16:07:35.232Z</time></trkpt><trkpt lat="44.4791745" lon="7.3511267"><ele>813.0</ele><time>2026-04-25T16:07:37.232Z</time></trkpt><trkpt lat="44.479101" lon="7.3511571"><ele>810.0</ele><time>2026-04-25T16:07:39.233Z</time></trkpt><trkpt lat="44.4789965" lon="7.3511987"><ele>807.0</ele><time>2026-04-25T16:07:41.233Z</time></trkpt><trkpt lat="44.4788938" lon="7.3512257"><ele>807.0</ele><time>2026-04-25T16:07:43.232Z</time></trkpt><trkpt lat="44.4787821" lon="7.3512242"><ele>807.0</ele><time>2026-04-25T16:07:45.232Z</time></trkpt><trkpt lat="44.4787173" lon="7.3512151"><ele>807.0</ele><time>2026-04-25T16:07:46.232Z</time></trkpt><trkpt lat="44.4785968" lon="7.3512137"><ele>807.0</ele><time>2026-04-25T16:07:48.232Z</time></trkpt><trkpt lat="44.4785301" lon="7.351236"><ele>807.0</ele><time>2026-04-25T16:07:49.232Z</time></trkpt><trkpt lat="44.4784654" lon="7.3512463"><ele>807.0</ele><time>2026-04-25T16:07:50.232Z</time></trkpt><trkpt lat="44.4783695" lon="7.351281"><ele>805.0</ele><time>2026-04-25T16:07:52.233Z</time></trkpt><trkpt lat="44.4782678" lon="7.3513109"><ele>803.0</ele><time>2026-04-25T16:07:54.232Z</time></trkpt><trkpt lat="44.4781731" lon="7.3513222"><ele>801.0</ele><time>2026-04-25T16:07:56.233Z</time></trkpt><trkpt lat="44.4780818" lon="7.3512758"><ele>799.0</ele><time>2026-04-25T16:07:58.232Z</time></trkpt><trkpt lat="44.4780088" lon="7.3511744"><ele>797.0</ele><time>2026-04-25T16:08:00.232Z</time></trkpt><trkpt lat="44.4779557" lon="7.3510478"><ele>794.3333333333334</ele><time>2026-04-25T16:08:02.232Z</time></trkpt><trkpt lat="44.4778754" lon="7.350986"><ele>791.6666666666667</ele><time>2026-04-25T16:08:04.233Z</time></trkpt><trkpt lat="44.4777995" lon="7.3509674"><ele>789.0</ele><time>2026-04-25T16:08:06.233Z</time></trkpt><trkpt lat="44.4777256" lon="7.3510308"><ele>786.3333333333333</ele><time>2026-04-25T16:08:07.233Z</time></trkpt><trkpt lat="44.4776206" lon="7.3510906"><ele>783.6666666666666</ele><time>2026-04-25T16:08:09.232Z</time></trkpt><trkpt lat="44.4775464" lon="7.3511061"><ele>781.0</ele><time>2026-04-25T16:08:10.233Z</time></trkpt><trkpt lat="44.4774321" lon="7.3511266"><ele>781.0</ele><time>2026-04-25T16:08:12.232Z</time></trkpt><trkpt lat="44.4773191" lon="7.3511316"><ele>781.0</ele><time>2026-04-25T16:08:14.233Z</time></trkpt><trkpt lat="44.4772353" lon="7.3510563"><ele>781.0</ele><time>2026-04-25T16:08:16.232Z</time></trkpt><trkpt lat="44.4771895" lon="7.3509271"><ele>781.0</ele><time>2026-04-25T16:08:18.233Z</time></trkpt><trkpt lat="44.4771647" lon="7.3507539"><ele>781.0</ele><time>2026-04-25T16:08:20.232Z</time></trkpt><trkpt lat="44.4771603" lon="7.3506644"><ele>778.6666666666666</ele><time>2026-04-25T16:08:21.232Z</time></trkpt><trkpt lat="44.4771614" lon="7.350529"><ele>776.3333333333333</ele><time>2026-04-25T16:08:23.233Z</time></trkpt><trkpt lat="44.47721" lon="7.3503807"><ele>774.0</ele><time>2026-04-25T16:08:25.234Z</time></trkpt><trkpt lat="44.4772609" lon="7.3503167"><ele>771.6666666666666</ele><time>2026-04-25T16:08:26.233Z</time></trkpt><trkpt lat="44.477324" lon="7.3502737"><ele>769.3333333333333</ele><time>2026-04-25T16:08:27.232Z</time></trkpt><trkpt lat="44.4773838" lon="7.3502354"><ele>767.0</ele><time>2026-04-25T16:08:28.232Z</time></trkpt><trkpt lat="44.4774455" lon="7.3501872"><ele>767.0</ele><time>2026-04-25T16:08:29.233Z</time></trkpt><trkpt lat="44.477513" lon="7.3501749"><ele>767.0</ele><time>2026-04-25T16:08:30.233Z</time></trkpt><trkpt lat="44.4776231" lon="7.3501053"><ele>767.0</ele><time>2026-04-25T16:08:32.233Z</time></trkpt><trkpt lat="44.4777213" lon="7.3500015"><ele>767.0</ele><time>2026-04-25T16:08:34.232Z</time></trkpt><trkpt lat="44.4777966" lon="7.3498863"><ele>767.0</ele><time>2026-04-25T16:08:36.233Z</time></trkpt><trkpt lat="44.4778471" lon="7.349828"><ele>767.0</ele><time>2026-04-25T16:08:37.233Z</time></trkpt><trkpt lat="44.4779028" lon="7.3497856"><ele>767.0</ele><time>2026-04-25T16:08:38.232Z</time></trkpt><trkpt lat="44.4779688" lon="7.349752"><ele>767.0</ele><time>2026-04-25T16:08:39.233Z</time></trkpt><trkpt lat="44.4780344" lon="7.349717"><ele>767.0</ele><time>2026-04-25T16:08:40.232Z</time></trkpt><trkpt lat="44.4781147" lon="7.3496841"><ele>767.0</ele><time>2026-04-25T16:08:41.232Z</time></trkpt><trkpt lat="44.4781862" lon="7.3496506"><ele>767.0</ele><time>2026-04-25T16:08:42.234Z</time></trkpt><trkpt lat="44.4782586" lon="7.3496099"><ele>767.0</ele><time>2026-04-25T16:08:43.234Z</time></trkpt><trkpt lat="44.4783673" lon="7.3495696"><ele>766.3333333333333</ele><time>2026-04-25T16:08:45.232Z</time></trkpt><trkpt lat="44.4784498" lon="7.3495472"><ele>765.6666666666666</ele><time>2026-04-25T16:08:47.233Z</time></trkpt><trkpt lat="44.4785138" lon="7.3494949"><ele>765.0</ele><time>2026-04-25T16:08:49.232Z</time></trkpt><trkpt lat="44.4785076" lon="7.3493666"><ele>764.3333333333334</ele><time>2026-04-25T16:08:51.232Z</time></trkpt><trkpt lat="44.4784784" lon="7.3492609"><ele>763.6666666666667</ele><time>2026-04-25T16:08:53.231Z</time></trkpt><trkpt lat="44.4784368" lon="7.3491491"><ele>763.0</ele><time>2026-04-25T16:08:55.233Z</time></trkpt><trkpt lat="44.4783929" lon="7.3490225"><ele>763.0</ele><time>2026-04-25T16:08:57.231Z</time></trkpt><trkpt lat="44.478333" lon="7.3488974"><ele>763.0</ele><time>2026-04-25T16:08:59.232Z</time></trkpt><trkpt lat="44.4782808" lon="7.348764"><ele>763.0</ele><time>2026-04-25T16:09:01.233Z</time></trkpt><trkpt lat="44.4782349" lon="7.3486236"><ele>763.0</ele><time>2026-04-25T16:09:03.232Z</time></trkpt><trkpt lat="44.4782044" lon="7.3484794"><ele>763.0</ele><time>2026-04-25T16:09:05.231Z</time></trkpt><trkpt lat="44.4781652" lon="7.3483397"><ele>762.8</ele><time>2026-04-25T16:09:07.232Z</time></trkpt><trkpt lat="44.478132" lon="7.3481889"><ele>762.5999999999999</ele><time>2026-04-25T16:09:09.232Z</time></trkpt><trkpt lat="44.4781288" lon="7.348025"><ele>762.4000000000001</ele><time>2026-04-25T16:09:11.231Z</time></trkpt><trkpt lat="44.4781814" lon="7.3478715"><ele>762.2</ele><time>2026-04-25T16:09:13.231Z</time></trkpt><trkpt lat="44.4782241" lon="7.3478008"><ele>762.0</ele><time>2026-04-25T16:09:14.231Z</time></trkpt><trkpt lat="44.4782665" lon="7.3477285"><ele>761.3333333333334</ele><time>2026-04-25T16:09:15.232Z</time></trkpt><trkpt lat="44.4783095" lon="7.3476508"><ele>760.6666666666666</ele><time>2026-04-25T16:09:16.232Z</time></trkpt><trkpt lat="44.4783524" lon="7.3475688"><ele>760.0</ele><time>2026-04-25T16:09:17.231Z</time></trkpt><trkpt lat="44.4783979" lon="7.3474835"><ele>759.3333333333333</ele><time>2026-04-25T16:09:18.232Z</time></trkpt><trkpt lat="44.4784395" lon="7.3473966"><ele>758.6666666666666</ele><time>2026-04-25T16:09:19.231Z</time></trkpt><trkpt lat="44.4784828" lon="7.3473262"><ele>758.0</ele><time>2026-04-25T16:09:20.233Z</time></trkpt><trkpt lat="44.4785857" lon="7.3472345"><ele>756.4285714285714</ele><time>2026-04-25T16:09:22.231Z</time></trkpt><trkpt lat="44.478645" lon="7.3471926"><ele>754.8571428571429</ele><time>2026-04-25T16:09:23.233Z</time></trkpt><trkpt lat="44.4787123" lon="7.3471573"><ele>753.2857142857142</ele><time>2026-04-25T16:09:24.231Z</time></trkpt><trkpt lat="44.4787797" lon="7.3471203"><ele>751.7142857142858</ele><time>2026-04-25T16:09:25.232Z</time></trkpt><trkpt lat="44.4788433" lon="7.3470764"><ele>750.1428571428571</ele><time>2026-04-25T16:09:26.231Z</time></trkpt><trkpt lat="44.4789025" lon="7.3470395"><ele>748.5714285714286</ele><time>2026-04-25T16:09:27.231Z</time></trkpt><trkpt lat="44.4789583" lon="7.346997"><ele>747.0</ele><time>2026-04-25T16:09:28.231Z</time></trkpt><trkpt lat="44.4790603" lon="7.3469213"><ele>747.0</ele><time>2026-04-25T16:09:30.232Z</time></trkpt><trkpt lat="44.4791661" lon="7.346873"><ele>747.0</ele><time>2026-04-25T16:09:32.231Z</time></trkpt><trkpt lat="44.4792946" lon="7.3468993"><ele>747.0</ele><time>2026-04-25T16:09:34.232Z</time></trkpt><trkpt lat="44.4793615" lon="7.3469133"><ele>747.0</ele><time>2026-04-25T16:09:35.231Z</time></trkpt><trkpt lat="44.4794805" lon="7.346889"><ele>747.0</ele><time>2026-04-25T16:09:37.231Z</time></trkpt><trkpt lat="44.4795521" lon="7.3468863"><ele>747.4000000000001</ele><time>2026-04-25T16:09:38.232Z</time></trkpt><trkpt lat="44.4796685" lon="7.3469168"><ele>747.8000000000001</ele><time>2026-04-25T16:09:40.232Z</time></trkpt><trkpt lat="44.4797299" lon="7.3469599"><ele>748.2</ele><time>2026-04-25T16:09:41.232Z</time></trkpt><trkpt lat="44.4797858" lon="7.347012"><ele>748.6</ele><time>2026-04-25T16:09:42.232Z</time></trkpt><trkpt lat="44.4798819" lon="7.3470959"><ele>749.0</ele><time>2026-04-25T16:09:44.231Z</time></trkpt><trkpt lat="44.4799607" lon="7.3471396"><ele>749.0</ele><time>2026-04-25T16:09:46.231Z</time></trkpt><trkpt lat="44.4800555" lon="7.3471575"><ele>749.0</ele><time>2026-04-25T16:09:48.232Z</time></trkpt><trkpt lat="44.4801064" lon="7.3470422"><ele>749.0</ele><time>2026-04-25T16:09:50.232Z</time></trkpt><trkpt lat="44.4800957" lon="7.3469288"><ele>749.0</ele><time>2026-04-25T16:09:52.232Z</time></trkpt><trkpt lat="44.4800666" lon="7.3468148"><ele>749.0</ele><time>2026-04-25T16:09:54.231Z</time></trkpt><trkpt lat="44.4800103" lon="7.3467029"><ele>749.0</ele><time>2026-04-25T16:09:56.233Z</time></trkpt><trkpt lat="44.4799358" lon="7.3465963"><ele>749.0</ele><time>2026-04-25T16:09:58.232Z</time></trkpt><trkpt lat="44.4798751" lon="7.3464827"><ele>749.0</ele><time>2026-04-25T16:10:00.232Z</time></trkpt><trkpt lat="44.4798374" lon="7.3463512"><ele>749.0</ele><time>2026-04-25T16:10:02.231Z</time></trkpt><trkpt lat="44.4798098" lon="7.3462703"><ele>749.0</ele><time>2026-04-25T16:10:03.231Z</time></trkpt><trkpt lat="44.4797839" lon="7.3461694"><ele>749.0</ele><time>2026-04-25T16:10:05.231Z</time></trkpt><trkpt lat="44.4797881" lon="7.3460809"><ele>748.5</ele><time>2026-04-25T16:10:06.231Z</time></trkpt><trkpt lat="44.4797732" lon="7.3459938"><ele>748.0</ele><time>2026-04-25T16:10:07.231Z</time></trkpt><trkpt lat="44.4797708" lon="7.3459011"><ele>747.5</ele><time>2026-04-25T16:10:08.232Z</time></trkpt><trkpt lat="44.4797693" lon="7.3458122"><ele>747.0</ele><time>2026-04-25T16:10:09.231Z</time></trkpt><trkpt lat="44.4797547" lon="7.3457229"><ele>746.5</ele><time>2026-04-25T16:10:10.232Z</time></trkpt><trkpt lat="44.4797294" lon="7.3455634"><ele>746.0</ele><time>2026-04-25T16:10:12.231Z</time></trkpt><trkpt lat="44.4797124" lon="7.3454462"><ele>745.8333333333333</ele><time>2026-04-25T16:10:14.232Z</time></trkpt><trkpt lat="44.4796925" lon="7.3453348"><ele>745.6666666666666</ele><time>2026-04-25T16:10:16.232Z</time></trkpt><trkpt lat="44.4796982" lon="7.3452289"><ele>745.5</ele><time>2026-04-25T16:10:18.232Z</time></trkpt><trkpt lat="44.4797123" lon="7.3451385"><ele>745.3333333333334</ele><time>2026-04-25T16:10:20.231Z</time></trkpt><trkpt lat="44.4797253" lon="7.3450194"><ele>745.1666666666667</ele><time>2026-04-25T16:10:22.231Z</time></trkpt><trkpt lat="44.4797743" lon="7.3448509"><ele>745.0</ele><time>2026-04-25T16:10:24.232Z</time></trkpt><trkpt lat="44.479816" lon="7.344768"><ele>744.0</ele><time>2026-04-25T16:10:25.231Z</time></trkpt><trkpt lat="44.4798556" lon="7.3446786"><ele>743.0</ele><time>2026-04-25T16:10:26.231Z</time></trkpt><trkpt lat="44.4798827" lon="7.3445728"><ele>742.0</ele><time>2026-04-25T16:10:27.233Z</time></trkpt><trkpt lat="44.479893" lon="7.3444558"><ele>741.0</ele><time>2026-04-25T16:10:28.231Z</time></trkpt><trkpt lat="44.4798917" lon="7.344337"><ele>740.0</ele><time>2026-04-25T16:10:29.231Z</time></trkpt><trkpt lat="44.479885" lon="7.3442126"><ele>739.0</ele><time>2026-04-25T16:10:30.232Z</time></trkpt><trkpt lat="44.479876" lon="7.3440911"><ele>739.0</ele><time>2026-04-25T16:10:31.231Z</time></trkpt><trkpt lat="44.4798698" lon="7.3439624"><ele>739.0</ele><time>2026-04-25T16:10:32.232Z</time></trkpt><trkpt lat="44.479873" lon="7.3438349"><ele>739.0</ele><time>2026-04-25T16:10:33.232Z</time></trkpt><trkpt lat="44.4798849" lon="7.3437165"><ele>739.0</ele><time>2026-04-25T16:10:34.231Z</time></trkpt><trkpt lat="44.4799052" lon="7.3436008"><ele>739.0</ele><time>2026-04-25T16:10:35.232Z</time></trkpt><trkpt lat="44.4799336" lon="7.3435004"><ele>739.0</ele><time>2026-04-25T16:10:36.232Z</time></trkpt><trkpt lat="44.4799799" lon="7.3434134"><ele>737.3333333333334</ele><time>2026-04-25T16:10:37.231Z</time></trkpt><trkpt lat="44.4800407" lon="7.3433425"><ele>735.6666666666667</ele><time>2026-04-25T16:10:38.232Z</time></trkpt><trkpt lat="44.4801207" lon="7.3432942"><ele>734.0</ele><time>2026-04-25T16:10:39.231Z</time></trkpt><trkpt lat="44.4802091" lon="7.3432516"><ele>732.3333333333334</ele><time>2026-04-25T16:10:40.232Z</time></trkpt><trkpt lat="44.480288" lon="7.3432053"><ele>730.6666666666666</ele><time>2026-04-25T16:10:41.232Z</time></trkpt><trkpt lat="44.4803593" lon="7.3431654"><ele>729.0</ele><time>2026-04-25T16:10:42.231Z</time></trkpt><trkpt lat="44.4804174" lon="7.3431174"><ele>728.8000000000001</ele><time>2026-04-25T16:10:43.231Z</time></trkpt><trkpt lat="44.4804991" lon="7.3429872"><ele>728.6</ele><time>2026-04-25T16:10:45.231Z</time></trkpt><trkpt lat="44.4805139" lon="7.3428245"><ele>728.4</ele><time>2026-04-25T16:10:47.232Z</time></trkpt><trkpt lat="44.4804931" lon="7.3427304"><ele>728.2</ele><time>2026-04-25T16:10:48.231Z</time></trkpt><trkpt lat="44.4804589" lon="7.3426381"><ele>728.0</ele><time>2026-04-25T16:10:49.231Z</time></trkpt><trkpt lat="44.4804214" lon="7.3425474"><ele>726.3333333333333</ele><time>2026-04-25T16:10:50.232Z</time></trkpt><trkpt lat="44.4803848" lon="7.3424598"><ele>724.6666666666666</ele><time>2026-04-25T16:10:51.231Z</time></trkpt><trkpt lat="44.4803243" lon="7.34231"><ele>723.0</ele><time>2026-04-25T16:10:53.232Z</time></trkpt><trkpt lat="44.4803011" lon="7.342226"><ele>721.3333333333334</ele><time>2026-04-25T16:10:54.231Z</time></trkpt><trkpt lat="44.480291" lon="7.3421359"><ele>719.6666666666667</ele><time>2026-04-25T16:10:55.231Z</time></trkpt><trkpt lat="44.4803001" lon="7.3419731"><ele>718.0</ele><time>2026-04-25T16:10:57.231Z</time></trkpt><trkpt lat="44.4803612" lon="7.3418379"><ele>717.5999999999999</ele><time>2026-04-25T16:10:59.233Z</time></trkpt><trkpt lat="44.4804318" lon="7.3417609"><ele>717.1999999999999</ele><time>2026-04-25T16:11:01.232Z</time></trkpt><trkpt lat="44.4804868" lon="7.3416456"><ele>716.8</ele><time>2026-04-25T16:11:03.233Z</time></trkpt><trkpt lat="44.4804536" lon="7.3415044"><ele>716.4</ele><time>2026-04-25T16:11:05.233Z</time></trkpt><trkpt lat="44.4803866" lon="7.3414183"><ele>716.0</ele><time>2026-04-25T16:11:07.232Z</time></trkpt><trkpt lat="44.4803141" lon="7.3413793"><ele>716.0000000000001</ele><time>2026-04-25T16:11:09.232Z</time></trkpt><trkpt lat="44.480241" lon="7.341364"><ele>716.0</ele><time>2026-04-25T16:11:11.232Z</time></trkpt><trkpt lat="44.4801802" lon="7.3413354"><ele>716.0</ele><time>2026-04-25T16:11:13.232Z</time></trkpt><trkpt lat="44.4801033" lon="7.3413007"><ele>716.0</ele><time>2026-04-25T16:11:16.232Z</time></trkpt><trkpt lat="44.4800479" lon="7.3412452"><ele>716.0</ele><time>2026-04-25T16:11:19.232Z</time></trkpt><trkpt lat="44.4799931" lon="7.3411927"><ele>716.0000000000001</ele><time>2026-04-25T16:11:21.231Z</time></trkpt><trkpt lat="44.4799339" lon="7.3411376"><ele>716.0</ele><time>2026-04-25T16:11:23.232Z</time></trkpt><trkpt lat="44.4798718" lon="7.3410663"><ele>716.0</ele><time>2026-04-25T16:11:25.233Z</time></trkpt><trkpt lat="44.4798029" lon="7.3410019"><ele>716.0</ele><time>2026-04-25T16:11:27.232Z</time></trkpt><trkpt lat="44.4797392" lon="7.3409556"><ele>716.0</ele><time>2026-04-25T16:11:29.232Z</time></trkpt><trkpt lat="44.4796591" lon="7.3409327"><ele>716.0</ele><time>2026-04-25T16:11:32.232Z</time></trkpt><trkpt lat="44.4795846" lon="7.3409454"><ele>716.0</ele><time>2026-04-25T16:11:34.232Z</time></trkpt><trkpt lat="44.4794844" lon="7.3409737"><ele>716.0</ele><time>2026-04-25T16:11:36.232Z</time></trkpt><trkpt lat="44.479376" lon="7.3410231"><ele>714.5</ele><time>2026-04-25T16:11:38.232Z</time></trkpt><trkpt lat="44.479253" lon="7.3410713"><ele>713.0</ele><time>2026-04-25T16:11:40.231Z</time></trkpt><trkpt lat="44.4791835" lon="7.3410931"><ele>711.5</ele><time>2026-04-25T16:11:41.231Z</time></trkpt><trkpt lat="44.4791097" lon="7.3411094"><ele>710.0</ele><time>2026-04-25T16:11:42.232Z</time></trkpt><trkpt lat="44.4790299" lon="7.3411305"><ele>708.5</ele><time>2026-04-25T16:11:43.232Z</time></trkpt><trkpt lat="44.478948" lon="7.3411469"><ele>707.0</ele><time>2026-04-25T16:11:44.232Z</time></trkpt><trkpt lat="44.478861" lon="7.3411715"><ele>707.0</ele><time>2026-04-25T16:11:45.232Z</time></trkpt><trkpt lat="44.4787682" lon="7.3411973"><ele>707.0</ele><time>2026-04-25T16:11:46.231Z</time></trkpt><trkpt lat="44.4786729" lon="7.3412281"><ele>707.0</ele><time>2026-04-25T16:11:47.231Z</time></trkpt><trkpt lat="44.4785729" lon="7.3412616"><ele>707.0</ele><time>2026-04-25T16:11:48.233Z</time></trkpt><trkpt lat="44.4784707" lon="7.3413052"><ele>707.0</ele><time>2026-04-25T16:11:49.231Z</time></trkpt><trkpt lat="44.478379" lon="7.3413497"><ele>705.7142857142857</ele><time>2026-04-25T16:11:50.231Z</time></trkpt><trkpt lat="44.4782962" lon="7.341383"><ele>704.4285714285714</ele><time>2026-04-25T16:11:51.231Z</time></trkpt><trkpt lat="44.4782234" lon="7.3414179"><ele>703.1428571428571</ele><time>2026-04-25T16:11:52.232Z</time></trkpt><trkpt lat="44.4781568" lon="7.3414601"><ele>701.8571428571429</ele><time>2026-04-25T16:11:53.231Z</time></trkpt><trkpt lat="44.4780916" lon="7.3415024"><ele>700.5714285714286</ele><time>2026-04-25T16:11:54.232Z</time></trkpt><trkpt lat="44.4780323" lon="7.3415467"><ele>699.2857142857142</ele><time>2026-04-25T16:11:55.232Z</time></trkpt><trkpt lat="44.4779803" lon="7.3416032"><ele>698.0</ele><time>2026-04-25T16:11:56.233Z</time></trkpt><trkpt lat="44.4778846" lon="7.3417147"><ele>697.3333333333333</ele><time>2026-04-25T16:11:58.231Z</time></trkpt><trkpt lat="44.477796" lon="7.3418286"><ele>696.6666666666666</ele><time>2026-04-25T16:12:00.231Z</time></trkpt><trkpt lat="44.4777041" lon="7.3419406"><ele>696.0</ele><time>2026-04-25T16:12:02.232Z</time></trkpt><trkpt lat="44.4776461" lon="7.3419773"><ele>695.3333333333334</ele><time>2026-04-25T16:12:03.231Z</time></trkpt><trkpt lat="44.4775807" lon="7.3420106"><ele>694.6666666666667</ele><time>2026-04-25T16:12:04.232Z</time></trkpt><trkpt lat="44.477514" lon="7.3420383"><ele>694.0</ele><time>2026-04-25T16:12:05.232Z</time></trkpt><trkpt lat="44.4774485" lon="7.3420606"><ele>694.0</ele><time>2026-04-25T16:12:06.232Z</time></trkpt><trkpt lat="44.4773816" lon="7.3420762"><ele>694.0</ele><time>2026-04-25T16:12:07.232Z</time></trkpt><trkpt lat="44.4773145" lon="7.3420815"><ele>694.0</ele><time>2026-04-25T16:12:08.232Z</time></trkpt><trkpt lat="44.4771974" lon="7.3421305"><ele>694.0</ele><time>2026-04-25T16:12:10.231Z</time></trkpt><trkpt lat="44.4771315" lon="7.3421459"><ele>694.0</ele><time>2026-04-25T16:12:11.232Z</time></trkpt><trkpt lat="44.4770626" lon="7.3421548"><ele>694.0</ele><time>2026-04-25T16:12:12.232Z</time></trkpt><trkpt lat="44.4769661" lon="7.3421137"><ele>693.0</ele><time>2026-04-25T16:12:14.231Z</time></trkpt><trkpt lat="44.4769397" lon="7.3420116"><ele>692.0</ele><time>2026-04-25T16:12:16.232Z</time></trkpt><trkpt lat="44.4769275" lon="7.3418943"><ele>691.0</ele><time>2026-04-25T16:12:18.233Z</time></trkpt><trkpt lat="44.4769211" lon="7.3417835"><ele>690.0</ele><time>2026-04-25T16:12:20.232Z</time></trkpt><trkpt lat="44.4769141" lon="7.3416688"><ele>689.0</ele><time>2026-04-25T16:12:22.232Z</time></trkpt><trkpt lat="44.4769121" lon="7.3415368"><ele>688.0</ele><time>2026-04-25T16:12:24.231Z</time></trkpt><trkpt lat="44.4769197" lon="7.3414029"><ele>688.2</ele><time>2026-04-25T16:12:26.231Z</time></trkpt><trkpt lat="44.476916" lon="7.3412614"><ele>688.4</ele><time>2026-04-25T16:12:28.232Z</time></trkpt><trkpt lat="44.4769154" lon="7.3411095"><ele>688.6</ele><time>2026-04-25T16:12:30.232Z</time></trkpt><trkpt lat="44.4768563" lon="7.3409736"><ele>688.8000000000001</ele><time>2026-04-25T16:12:32.231Z</time></trkpt><trkpt lat="44.4767526" lon="7.3409116"><ele>689.0</ele><time>2026-04-25T16:12:34.232Z</time></trkpt><trkpt lat="44.4766464" lon="7.340856"><ele>689.0</ele><time>2026-04-25T16:12:36.233Z</time></trkpt><trkpt lat="44.4765385" lon="7.3407896"><ele>689.0</ele><time>2026-04-25T16:12:38.231Z</time></trkpt><trkpt lat="44.4764624" lon="7.3406743"><ele>689.0</ele><time>2026-04-25T16:12:40.232Z</time></trkpt><trkpt lat="44.4764112" lon="7.3405306"><ele>689.0</ele><time>2026-04-25T16:12:42.231Z</time></trkpt><trkpt lat="44.4763552" lon="7.3403893"><ele>689.0</ele><time>2026-04-25T16:12:44.232Z</time></trkpt><trkpt lat="44.4763065" lon="7.3402405"><ele>689.0</ele><time>2026-04-25T16:12:46.232Z</time></trkpt><trkpt lat="44.4762568" lon="7.340119"><ele>689.0</ele><time>2026-04-25T16:12:48.231Z</time></trkpt><trkpt lat="44.4761845" lon="7.3400471"><ele>689.0</ele><time>2026-04-25T16:12:50.232Z</time></trkpt><trkpt lat="44.4760934" lon="7.3400237"><ele>689.0</ele><time>2026-04-25T16:12:52.231Z</time></trkpt><trkpt lat="44.4760026" lon="7.3400064"><ele>688.1428571428571</ele><time>2026-04-25T16:12:54.232Z</time></trkpt><trkpt lat="44.4759279" lon="7.3399973"><ele>687.2857142857143</ele><time>2026-04-25T16:12:56.232Z</time></trkpt><trkpt lat="44.4758613" lon="7.3399787"><ele>686.4285714285714</ele><time>2026-04-25T16:12:58.231Z</time></trkpt><trkpt lat="44.4758076" lon="7.3399035"><ele>685.5714285714286</ele><time>2026-04-25T16:13:01.232Z</time></trkpt><trkpt lat="44.4758468" lon="7.3398091"><ele>684.7142857142857</ele><time>2026-04-25T16:13:04.231Z</time></trkpt><trkpt lat="44.4759086" lon="7.3397528"><ele>683.8571428571429</ele><time>2026-04-25T16:13:06.231Z</time></trkpt><trkpt lat="44.4759678" lon="7.3396872"><ele>683.0</ele><time>2026-04-25T16:13:08.232Z</time></trkpt><trkpt lat="44.4760314" lon="7.3396198"><ele>683.0</ele><time>2026-04-25T16:13:10.231Z</time></trkpt><trkpt lat="44.4760971" lon="7.339549"><ele>683.0</ele><time>2026-04-25T16:13:12.232Z</time></trkpt><trkpt lat="44.4761631" lon="7.3394696"><ele>683.0</ele><time>2026-04-25T16:13:14.231Z</time></trkpt><trkpt lat="44.4762262" lon="7.3393933"><ele>683.0</ele><time>2026-04-25T16:13:16.231Z</time></trkpt><trkpt lat="44.4762866" lon="7.3393185"><ele>683.0</ele><time>2026-04-25T16:13:18.231Z</time></trkpt><trkpt lat="44.476352" lon="7.3392399"><ele>683.0</ele><time>2026-04-25T16:13:20.231Z</time></trkpt><trkpt lat="44.4764106" lon="7.3391658"><ele>684.0</ele><time>2026-04-25T16:13:22.232Z</time></trkpt><trkpt lat="44.4764688" lon="7.3390944"><ele>685.0</ele><time>2026-04-25T16:13:24.232Z</time></trkpt><trkpt lat="44.4765264" lon="7.3390162"><ele>686.0</ele><time>2026-04-25T16:13:26.232Z</time></trkpt><trkpt lat="44.4765827" lon="7.3389479"><ele>687.0</ele><time>2026-04-25T16:13:28.232Z</time></trkpt><trkpt lat="44.4766399" lon="7.3388873"><ele>688.0</ele><time>2026-04-25T16:13:30.231Z</time></trkpt><trkpt lat="44.4766878" lon="7.3388287"><ele>689.0</ele><time>2026-04-25T16:13:32.232Z</time></trkpt><trkpt lat="44.4767568" lon="7.3387477"><ele>689.6666666666666</ele><time>2026-04-25T16:13:35.231Z</time></trkpt><trkpt lat="44.4768257" lon="7.3386712"><ele>690.3333333333333</ele><time>2026-04-25T16:13:38.232Z</time></trkpt><trkpt lat="44.4768738" lon="7.3385558"><ele>691.0</ele><time>2026-04-25T16:13:41.232Z</time></trkpt><trkpt lat="44.4768943" lon="7.338453"><ele>691.6666666666666</ele><time>2026-04-25T16:13:43.231Z</time></trkpt><trkpt lat="44.4768993" lon="7.3383381"><ele>692.3333333333334</ele><time>2026-04-25T16:13:45.231Z</time></trkpt><trkpt lat="44.4769269" lon="7.3382233"><ele>693.0</ele><time>2026-04-25T16:13:47.232Z</time></trkpt><trkpt lat="44.476979" lon="7.3381349"><ele>693.6666666666666</ele><time>2026-04-25T16:13:49.231Z</time></trkpt><trkpt lat="44.4770295" lon="7.3380478"><ele>694.3333333333334</ele><time>2026-04-25T16:13:51.231Z</time></trkpt><trkpt lat="44.4770789" lon="7.3379586"><ele>695.0</ele><time>2026-04-25T16:13:53.233Z</time></trkpt><trkpt lat="44.4771265" lon="7.337866"><ele>695.6666666666667</ele><time>2026-04-25T16:13:55.231Z</time></trkpt><trkpt lat="44.4771785" lon="7.3377812"><ele>696.3333333333334</ele><time>2026-04-25T16:13:57.232Z</time></trkpt><trkpt lat="44.4772348" lon="7.3377111"><ele>697.0</ele><time>2026-04-25T16:13:59.231Z</time></trkpt><trkpt lat="44.4772864" lon="7.3376472"><ele>697.4285714285714</ele><time>2026-04-25T16:14:01.231Z</time></trkpt><trkpt lat="44.4773366" lon="7.3375875"><ele>697.8571428571429</ele><time>2026-04-25T16:14:03.231Z</time></trkpt><trkpt lat="44.4773985" lon="7.3374968"><ele>698.2857142857142</ele><time>2026-04-25T16:14:06.231Z</time></trkpt><trkpt lat="44.4774632" lon="7.3374123"><ele>698.7142857142858</ele><time>2026-04-25T16:14:09.231Z</time></trkpt><trkpt lat="44.4775052" lon="7.3373399"><ele>699.1428571428571</ele><time>2026-04-25T16:14:11.233Z</time></trkpt><trkpt lat="44.4775475" lon="7.3372681"><ele>699.5714285714286</ele><time>2026-04-25T16:14:13.231Z</time></trkpt><trkpt lat="44.4775847" lon="7.3371876"><ele>700.0</ele><time>2026-04-25T16:14:15.233Z</time></trkpt><trkpt lat="44.4776219" lon="7.3371086"><ele>700.4285714285714</ele><time>2026-04-25T16:14:17.231Z</time></trkpt><trkpt lat="44.4776601" lon="7.337026"><ele>700.8571428571429</ele><time>2026-04-25T16:14:19.232Z</time></trkpt><trkpt lat="44.4776985" lon="7.3369402"><ele>701.2857142857142</ele><time>2026-04-25T16:14:21.232Z</time></trkpt><trkpt lat="44.4777328" lon="7.3368538"><ele>701.7142857142858</ele><time>2026-04-25T16:14:23.232Z</time></trkpt><trkpt lat="44.4777707" lon="7.3367702"><ele>702.1428571428571</ele><time>2026-04-25T16:14:25.232Z</time></trkpt><trkpt lat="44.4777972" lon="7.3366832"><ele>702.5714285714286</ele><time>2026-04-25T16:14:27.232Z</time></trkpt><trkpt lat="44.4778167" lon="7.3365974"><ele>703.0</ele><time>2026-04-25T16:14:29.232Z</time></trkpt><trkpt lat="44.4778282" lon="7.3365103"><ele>703.0</ele><time>2026-04-25T16:14:31.232Z</time></trkpt><trkpt lat="44.4778399" lon="7.3364173"><ele>703.0</ele><time>2026-04-25T16:14:33.231Z</time></trkpt><trkpt lat="44.4778398" lon="7.3363218"><ele>703.0</ele><time>2026-04-25T16:14:35.23Z</time></trkpt><trkpt lat="44.4778477" lon="7.3362243"><ele>703.0</ele><time>2026-04-25T16:14:37.231Z</time></trkpt><trkpt lat="44.4778443" lon="7.336126"><ele>703.0</ele><time>2026-04-25T16:14:39.231Z</time></trkpt><trkpt lat="44.4778386" lon="7.3360308"><ele>703.0</ele><time>2026-04-25T16:14:41.23Z</time></trkpt><trkpt lat="44.4778519" lon="7.3359352"><ele>703.0</ele><time>2026-04-25T16:14:43.231Z</time></trkpt><trkpt lat="44.477917" lon="7.3358421"><ele>704.0</ele><time>2026-04-25T16:14:46.23Z</time></trkpt><trkpt lat="44.4779803" lon="7.3358127"><ele>705.0</ele><time>2026-04-25T16:14:48.231Z</time></trkpt><trkpt lat="44.4780507" lon="7.3357892"><ele>706.0</ele><time>2026-04-25T16:14:50.23Z</time></trkpt><trkpt lat="44.4781226" lon="7.3357547"><ele>707.0</ele><time>2026-04-25T16:14:52.23Z</time></trkpt><trkpt lat="44.4781843" lon="7.3357051"><ele>708.0</ele><time>2026-04-25T16:14:54.23Z</time></trkpt><trkpt lat="44.478236" lon="7.3356299"><ele>709.0</ele><time>2026-04-25T16:14:56.231Z</time></trkpt><trkpt lat="44.4782768" lon="7.3355551"><ele>710.0</ele><time>2026-04-25T16:14:58.231Z</time></trkpt><trkpt lat="44.4783125" lon="7.3354789"><ele>710.8333333333333</ele><time>2026-04-25T16:15:00.231Z</time></trkpt><trkpt lat="44.4783594" lon="7.335371"><ele>711.6666666666666</ele><time>2026-04-25T16:15:03.231Z</time></trkpt><trkpt lat="44.4784043" lon="7.3352622"><ele>712.5</ele><time>2026-04-25T16:15:06.23Z</time></trkpt><trkpt lat="44.4784363" lon="7.335169"><ele>713.3333333333334</ele><time>2026-04-25T16:15:09.231Z</time></trkpt><trkpt lat="44.4784369" lon="7.3350526"><ele>714.1666666666667</ele><time>2026-04-25T16:15:13.231Z</time></trkpt><trkpt lat="44.4783987" lon="7.3349475"><ele>715.0</ele><time>2026-04-25T16:15:16.231Z</time></trkpt><trkpt lat="44.4783833" lon="7.3348606"><ele>715.0</ele><time>2026-04-25T16:15:18.231Z</time></trkpt><trkpt lat="44.4783888" lon="7.3347629"><ele>715.0</ele><time>2026-04-25T16:15:20.231Z</time></trkpt><trkpt lat="44.4783995" lon="7.3346674"><ele>715.0</ele><time>2026-04-25T16:15:22.231Z</time></trkpt><trkpt lat="44.4784017" lon="7.3345759"><ele>715.0</ele><time>2026-04-25T16:15:24.23Z</time></trkpt><trkpt lat="44.4783833" lon="7.3344535"><ele>715.0</ele><time>2026-04-25T16:15:27.231Z</time></trkpt><trkpt lat="44.478342" lon="7.3343544"><ele>715.0</ele><time>2026-04-25T16:15:30.23Z</time></trkpt><trkpt lat="44.478296" lon="7.3342856"><ele>715.0</ele><time>2026-04-25T16:15:32.231Z</time></trkpt><trkpt lat="44.4782487" lon="7.334207"><ele>715.3333333333334</ele><time>2026-04-25T16:15:34.23Z</time></trkpt><trkpt lat="44.4781958" lon="7.3341304"><ele>715.6666666666667</ele><time>2026-04-25T16:15:36.23Z</time></trkpt><trkpt lat="44.4781439" lon="7.3340525"><ele>716.0</ele><time>2026-04-25T16:15:38.231Z</time></trkpt><trkpt lat="44.4781053" lon="7.3339602"><ele>716.3333333333334</ele><time>2026-04-25T16:15:40.232Z</time></trkpt><trkpt lat="44.4781025" lon="7.333852"><ele>716.6666666666666</ele><time>2026-04-25T16:15:42.23Z</time></trkpt><trkpt lat="44.4781253" lon="7.3337526"><ele>717.0</ele><time>2026-04-25T16:15:44.23Z</time></trkpt><trkpt lat="44.4781569" lon="7.3336533"><ele>717.4000000000001</ele><time>2026-04-25T16:15:46.231Z</time></trkpt><trkpt lat="44.4782022" lon="7.3335375"><ele>717.8000000000001</ele><time>2026-04-25T16:15:48.232Z</time></trkpt><trkpt lat="44.4782542" lon="7.3334179"><ele>718.2</ele><time>2026-04-25T16:15:50.23Z</time></trkpt><trkpt lat="44.4783117" lon="7.3333114"><ele>718.6</ele><time>2026-04-25T16:15:52.231Z</time></trkpt><trkpt lat="44.4783528" lon="7.3331996"><ele>719.0</ele><time>2026-04-25T16:15:54.23Z</time></trkpt><trkpt lat="44.4783731" lon="7.3330979"><ele>719.9999999999999</ele><time>2026-04-25T16:15:56.23Z</time></trkpt><trkpt lat="44.4783621" lon="7.3329746"><ele>721.0</ele><time>2026-04-25T16:15:59.23Z</time></trkpt><trkpt lat="44.4783268" lon="7.3328955"><ele>722.0</ele><time>2026-04-25T16:16:01.232Z</time></trkpt><trkpt lat="44.4782725" lon="7.3328388"><ele>723.0</ele><time>2026-04-25T16:16:03.231Z</time></trkpt><trkpt lat="44.4782104" lon="7.3328025"><ele>724.0</ele><time>2026-04-25T16:16:05.23Z</time></trkpt><trkpt lat="44.4781411" lon="7.3327924"><ele>724.9999999999999</ele><time>2026-04-25T16:16:07.231Z</time></trkpt><trkpt lat="44.4780714" lon="7.3327708"><ele>726.0</ele><time>2026-04-25T16:16:09.23Z</time></trkpt><trkpt lat="44.4779894" lon="7.3327497"><ele>724.1999999999999</ele><time>2026-04-25T16:16:11.231Z</time></trkpt><trkpt lat="44.4779007" lon="7.3327204"><ele>722.4</ele><time>2026-04-25T16:16:13.231Z</time></trkpt><trkpt lat="44.4778137" lon="7.3326783"><ele>720.6</ele><time>2026-04-25T16:16:15.231Z</time></trkpt><trkpt lat="44.4777285" lon="7.3326222"><ele>718.8</ele><time>2026-04-25T16:16:17.232Z</time></trkpt><trkpt lat="44.4776559" lon="7.3325388"><ele>717.0</ele><time>2026-04-25T16:16:19.23Z</time></trkpt><trkpt lat="44.4775755" lon="7.3324594"><ele>717.0</ele><time>2026-04-25T16:16:21.23Z</time></trkpt><trkpt lat="44.4774815" lon="7.3323888"><ele>717.0</ele><time>2026-04-25T16:16:23.232Z</time></trkpt><trkpt lat="44.477366" lon="7.3323657"><ele>717.0</ele><time>2026-04-25T16:16:25.23Z</time></trkpt><trkpt lat="44.4772474" lon="7.3323531"><ele>717.0</ele><time>2026-04-25T16:16:27.231Z</time></trkpt><trkpt lat="44.4771355" lon="7.3323316"><ele>718.2</ele><time>2026-04-25T16:16:29.232Z</time></trkpt><trkpt lat="44.4770287" lon="7.3322893"><ele>719.4000000000001</ele><time>2026-04-25T16:16:31.231Z</time></trkpt><trkpt lat="44.4769203" lon="7.3322389"><ele>720.5999999999999</ele><time>2026-04-25T16:16:33.231Z</time></trkpt><trkpt lat="44.4768198" lon="7.332171"><ele>721.8</ele><time>2026-04-25T16:16:35.231Z</time></trkpt><trkpt lat="44.4767295" lon="7.3320903"><ele>723.0</ele><time>2026-04-25T16:16:37.231Z</time></trkpt><trkpt lat="44.4766545" lon="7.3319992"><ele>723.0</ele><time>2026-04-25T16:16:39.231Z</time></trkpt><trkpt lat="44.4765987" lon="7.3319023"><ele>723.0</ele><time>2026-04-25T16:16:41.231Z</time></trkpt><trkpt lat="44.476547" lon="7.3318186"><ele>723.0</ele><time>2026-04-25T16:16:43.23Z</time></trkpt><trkpt lat="44.4765142" lon="7.3317403"><ele>723.0</ele><time>2026-04-25T16:16:45.231Z</time></trkpt><trkpt lat="44.4764607" lon="7.3316518"><ele>723.0</ele><time>2026-04-25T16:16:48.231Z</time></trkpt><trkpt lat="44.4764367" lon="7.3315582"><ele>723.0</ele><time>2026-04-25T16:16:51.23Z</time></trkpt><trkpt lat="44.4764154" lon="7.3314469"><ele>723.0000000000001</ele><time>2026-04-25T16:16:54.231Z</time></trkpt><trkpt lat="44.4763946" lon="7.3313546"><ele>723.0</ele><time>2026-04-25T16:16:56.232Z</time></trkpt><trkpt lat="44.4763409" lon="7.3312725"><ele>723.0</ele><time>2026-04-25T16:16:58.23Z</time></trkpt><trkpt lat="44.4762706" lon="7.3312126"><ele>723.0</ele><time>2026-04-25T16:17:00.23Z</time></trkpt><trkpt lat="44.476207" lon="7.3311593"><ele>723.0</ele><time>2026-04-25T16:17:02.232Z</time></trkpt><trkpt lat="44.4761411" lon="7.3311197"><ele>723.0000000000001</ele><time>2026-04-25T16:17:04.231Z</time></trkpt><trkpt lat="44.4760749" lon="7.3310843"><ele>723.0</ele><time>2026-04-25T16:17:06.23Z</time></trkpt><trkpt lat="44.4760158" lon="7.3310527"><ele>723.0</ele><time>2026-04-25T16:17:08.231Z</time></trkpt><trkpt lat="44.4759371" lon="7.3310106"><ele>723.0</ele><time>2026-04-25T16:17:11.231Z</time></trkpt><trkpt lat="44.4758663" lon="7.330953"><ele>723.0</ele><time>2026-04-25T16:17:14.231Z</time></trkpt><trkpt lat="44.4758064" lon="7.330862"><ele>723.0</ele><time>2026-04-25T16:17:17.23Z</time></trkpt><trkpt lat="44.475798" lon="7.3307627"><ele>723.0</ele><time>2026-04-25T16:17:19.231Z</time></trkpt><trkpt lat="44.4758072" lon="7.3306507"><ele>723.0</ele><time>2026-04-25T16:17:21.23Z</time></trkpt><trkpt lat="44.4758006" lon="7.3305283"><ele>722.7142857142858</ele><time>2026-04-25T16:17:23.231Z</time></trkpt><trkpt lat="44.475777" lon="7.3304158"><ele>722.4285714285714</ele><time>2026-04-25T16:17:25.231Z</time></trkpt><trkpt lat="44.4757307" lon="7.3303434"><ele>722.1428571428571</ele><time>2026-04-25T16:17:27.231Z</time></trkpt><trkpt lat="44.4756718" lon="7.3302911"><ele>721.8571428571429</ele><time>2026-04-25T16:17:29.232Z</time></trkpt><trkpt lat="44.4756053" lon="7.3302515"><ele>721.5714285714286</ele><time>2026-04-25T16:17:31.23Z</time></trkpt><trkpt lat="44.4755338" lon="7.3302275"><ele>721.2857142857143</ele><time>2026-04-25T16:17:33.231Z</time></trkpt><trkpt lat="44.4754579" lon="7.3302263"><ele>721.0</ele><time>2026-04-25T16:17:35.231Z</time></trkpt><trkpt lat="44.4753847" lon="7.3302198"><ele>721.0</ele><time>2026-04-25T16:17:37.231Z</time></trkpt><trkpt lat="44.4753185" lon="7.3301899"><ele>721.0</ele><time>2026-04-25T16:17:39.231Z</time></trkpt><trkpt lat="44.4752611" lon="7.330144"><ele>721.0</ele><time>2026-04-25T16:17:41.23Z</time></trkpt><trkpt lat="44.4752076" lon="7.3300667"><ele>721.0</ele><time>2026-04-25T16:17:43.23Z</time></trkpt><trkpt lat="44.4751747" lon="7.3299363"><ele>721.0</ele><time>2026-04-25T16:17:45.23Z</time></trkpt><trkpt lat="44.4751631" lon="7.3297777"><ele>721.0</ele><time>2026-04-25T16:17:47.231Z</time></trkpt><trkpt lat="44.4751365" lon="7.3296973"><ele>723.5999999999999</ele><time>2026-04-25T16:17:48.231Z</time></trkpt><trkpt lat="44.475084" lon="7.3296447"><ele>726.2</ele><time>2026-04-25T16:17:49.231Z</time></trkpt><trkpt lat="44.474966" lon="7.3296219"><ele>728.8</ele><time>2026-04-25T16:17:51.23Z</time></trkpt><trkpt lat="44.4748665" lon="7.3296517"><ele>731.4000000000001</ele><time>2026-04-25T16:17:53.23Z</time></trkpt><trkpt lat="44.4747726" lon="7.3296659"><ele>734.0</ele><time>2026-04-25T16:17:55.231Z</time></trkpt><trkpt lat="44.4746789" lon="7.3296329"><ele>731.2</ele><time>2026-04-25T16:17:57.23Z</time></trkpt><trkpt lat="44.4745914" lon="7.3295649"><ele>728.4000000000001</ele><time>2026-04-25T16:17:59.232Z</time></trkpt><trkpt lat="44.4745091" lon="7.3294805"><ele>725.6</ele><time>2026-04-25T16:18:01.231Z</time></trkpt><trkpt lat="44.4744378" lon="7.3293949"><ele>722.8</ele><time>2026-04-25T16:18:03.23Z</time></trkpt><trkpt lat="44.4743738" lon="7.3293141"><ele>720.0</ele><time>2026-04-25T16:18:05.23Z</time></trkpt><trkpt lat="44.4743289" lon="7.3292239"><ele>720.0</ele><time>2026-04-25T16:18:07.231Z</time></trkpt><trkpt lat="44.4742914" lon="7.329121"><ele>720.0</ele><time>2026-04-25T16:18:09.231Z</time></trkpt><trkpt lat="44.4742746" lon="7.3290079"><ele>720.0</ele><time>2026-04-25T16:18:11.231Z</time></trkpt><trkpt lat="44.4742542" lon="7.3288836"><ele>720.0</ele><time>2026-04-25T16:18:13.231Z</time></trkpt><trkpt lat="44.4742078" lon="7.3287726"><ele>720.0</ele><time>2026-04-25T16:18:15.23Z</time></trkpt><trkpt lat="44.4741573" lon="7.3286806"><ele>720.0</ele><time>2026-04-25T16:18:17.232Z</time></trkpt><trkpt lat="44.4741009" lon="7.3285966"><ele>721.6666666666666</ele><time>2026-04-25T16:18:19.231Z</time></trkpt><trkpt lat="44.4740313" lon="7.3285503"><ele>723.3333333333334</ele><time>2026-04-25T16:18:21.231Z</time></trkpt><trkpt lat="44.4739509" lon="7.3285264"><ele>725.0</ele><time>2026-04-25T16:18:23.23Z</time></trkpt><trkpt lat="44.4738705" lon="7.3285326"><ele>726.6666666666667</ele><time>2026-04-25T16:18:25.23Z</time></trkpt><trkpt lat="44.4737904" lon="7.3285496"><ele>728.3333333333334</ele><time>2026-04-25T16:18:27.231Z</time></trkpt><trkpt lat="44.473712" lon="7.328551"><ele>730.0</ele><time>2026-04-25T16:18:29.231Z</time></trkpt><trkpt lat="44.4736342" lon="7.3285515"><ele>730.0000000000001</ele><time>2026-04-25T16:18:31.231Z</time></trkpt><trkpt lat="44.4735671" lon="7.3285453"><ele>730.0</ele><time>2026-04-25T16:18:33.23Z</time></trkpt><trkpt lat="44.4735024" lon="7.3285342"><ele>730.0</ele><time>2026-04-25T16:18:35.231Z</time></trkpt><trkpt lat="44.4734122" lon="7.328504"><ele>730.0</ele><time>2026-04-25T16:18:38.23Z</time></trkpt><trkpt lat="44.4733407" lon="7.3284828"><ele>730.0</ele><time>2026-04-25T16:18:40.23Z</time></trkpt><trkpt lat="44.4732693" lon="7.3284649"><ele>730.0000000000001</ele><time>2026-04-25T16:18:42.231Z</time></trkpt><trkpt lat="44.4731945" lon="7.3284429"><ele>730.0</ele><time>2026-04-25T16:18:44.231Z</time></trkpt><trkpt lat="44.4731171" lon="7.3284194"><ele>730.0</ele><time>2026-04-25T16:18:46.23Z</time></trkpt><trkpt lat="44.473043" lon="7.3283865"><ele>730.0</ele><time>2026-04-25T16:18:48.231Z</time></trkpt><trkpt lat="44.4729707" lon="7.3283487"><ele>730.0</ele><time>2026-04-25T16:18:50.23Z</time></trkpt><trkpt lat="44.4729012" lon="7.3283009"><ele>730.0</ele><time>2026-04-25T16:18:52.231Z</time></trkpt><trkpt lat="44.472837" lon="7.3282424"><ele>730.0</ele><time>2026-04-25T16:18:54.231Z</time></trkpt><trkpt lat="44.4727773" lon="7.3281748"><ele>730.0</ele><time>2026-04-25T16:18:56.231Z</time></trkpt><trkpt lat="44.472709" lon="7.3280914"><ele>731.1666666666667</ele><time>2026-04-25T16:18:58.173Z</time></trkpt><trkpt lat="44.4726491" lon="7.328046"><ele>732.3333333333334</ele><time>2026-04-25T16:19:00.15Z</time></trkpt><trkpt lat="44.4725697" lon="7.3280254"><ele>733.5</ele><time>2026-04-25T16:19:02.232Z</time></trkpt><trkpt lat="44.4724931" lon="7.328023"><ele>734.6666666666666</ele><time>2026-04-25T16:19:04.231Z</time></trkpt><trkpt lat="44.4724212" lon="7.3280329"><ele>735.8333333333333</ele><time>2026-04-25T16:19:06.23Z</time></trkpt><trkpt lat="44.4723413" lon="7.3279953"><ele>737.0</ele><time>2026-04-25T16:19:09.231Z</time></trkpt><trkpt lat="44.4722871" lon="7.3279376"><ele>737.0</ele><time>2026-04-25T16:19:12.232Z</time></trkpt><trkpt lat="44.4722208" lon="7.3278863"><ele>737.0</ele><time>2026-04-25T16:19:16.231Z</time></trkpt><trkpt lat="44.4722031" lon="7.3277617"><ele>737.0</ele><time>2026-04-25T16:19:18.23Z</time></trkpt><trkpt lat="44.4721913" lon="7.3276354"><ele>737.0</ele><time>2026-04-25T16:19:20.232Z</time></trkpt><trkpt lat="44.472147" lon="7.3275372"><ele>737.0</ele><time>2026-04-25T16:19:22.23Z</time></trkpt><trkpt lat="44.472064" lon="7.3275446"><ele>737.0</ele><time>2026-04-25T16:19:24.23Z</time></trkpt><trkpt lat="44.4719853" lon="7.3276723"><ele>734.1666666666666</ele><time>2026-04-25T16:19:26.23Z</time></trkpt><trkpt lat="44.4719325" lon="7.327741"><ele>731.3333333333333</ele><time>2026-04-25T16:19:27.23Z</time></trkpt><trkpt lat="44.4718663" lon="7.3277851"><ele>728.5</ele><time>2026-04-25T16:19:28.23Z</time></trkpt><trkpt lat="44.4717941" lon="7.3277946"><ele>725.6666666666666</ele><time>2026-04-25T16:19:29.23Z</time></trkpt><trkpt lat="44.4717146" lon="7.3277852"><ele>722.8333333333334</ele><time>2026-04-25T16:19:30.231Z</time></trkpt><trkpt lat="44.471631" lon="7.32777"><ele>720.0</ele><time>2026-04-25T16:19:31.231Z</time></trkpt><trkpt lat="44.4715436" lon="7.3277638"><ele>720.0</ele><time>2026-04-25T16:19:32.23Z</time></trkpt><trkpt lat="44.4714494" lon="7.327756"><ele>720.0</ele><time>2026-04-25T16:19:33.23Z</time></trkpt><trkpt lat="44.4713494" lon="7.3277577"><ele>720.0</ele><time>2026-04-25T16:19:34.23Z</time></trkpt><trkpt lat="44.4712472" lon="7.3277639"><ele>720.0</ele><time>2026-04-25T16:19:35.23Z</time></trkpt><trkpt lat="44.4711538" lon="7.3277701"><ele>720.0</ele><time>2026-04-25T16:19:36.231Z</time></trkpt><trkpt lat="44.4710737" lon="7.3277849"><ele>719.1666666666666</ele><time>2026-04-25T16:19:37.23Z</time></trkpt><trkpt lat="44.4710068" lon="7.3277915"><ele>718.3333333333334</ele><time>2026-04-25T16:19:38.231Z</time></trkpt><trkpt lat="44.4709421" lon="7.3278144"><ele>717.5</ele><time>2026-04-25T16:19:39.231Z</time></trkpt><trkpt lat="44.4708241" lon="7.3278884"><ele>716.6666666666667</ele><time>2026-04-25T16:19:41.231Z</time></trkpt><trkpt lat="44.4707762" lon="7.327962"><ele>715.8333333333334</ele><time>2026-04-25T16:19:42.231Z</time></trkpt><trkpt lat="44.4707425" lon="7.3280536"><ele>715.0</ele><time>2026-04-25T16:19:43.23Z</time></trkpt><trkpt lat="44.4707246" lon="7.3281677"><ele>715.0</ele><time>2026-04-25T16:19:44.231Z</time></trkpt><trkpt lat="44.4707176" lon="7.3282819"><ele>715.0</ele><time>2026-04-25T16:19:45.231Z</time></trkpt><trkpt lat="44.4707172" lon="7.3283941"><ele>715.0</ele><time>2026-04-25T16:19:46.231Z</time></trkpt><trkpt lat="44.4707205" lon="7.3285056"><ele>715.0</ele><time>2026-04-25T16:19:47.23Z</time></trkpt><trkpt lat="44.470744" lon="7.3286115"><ele>715.0</ele><time>2026-04-25T16:19:48.23Z</time></trkpt><trkpt lat="44.470783" lon="7.3287147"><ele>715.0</ele><time>2026-04-25T16:19:49.23Z</time></trkpt><trkpt lat="44.4708409" lon="7.3287985"><ele>715.0</ele><time>2026-04-25T16:19:50.23Z</time></trkpt><trkpt lat="44.4709016" lon="7.3288739"><ele>715.0</ele><time>2026-04-25T16:19:51.23Z</time></trkpt><trkpt lat="44.4709615" lon="7.3289531"><ele>715.0</ele><time>2026-04-25T16:19:52.231Z</time></trkpt><trkpt lat="44.4710234" lon="7.3290355"><ele>715.0</ele><time>2026-04-25T16:19:53.23Z</time></trkpt><trkpt lat="44.4710712" lon="7.3291242"><ele>715.0</ele><time>2026-04-25T16:19:54.23Z</time></trkpt><trkpt lat="44.4711131" lon="7.3292167"><ele>715.0</ele><time>2026-04-25T16:19:55.23Z</time></trkpt><trkpt lat="44.4711552" lon="7.3293147"><ele>716.1666666666667</ele><time>2026-04-25T16:19:56.231Z</time></trkpt><trkpt lat="44.4711904" lon="7.3294093"><ele>717.3333333333334</ele><time>2026-04-25T16:19:57.229Z</time></trkpt><trkpt lat="44.4712247" lon="7.3294995"><ele>718.5</ele><time>2026-04-25T16:19:58.23Z</time></trkpt><trkpt lat="44.4712591" lon="7.329598"><ele>719.6666666666666</ele><time>2026-04-25T16:19:59.23Z</time></trkpt><trkpt lat="44.471298" lon="7.3296853"><ele>720.8333333333333</ele><time>2026-04-25T16:20:00.23Z</time></trkpt><trkpt lat="44.4713395" lon="7.329774"><ele>722.0</ele><time>2026-04-25T16:20:01.23Z</time></trkpt><trkpt lat="44.4713941" lon="7.3298594"><ele>719.1666666666666</ele><time>2026-04-25T16:20:02.23Z</time></trkpt><trkpt lat="44.4714669" lon="7.3298981"><ele>716.3333333333333</ele><time>2026-04-25T16:20:03.23Z</time></trkpt><trkpt lat="44.4715467" lon="7.3299384"><ele>713.5</ele><time>2026-04-25T16:20:04.229Z</time></trkpt><trkpt lat="44.4716299" lon="7.3299681"><ele>710.6666666666666</ele><time>2026-04-25T16:20:05.23Z</time></trkpt><trkpt lat="44.471716" lon="7.3299922"><ele>707.8333333333334</ele><time>2026-04-25T16:20:06.23Z</time></trkpt><trkpt lat="44.471793" lon="7.3300163"><ele>705.0</ele><time>2026-04-25T16:20:07.23Z</time></trkpt><trkpt lat="44.4718735" lon="7.3300423"><ele>705.0</ele><time>2026-04-25T16:20:08.23Z</time></trkpt><trkpt lat="44.4719562" lon="7.3300573"><ele>705.0</ele><time>2026-04-25T16:20:09.23Z</time></trkpt><trkpt lat="44.4720328" lon="7.3300562"><ele>705.0</ele><time>2026-04-25T16:20:10.23Z</time></trkpt><trkpt lat="44.4721102" lon="7.3300427"><ele>705.0</ele><time>2026-04-25T16:20:11.23Z</time></trkpt><trkpt lat="44.4721908" lon="7.3300242"><ele>705.0</ele><time>2026-04-25T16:20:12.23Z</time></trkpt><trkpt lat="44.4722692" lon="7.3299894"><ele>705.0</ele><time>2026-04-25T16:20:13.231Z</time></trkpt><trkpt lat="44.4723451" lon="7.3299368"><ele>704.6666666666666</ele><time>2026-04-25T16:20:14.229Z</time></trkpt><trkpt lat="44.4724182" lon="7.3298716"><ele>704.3333333333334</ele><time>2026-04-25T16:20:15.229Z</time></trkpt><trkpt lat="44.4724893" lon="7.3297874"><ele>704.0</ele><time>2026-04-25T16:20:16.229Z</time></trkpt><trkpt lat="44.4725677" lon="7.3297019"><ele>703.6666666666667</ele><time>2026-04-25T16:20:17.229Z</time></trkpt><trkpt lat="44.4726352" lon="7.3296253"><ele>703.3333333333334</ele><time>2026-04-25T16:20:18.229Z</time></trkpt><trkpt lat="44.4726947" lon="7.329557"><ele>703.0</ele><time>2026-04-25T16:20:19.23Z</time></trkpt><trkpt lat="44.4727713" lon="7.3294573"><ele>703.0</ele><time>2026-04-25T16:20:21.23Z</time></trkpt><trkpt lat="44.4728356" lon="7.3294736"><ele>703.0</ele><time>2026-04-25T16:20:22.229Z</time></trkpt><trkpt lat="44.4728917" lon="7.3295797"><ele>703.0</ele><time>2026-04-25T16:20:24.229Z</time></trkpt><trkpt lat="44.4728701" lon="7.3296656"><ele>703.0</ele><time>2026-04-25T16:20:25.23Z</time></trkpt><trkpt lat="44.4728466" lon="7.3297554"><ele>703.0</ele><time>2026-04-25T16:20:26.231Z</time></trkpt><trkpt lat="44.472817" lon="7.3298532"><ele>703.0</ele><time>2026-04-25T16:20:27.23Z</time></trkpt><trkpt lat="44.4727817" lon="7.3299591"><ele>703.0</ele><time>2026-04-25T16:20:28.23Z</time></trkpt><trkpt lat="44.4727413" lon="7.3300689"><ele>703.0</ele><time>2026-04-25T16:20:29.229Z</time></trkpt><trkpt lat="44.4726939" lon="7.3301762"><ele>703.0</ele><time>2026-04-25T16:20:30.229Z</time></trkpt><trkpt lat="44.4726485" lon="7.330283"><ele>703.0</ele><time>2026-04-25T16:20:31.23Z</time></trkpt><trkpt lat="44.4726012" lon="7.3303822"><ele>703.0</ele><time>2026-04-25T16:20:32.23Z</time></trkpt><trkpt lat="44.4725537" lon="7.3304838"><ele>703.0</ele><time>2026-04-25T16:20:33.23Z</time></trkpt><trkpt lat="44.4725066" lon="7.3305805"><ele>700.5</ele><time>2026-04-25T16:20:34.229Z</time></trkpt><trkpt lat="44.4724626" lon="7.33067"><ele>698.0</ele><time>2026-04-25T16:20:35.23Z</time></trkpt><trkpt lat="44.4724168" lon="7.3307549"><ele>695.5</ele><time>2026-04-25T16:20:36.229Z</time></trkpt><trkpt lat="44.4723643" lon="7.3308288"><ele>693.0</ele><time>2026-04-25T16:20:37.229Z</time></trkpt><trkpt lat="44.4723041" lon="7.3308898"><ele>690.5</ele><time>2026-04-25T16:20:38.23Z</time></trkpt><trkpt lat="44.4722345" lon="7.3309263"><ele>688.0</ele><time>2026-04-25T16:20:39.23Z</time></trkpt><trkpt lat="44.4721516" lon="7.330952"><ele>687.5999999999999</ele><time>2026-04-25T16:20:40.229Z</time></trkpt><trkpt lat="44.472064" lon="7.3309716"><ele>687.1999999999999</ele><time>2026-04-25T16:20:41.229Z</time></trkpt><trkpt lat="44.4719728" lon="7.3309805"><ele>686.8</ele><time>2026-04-25T16:20:42.229Z</time></trkpt><trkpt lat="44.4718803" lon="7.3309792"><ele>686.4</ele><time>2026-04-25T16:20:43.229Z</time></trkpt><trkpt lat="44.4717925" lon="7.3309681"><ele>686.0</ele><time>2026-04-25T16:20:44.229Z</time></trkpt><trkpt lat="44.4716942" lon="7.3309593"><ele>686.0</ele><time>2026-04-25T16:20:45.229Z</time></trkpt><trkpt lat="44.4715954" lon="7.3309605"><ele>686.0</ele><time>2026-04-25T16:20:46.23Z</time></trkpt><trkpt lat="44.4714925" lon="7.3309724"><ele>686.0</ele><time>2026-04-25T16:20:47.23Z</time></trkpt><trkpt lat="44.4713941" lon="7.3309814"><ele>686.0</ele><time>2026-04-25T16:20:48.23Z</time></trkpt><trkpt lat="44.4713012" lon="7.3309972"><ele>686.0</ele><time>2026-04-25T16:20:49.23Z</time></trkpt><trkpt lat="44.4712117" lon="7.3310122"><ele>684.6666666666666</ele><time>2026-04-25T16:20:50.229Z</time></trkpt><trkpt lat="44.4711294" lon="7.3310204"><ele>683.3333333333333</ele><time>2026-04-25T16:20:51.229Z</time></trkpt><trkpt lat="44.4710469" lon="7.3310274"><ele>682.0</ele><time>2026-04-25T16:20:52.229Z</time></trkpt><trkpt lat="44.4709688" lon="7.3310228"><ele>680.6666666666666</ele><time>2026-04-25T16:20:53.229Z</time></trkpt><trkpt lat="44.4708938" lon="7.331012"><ele>679.3333333333334</ele><time>2026-04-25T16:20:54.229Z</time></trkpt><trkpt lat="44.470824" lon="7.3310021"><ele>678.0</ele><time>2026-04-25T16:20:55.229Z</time></trkpt><trkpt lat="44.4707107" lon="7.3309855"><ele>678.0</ele><time>2026-04-25T16:20:57.23Z</time></trkpt><trkpt lat="44.4706124" lon="7.3309933"><ele>678.0</ele><time>2026-04-25T16:20:59.231Z</time></trkpt><trkpt lat="44.4705312" lon="7.331005"><ele>678.0</ele><time>2026-04-25T16:21:01.229Z</time></trkpt><trkpt lat="44.4704464" lon="7.331069"><ele>678.0</ele><time>2026-04-25T16:21:03.23Z</time></trkpt><trkpt lat="44.470393" lon="7.331201"><ele>678.0</ele><time>2026-04-25T16:21:05.23Z</time></trkpt><trkpt lat="44.470338" lon="7.3313645"><ele>675.5999999999999</ele><time>2026-04-25T16:21:07.23Z</time></trkpt><trkpt lat="44.4702622" lon="7.3314971"><ele>673.1999999999999</ele><time>2026-04-25T16:21:09.23Z</time></trkpt><trkpt lat="44.4702205" lon="7.3315666"><ele>670.8</ele><time>2026-04-25T16:21:10.23Z</time></trkpt><trkpt lat="44.470155" lon="7.3317114"><ele>668.4</ele><time>2026-04-25T16:21:12.23Z</time></trkpt><trkpt lat="44.4701201" lon="7.3318657"><ele>666.0</ele><time>2026-04-25T16:21:14.229Z</time></trkpt><trkpt lat="44.4700958" lon="7.3320303"><ele>666.0</ele><time>2026-04-25T16:21:16.229Z</time></trkpt><trkpt lat="44.4700518" lon="7.3321856"><ele>666.0</ele><time>2026-04-25T16:21:18.229Z</time></trkpt><trkpt lat="44.4699897" lon="7.332327"><ele>666.0</ele><time>2026-04-25T16:21:20.231Z</time></trkpt><trkpt lat="44.469915" lon="7.3324706"><ele>666.0</ele><time>2026-04-25T16:21:22.229Z</time></trkpt><trkpt lat="44.4698726" lon="7.3325443"><ele>666.0</ele><time>2026-04-25T16:21:23.229Z</time></trkpt><trkpt lat="44.4698361" lon="7.3326182"><ele>665.5714285714286</ele><time>2026-04-25T16:21:24.23Z</time></trkpt><trkpt lat="44.469797" lon="7.3326902"><ele>665.1428571428571</ele><time>2026-04-25T16:21:25.23Z</time></trkpt><trkpt lat="44.4697569" lon="7.332765"><ele>664.7142857142857</ele><time>2026-04-25T16:21:26.229Z</time></trkpt><trkpt lat="44.4697135" lon="7.332845"><ele>664.2857142857142</ele><time>2026-04-25T16:21:27.229Z</time></trkpt><trkpt lat="44.4696731" lon="7.3329272"><ele>663.8571428571429</ele><time>2026-04-25T16:21:28.229Z</time></trkpt><trkpt lat="44.4696335" lon="7.3330158"><ele>663.4285714285713</ele><time>2026-04-25T16:21:29.23Z</time></trkpt><trkpt lat="44.469593" lon="7.3331045"><ele>663.0</ele><time>2026-04-25T16:21:30.229Z</time></trkpt><trkpt lat="44.4695579" lon="7.3331947"><ele>662.5714285714286</ele><time>2026-04-25T16:21:31.229Z</time></trkpt><trkpt lat="44.4695346" lon="7.3332942"><ele>662.1428571428571</ele><time>2026-04-25T16:21:32.23Z</time></trkpt><trkpt lat="44.4695179" lon="7.3333924"><ele>661.7142857142858</ele><time>2026-04-25T16:21:33.23Z</time></trkpt><trkpt lat="44.4695069" lon="7.3334906"><ele>661.2857142857142</ele><time>2026-04-25T16:21:34.229Z</time></trkpt><trkpt lat="44.4694931" lon="7.3335906"><ele>660.8571428571429</ele><time>2026-04-25T16:21:35.23Z</time></trkpt><trkpt lat="44.4694789" lon="7.3336871"><ele>660.4285714285714</ele><time>2026-04-25T16:21:36.231Z</time></trkpt><trkpt lat="44.4694699" lon="7.3337757"><ele>660.0</ele><time>2026-04-25T16:21:37.23Z</time></trkpt><trkpt lat="44.4694576" lon="7.333863"><ele>659.4</ele><time>2026-04-25T16:21:38.23Z</time></trkpt><trkpt lat="44.4694505" lon="7.3339507"><ele>658.8</ele><time>2026-04-25T16:21:39.231Z</time></trkpt><trkpt lat="44.469444" lon="7.3340388"><ele>658.2</ele><time>2026-04-25T16:21:40.23Z</time></trkpt><trkpt lat="44.4694277" lon="7.3342083"><ele>657.6</ele><time>2026-04-25T16:21:42.231Z</time></trkpt><trkpt lat="44.469412" lon="7.3343674"><ele>657.0</ele><time>2026-04-25T16:21:44.23Z</time></trkpt><trkpt lat="44.4693868" lon="7.3345204"><ele>657.0</ele><time>2026-04-25T16:21:46.229Z</time></trkpt><trkpt lat="44.4693671" lon="7.3346729"><ele>657.0</ele><time>2026-04-25T16:21:48.229Z</time></trkpt><trkpt lat="44.4693469" lon="7.3348192"><ele>657.0</ele><time>2026-04-25T16:21:50.229Z</time></trkpt><trkpt lat="44.4693272" lon="7.334966"><ele>657.0</ele><time>2026-04-25T16:21:52.229Z</time></trkpt><trkpt lat="44.4693153" lon="7.3351009"><ele>657.0</ele><time>2026-04-25T16:21:54.23Z</time></trkpt><trkpt lat="44.4693044" lon="7.3352288"><ele>656.6</ele><time>2026-04-25T16:21:56.229Z</time></trkpt><trkpt lat="44.4693026" lon="7.3353566"><ele>656.2</ele><time>2026-04-25T16:21:58.229Z</time></trkpt><trkpt lat="44.4693045" lon="7.3354815"><ele>655.8</ele><time>2026-04-25T16:22:00.229Z</time></trkpt><trkpt lat="44.469294" lon="7.3356073"><ele>655.4</ele><time>2026-04-25T16:22:02.23Z</time></trkpt><trkpt lat="44.4692871" lon="7.3357479"><ele>655.0</ele><time>2026-04-25T16:22:04.231Z</time></trkpt><trkpt lat="44.4692798" lon="7.3359009"><ele>654.75</ele><time>2026-04-25T16:22:06.23Z</time></trkpt><trkpt lat="44.4692848" lon="7.3360641"><ele>654.5</ele><time>2026-04-25T16:22:08.23Z</time></trkpt><trkpt lat="44.4692907" lon="7.336237"><ele>654.25</ele><time>2026-04-25T16:22:10.229Z</time></trkpt><trkpt lat="44.4693055" lon="7.3364024"><ele>654.0</ele><time>2026-04-25T16:22:12.231Z</time></trkpt><trkpt lat="44.4693237" lon="7.3365443"><ele>653.8000000000001</ele><time>2026-04-25T16:22:14.23Z</time></trkpt><trkpt lat="44.4692815" lon="7.3366659"><ele>653.6</ele><time>2026-04-25T16:22:16.23Z</time></trkpt><trkpt lat="44.4692133" lon="7.336759"><ele>653.4</ele><time>2026-04-25T16:22:18.23Z</time></trkpt><trkpt lat="44.4691355" lon="7.3368581"><ele>653.2</ele><time>2026-04-25T16:22:20.229Z</time></trkpt><trkpt lat="44.4690561" lon="7.336961"><ele>653.0</ele><time>2026-04-25T16:22:22.229Z</time></trkpt><trkpt lat="44.4689749" lon="7.3370727"><ele>653.0</ele><time>2026-04-25T16:22:24.229Z</time></trkpt><trkpt lat="44.4688907" lon="7.3371907"><ele>653.0</ele><time>2026-04-25T16:22:26.23Z</time></trkpt><trkpt lat="44.4688073" lon="7.337298"><ele>653.0</ele><time>2026-04-25T16:22:28.23Z</time></trkpt><trkpt lat="44.4687327" lon="7.3373926"><ele>653.0</ele><time>2026-04-25T16:22:30.23Z</time></trkpt><trkpt lat="44.4686564" lon="7.3375029"><ele>653.0</ele><time>2026-04-25T16:22:32.23Z</time></trkpt><trkpt lat="44.4685911" lon="7.3376168"><ele>652.6666666666666</ele><time>2026-04-25T16:22:34.23Z</time></trkpt><trkpt lat="44.4685247" lon="7.3377247"><ele>652.3333333333333</ele><time>2026-04-25T16:22:36.231Z</time></trkpt><trkpt lat="44.4684547" lon="7.3378212"><ele>652.0</ele><time>2026-04-25T16:22:38.229Z</time></trkpt><trkpt lat="44.4684044" lon="7.3379204"><ele>651.6666666666666</ele><time>2026-04-25T16:22:40.23Z</time></trkpt><trkpt lat="44.468422" lon="7.3380288"><ele>651.3333333333334</ele><time>2026-04-25T16:22:42.229Z</time></trkpt><trkpt lat="44.4684955" lon="7.3380613"><ele>651.0</ele><time>2026-04-25T16:22:44.23Z</time></trkpt><trkpt lat="44.4685806" lon="7.3380599"><ele>651.0</ele><time>2026-04-25T16:22:46.23Z</time></trkpt><trkpt lat="44.4686687" lon="7.3380486"><ele>651.0</ele><time>2026-04-25T16:22:48.229Z</time></trkpt><trkpt lat="44.4687592" lon="7.3380505"><ele>651.0</ele><time>2026-04-25T16:22:50.229Z</time></trkpt><trkpt lat="44.4688433" lon="7.3380464"><ele>651.0</ele><time>2026-04-25T16:22:52.229Z</time></trkpt><trkpt lat="44.4689242" lon="7.3380643"><ele>651.0</ele><time>2026-04-25T16:22:54.229Z</time></trkpt><trkpt lat="44.4690119" lon="7.3380824"><ele>651.0</ele><time>2026-04-25T16:22:56.229Z</time></trkpt><trkpt lat="44.469098" lon="7.338106"><ele>651.1666666666666</ele><time>2026-04-25T16:22:58.23Z</time></trkpt><trkpt lat="44.469178" lon="7.3381496"><ele>651.3333333333334</ele><time>2026-04-25T16:23:00.23Z</time></trkpt><trkpt lat="44.4692497" lon="7.3382073"><ele>651.5</ele><time>2026-04-25T16:23:02.231Z</time></trkpt><trkpt lat="44.4693109" lon="7.3382796"><ele>651.6666666666667</ele><time>2026-04-25T16:23:04.23Z</time></trkpt><trkpt lat="44.4693629" lon="7.3383677"><ele>651.8333333333334</ele><time>2026-04-25T16:23:06.231Z</time></trkpt><trkpt lat="44.4694022" lon="7.3384758"><ele>652.0</ele><time>2026-04-25T16:23:08.229Z</time></trkpt><trkpt lat="44.4694303" lon="7.3385936"><ele>652.0</ele><time>2026-04-25T16:23:10.229Z</time></trkpt><trkpt lat="44.469453" lon="7.3387148"><ele>652.0</ele><time>2026-04-25T16:23:12.23Z</time></trkpt><trkpt lat="44.4694707" lon="7.3388437"><ele>652.0</ele><time>2026-04-25T16:23:14.23Z</time></trkpt><trkpt lat="44.4694925" lon="7.3389647"><ele>652.0</ele><time>2026-04-25T16:23:16.229Z</time></trkpt><trkpt lat="44.4695142" lon="7.3390882"><ele>652.0</ele><time>2026-04-25T16:23:18.229Z</time></trkpt><trkpt lat="44.4695466" lon="7.3392014"><ele>651.6666666666667</ele><time>2026-04-25T16:23:20.229Z</time></trkpt><trkpt lat="44.4695815" lon="7.3393031"><ele>651.3333333333334</ele><time>2026-04-25T16:23:22.23Z</time></trkpt><trkpt lat="44.4696211" lon="7.3393987"><ele>651.0</ele><time>2026-04-25T16:23:24.23Z</time></trkpt><trkpt lat="44.4696536" lon="7.3394942"><ele>650.6666666666666</ele><time>2026-04-25T16:23:26.23Z</time></trkpt><trkpt lat="44.4696983" lon="7.3395856"><ele>650.3333333333333</ele><time>2026-04-25T16:23:28.23Z</time></trkpt><trkpt lat="44.4697297" lon="7.3396912"><ele>650.0</ele><time>2026-04-25T16:23:30.229Z</time></trkpt><trkpt lat="44.4697571" lon="7.3398086"><ele>651.0</ele><time>2026-04-25T16:23:32.229Z</time></trkpt><trkpt lat="44.469774" lon="7.3399286"><ele>652.0</ele><time>2026-04-25T16:23:34.229Z</time></trkpt><trkpt lat="44.4697989" lon="7.3400577"><ele>653.0</ele><time>2026-04-25T16:23:36.23Z</time></trkpt><trkpt lat="44.4698215" lon="7.3401899"><ele>654.0</ele><time>2026-04-25T16:23:38.23Z</time></trkpt><trkpt lat="44.4698338" lon="7.3403219"><ele>655.0</ele><time>2026-04-25T16:23:40.23Z</time></trkpt><trkpt lat="44.469832" lon="7.3404539"><ele>654.4</ele><time>2026-04-25T16:23:42.229Z</time></trkpt><trkpt lat="44.4698431" lon="7.3405881"><ele>653.8</ele><time>2026-04-25T16:23:44.229Z</time></trkpt><trkpt lat="44.4698593" lon="7.3407213"><ele>653.2</ele><time>2026-04-25T16:23:46.229Z</time></trkpt><trkpt lat="44.4698947" lon="7.3408391"><ele>652.6</ele><time>2026-04-25T16:23:48.23Z</time></trkpt><trkpt lat="44.4699538" lon="7.3409304"><ele>652.0</ele><time>2026-04-25T16:23:50.23Z</time></trkpt><trkpt lat="44.4700386" lon="7.340977"><ele>652.0</ele><time>2026-04-25T16:23:52.23Z</time></trkpt><trkpt lat="44.4701307" lon="7.3409552"><ele>652.0</ele><time>2026-04-25T16:23:54.23Z</time></trkpt><trkpt lat="44.4702104" lon="7.3409096"><ele>652.0</ele><time>2026-04-25T16:23:56.231Z</time></trkpt><trkpt lat="44.4702928" lon="7.3409301"><ele>652.0</ele><time>2026-04-25T16:23:58.23Z</time></trkpt><trkpt lat="44.4703597" lon="7.3410165"><ele>652.0</ele><time>2026-04-25T16:24:00.23Z</time></trkpt><trkpt lat="44.4704159" lon="7.3411265"><ele>652.6</ele><time>2026-04-25T16:24:02.229Z</time></trkpt><trkpt lat="44.4704606" lon="7.3412544"><ele>653.2</ele><time>2026-04-25T16:24:04.229Z</time></trkpt><trkpt lat="44.4705032" lon="7.3413942"><ele>653.8</ele><time>2026-04-25T16:24:06.229Z</time></trkpt><trkpt lat="44.4705469" lon="7.3415313"><ele>654.4</ele><time>2026-04-25T16:24:08.23Z</time></trkpt><trkpt lat="44.4705927" lon="7.3416682"><ele>655.0</ele><time>2026-04-25T16:24:10.23Z</time></trkpt><trkpt lat="44.4706391" lon="7.3418079"><ele>655.0</ele><time>2026-04-25T16:24:12.23Z</time></trkpt><trkpt lat="44.4706901" lon="7.3419406"><ele>655.0</ele><time>2026-04-25T16:24:14.23Z</time></trkpt><trkpt lat="44.4707364" lon="7.3420735"><ele>655.0</ele><time>2026-04-25T16:24:16.23Z</time></trkpt><trkpt lat="44.4707751" lon="7.3422068"><ele>655.0</ele><time>2026-04-25T16:24:18.229Z</time></trkpt><trkpt lat="44.4708071" lon="7.3423354"><ele>655.0</ele><time>2026-04-25T16:24:20.229Z</time></trkpt><trkpt lat="44.4708474" lon="7.342461"><ele>654.8</ele><time>2026-04-25T16:24:22.229Z</time></trkpt><trkpt lat="44.4708745" lon="7.3425865"><ele>654.6</ele><time>2026-04-25T16:24:24.23Z</time></trkpt><trkpt lat="44.4708898" lon="7.3427135"><ele>654.4000000000001</ele><time>2026-04-25T16:24:26.229Z</time></trkpt><trkpt lat="44.470902" lon="7.3428438"><ele>654.2</ele><time>2026-04-25T16:24:28.23Z</time></trkpt><trkpt lat="44.4709221" lon="7.3429763"><ele>654.0</ele><time>2026-04-25T16:24:30.23Z</time></trkpt><trkpt lat="44.4709428" lon="7.3431195"><ele>653.5</ele><time>2026-04-25T16:24:32.23Z</time></trkpt><trkpt lat="44.4709632" lon="7.3432693"><ele>653.0</ele><time>2026-04-25T16:24:34.23Z</time></trkpt><trkpt lat="44.4709847" lon="7.3434226"><ele>652.5</ele><time>2026-04-25T16:24:36.229Z</time></trkpt><trkpt lat="44.47101" lon="7.3435771"><ele>652.0</ele><time>2026-04-25T16:24:38.229Z</time></trkpt><trkpt lat="44.4710443" lon="7.3437337"><ele>652.5</ele><time>2026-04-25T16:24:40.229Z</time></trkpt><trkpt lat="44.4710875" lon="7.3438842"><ele>653.0</ele><time>2026-04-25T16:24:42.229Z</time></trkpt><trkpt lat="44.4711395" lon="7.3440256"><ele>653.5</ele><time>2026-04-25T16:24:44.23Z</time></trkpt><trkpt lat="44.4711971" lon="7.3441581"><ele>654.0</ele><time>2026-04-25T16:24:46.23Z</time></trkpt><trkpt lat="44.4712639" lon="7.3442834"><ele>654.0</ele><time>2026-04-25T16:24:48.229Z</time></trkpt><trkpt lat="44.4713329" lon="7.3444136"><ele>654.0</ele><time>2026-04-25T16:24:50.231Z</time></trkpt><trkpt lat="44.4714078" lon="7.3445525"><ele>654.0</ele><time>2026-04-25T16:24:52.229Z</time></trkpt><trkpt lat="44.4714425" lon="7.3446285"><ele>654.0</ele><time>2026-04-25T16:24:53.229Z</time></trkpt><trkpt lat="44.4714971" lon="7.3447847"><ele>654.0</ele><time>2026-04-25T16:24:55.23Z</time></trkpt><trkpt lat="44.4715504" lon="7.344943"><ele>654.0</ele><time>2026-04-25T16:24:57.229Z</time></trkpt><trkpt lat="44.4715753" lon="7.3450884"><ele>654.0</ele><time>2026-04-25T16:24:59.23Z</time></trkpt><trkpt lat="44.4715766" lon="7.3451815"><ele>654.0</ele><time>2026-04-25T16:25:01.23Z</time></trkpt><trkpt lat="44.4715573" lon="7.3452933"><ele>654.0</ele><time>2026-04-25T16:25:05.229Z</time></trkpt><trkpt lat="44.4715925" lon="7.3454219"><ele>654.0</ele><time>2026-04-25T16:25:08.229Z</time></trkpt><trkpt lat="44.4716783" lon="7.3454546"><ele>654.0</ele><time>2026-04-25T16:25:10.23Z</time></trkpt><trkpt lat="44.4717718" lon="7.3454656"><ele>654.0</ele><time>2026-04-25T16:25:12.23Z</time></trkpt><trkpt lat="44.4718642" lon="7.3454704"><ele>654.0</ele><time>2026-04-25T16:25:14.231Z</time></trkpt><trkpt lat="44.4719529" lon="7.345469"><ele>654.0</ele><time>2026-04-25T16:25:16.23Z</time></trkpt><trkpt lat="44.4720346" lon="7.3454599"><ele>654.0</ele><time>2026-04-25T16:25:18.229Z</time></trkpt><trkpt lat="44.4721025" lon="7.3454449"><ele>654.0</ele><time>2026-04-25T16:25:20.229Z</time></trkpt><trkpt lat="44.4721717" lon="7.3454416"><ele>654.0</ele><time>2026-04-25T16:25:22.229Z</time></trkpt><trkpt lat="44.4722444" lon="7.345514"><ele>654.0</ele><time>2026-04-25T16:25:25.228Z</time></trkpt><trkpt lat="44.4722479" lon="7.3456067"><ele>654.0</ele><time>2026-04-25T16:25:27.229Z</time></trkpt><trkpt lat="44.4722407" lon="7.3457151"><ele>654.0</ele><time>2026-04-25T16:25:29.229Z</time></trkpt><trkpt lat="44.472232" lon="7.34583"><ele>654.0</ele><time>2026-04-25T16:25:31.229Z</time></trkpt><trkpt lat="44.4722281" lon="7.3459526"><ele>654.0</ele><time>2026-04-25T16:25:33.228Z</time></trkpt><trkpt lat="44.4722187" lon="7.34608"><ele>654.0</ele><time>2026-04-25T16:25:35.228Z</time></trkpt><trkpt lat="44.4722066" lon="7.3462088"><ele>654.0</ele><time>2026-04-25T16:25:37.228Z</time></trkpt><trkpt lat="44.4721797" lon="7.3463353"><ele>654.0</ele><time>2026-04-25T16:25:39.229Z</time></trkpt><trkpt lat="44.4721215" lon="7.3464508"><ele>654.0</ele><time>2026-04-25T16:25:41.228Z</time></trkpt><trkpt lat="44.4720343" lon="7.3465395"><ele>654.0</ele><time>2026-04-25T16:25:43.228Z</time></trkpt><trkpt lat="44.4719382" lon="7.3466282"><ele>654.0</ele><time>2026-04-25T16:25:45.228Z</time></trkpt><trkpt lat="44.4718338" lon="7.3467138"><ele>652.8000000000001</ele><time>2026-04-25T16:25:47.229Z</time></trkpt><trkpt lat="44.4717367" lon="7.3467898"><ele>651.6</ele><time>2026-04-25T16:25:49.229Z</time></trkpt><trkpt lat="44.4716645" lon="7.3468931"><ele>650.4</ele><time>2026-04-25T16:25:51.229Z</time></trkpt><trkpt lat="44.4716505" lon="7.3470474"><ele>649.2</ele><time>2026-04-25T16:25:53.229Z</time></trkpt><trkpt lat="44.4716645" lon="7.3472106"><ele>648.0</ele><time>2026-04-25T16:25:55.229Z</time></trkpt><trkpt lat="44.4716755" lon="7.3473841"><ele>647.7142857142858</ele><time>2026-04-25T16:25:57.228Z</time></trkpt><trkpt lat="44.4716711" lon="7.3474769"><ele>647.4285714285714</ele><time>2026-04-25T16:25:58.229Z</time></trkpt><trkpt lat="44.4716606" lon="7.3475687"><ele>647.1428571428571</ele><time>2026-04-25T16:25:59.229Z</time></trkpt><trkpt lat="44.4716406" lon="7.3476577"><ele>646.8571428571429</ele><time>2026-04-25T16:26:00.229Z</time></trkpt><trkpt lat="44.4716041" lon="7.3477379"><ele>646.5714285714286</ele><time>2026-04-25T16:26:01.229Z</time></trkpt><trkpt lat="44.4715567" lon="7.3478133"><ele>646.2857142857143</ele><time>2026-04-25T16:26:02.228Z</time></trkpt><trkpt lat="44.4715016" lon="7.3478778"><ele>646.0</ele><time>2026-04-25T16:26:03.228Z</time></trkpt><trkpt lat="44.4714444" lon="7.3479349"><ele>646.0000000000001</ele><time>2026-04-25T16:26:04.23Z</time></trkpt><trkpt lat="44.4713813" lon="7.3479923"><ele>646.0</ele><time>2026-04-25T16:26:05.229Z</time></trkpt><trkpt lat="44.4713234" lon="7.348051"><ele>646.0</ele><time>2026-04-25T16:26:06.23Z</time></trkpt><trkpt lat="44.4712629" lon="7.3481124"><ele>646.0</ele><time>2026-04-25T16:26:07.229Z</time></trkpt><trkpt lat="44.4712045" lon="7.348173"><ele>646.0</ele><time>2026-04-25T16:26:08.229Z</time></trkpt><trkpt lat="44.4711501" lon="7.348244"><ele>646.0000000000001</ele><time>2026-04-25T16:26:09.228Z</time></trkpt><trkpt lat="44.4710989" lon="7.3483193"><ele>646.0</ele><time>2026-04-25T16:26:10.229Z</time></trkpt><trkpt lat="44.471048" lon="7.3484023"><ele>645.0</ele><time>2026-04-25T16:26:11.228Z</time></trkpt><trkpt lat="44.4710033" lon="7.3484928"><ele>644.0</ele><time>2026-04-25T16:26:12.229Z</time></trkpt><trkpt lat="44.4709712" lon="7.3485916"><ele>643.0</ele><time>2026-04-25T16:26:13.228Z</time></trkpt><trkpt lat="44.4709452" lon="7.3486987"><ele>642.0</ele><time>2026-04-25T16:26:14.228Z</time></trkpt><trkpt lat="44.4709221" lon="7.3488045"><ele>641.0</ele><time>2026-04-25T16:26:15.229Z</time></trkpt><trkpt lat="44.4708968" lon="7.3489081"><ele>640.0</ele><time>2026-04-25T16:26:16.229Z</time></trkpt><trkpt lat="44.4708776" lon="7.3490145"><ele>639.8333333333334</ele><time>2026-04-25T16:26:17.228Z</time></trkpt><trkpt lat="44.4708559" lon="7.3491238"><ele>639.6666666666667</ele><time>2026-04-25T16:26:18.23Z</time></trkpt><trkpt lat="44.4708341" lon="7.3492331"><ele>639.5</ele><time>2026-04-25T16:26:19.228Z</time></trkpt><trkpt lat="44.4708115" lon="7.349342"><ele>639.3333333333334</ele><time>2026-04-25T16:26:20.229Z</time></trkpt><trkpt lat="44.4707872" lon="7.3494489"><ele>639.1666666666666</ele><time>2026-04-25T16:26:21.229Z</time></trkpt><trkpt lat="44.4707654" lon="7.349557"><ele>639.0</ele><time>2026-04-25T16:26:22.229Z</time></trkpt><trkpt lat="44.4707393" lon="7.3496672"><ele>638.1666666666666</ele><time>2026-04-25T16:26:23.229Z</time></trkpt><trkpt lat="44.4707056" lon="7.3497744"><ele>637.3333333333334</ele><time>2026-04-25T16:26:24.228Z</time></trkpt><trkpt lat="44.4706685" lon="7.3498807"><ele>636.5</ele><time>2026-04-25T16:26:25.228Z</time></trkpt><trkpt lat="44.4706258" lon="7.3499838"><ele>635.6666666666667</ele><time>2026-04-25T16:26:26.228Z</time></trkpt><trkpt lat="44.4705808" lon="7.3500891"><ele>634.8333333333334</ele><time>2026-04-25T16:26:27.229Z</time></trkpt><trkpt lat="44.4705361" lon="7.3501949"><ele>634.0</ele><time>2026-04-25T16:26:28.228Z</time></trkpt><trkpt lat="44.4704912" lon="7.3503055"><ele>634.0</ele><time>2026-04-25T16:26:29.229Z</time></trkpt><trkpt lat="44.4704502" lon="7.3504208"><ele>634.0</ele><time>2026-04-25T16:26:30.228Z</time></trkpt><trkpt lat="44.47041" lon="7.3505374"><ele>634.0</ele><time>2026-04-25T16:26:31.228Z</time></trkpt><trkpt lat="44.470373" lon="7.3506557"><ele>634.0</ele><time>2026-04-25T16:26:32.228Z</time></trkpt><trkpt lat="44.4703361" lon="7.3507792"><ele>634.0</ele><time>2026-04-25T16:26:33.228Z</time></trkpt><trkpt lat="44.4702969" lon="7.3509039"><ele>633.6</ele><time>2026-04-25T16:26:34.229Z</time></trkpt><trkpt lat="44.470254" lon="7.3510317"><ele>633.2</ele><time>2026-04-25T16:26:35.229Z</time></trkpt><trkpt lat="44.4702045" lon="7.3511629"><ele>632.8000000000001</ele><time>2026-04-25T16:26:36.229Z</time></trkpt><trkpt lat="44.4701499" lon="7.3512871"><ele>632.4</ele><time>2026-04-25T16:26:37.229Z</time></trkpt><trkpt lat="44.4700873" lon="7.3514085"><ele>632.0</ele><time>2026-04-25T16:26:38.229Z</time></trkpt><trkpt lat="44.4700227" lon="7.3515248"><ele>631.0</ele><time>2026-04-25T16:26:39.229Z</time></trkpt><trkpt lat="44.4699602" lon="7.3516434"><ele>630.0</ele><time>2026-04-25T16:26:40.23Z</time></trkpt><trkpt lat="44.4699003" lon="7.3517609"><ele>629.0</ele><time>2026-04-25T16:26:41.229Z</time></trkpt><trkpt lat="44.4698437" lon="7.3518826"><ele>628.0</ele><time>2026-04-25T16:26:42.229Z</time></trkpt><trkpt lat="44.4697919" lon="7.352003"><ele>627.0</ele><time>2026-04-25T16:26:43.229Z</time></trkpt><trkpt lat="44.4697467" lon="7.3521239"><ele>626.6666666666666</ele><time>2026-04-25T16:26:44.228Z</time></trkpt><trkpt lat="44.4697036" lon="7.3522458"><ele>626.3333333333334</ele><time>2026-04-25T16:26:45.228Z</time></trkpt><trkpt lat="44.4696745" lon="7.3523653"><ele>626.0</ele><time>2026-04-25T16:26:46.228Z</time></trkpt><trkpt lat="44.469651" lon="7.3524865"><ele>625.6666666666667</ele><time>2026-04-25T16:26:47.229Z</time></trkpt><trkpt lat="44.4696353" lon="7.3525898"><ele>625.3333333333334</ele><time>2026-04-25T16:26:48.23Z</time></trkpt><trkpt lat="44.4696127" lon="7.3526861"><ele>625.0</ele><time>2026-04-25T16:26:49.229Z</time></trkpt><trkpt lat="44.4695844" lon="7.3527754"><ele>625.0</ele><time>2026-04-25T16:26:50.229Z</time></trkpt><trkpt lat="44.46955" lon="7.352861"><ele>625.0</ele><time>2026-04-25T16:26:51.229Z</time></trkpt><trkpt lat="44.4695133" lon="7.3529427"><ele>625.0</ele><time>2026-04-25T16:26:52.228Z</time></trkpt><trkpt lat="44.4694799" lon="7.3530266"><ele>625.0</ele><time>2026-04-25T16:26:53.229Z</time></trkpt><trkpt lat="44.4694516" lon="7.3531094"><ele>625.0</ele><time>2026-04-25T16:26:54.229Z</time></trkpt><trkpt lat="44.4693948" lon="7.3532665"><ele>625.0</ele><time>2026-04-25T16:26:56.229Z</time></trkpt><trkpt lat="44.4693649" lon="7.3533509"><ele>625.0</ele><time>2026-04-25T16:26:57.229Z</time></trkpt><trkpt lat="44.4693223" lon="7.3535079"><ele>625.0</ele><time>2026-04-25T16:26:59.229Z</time></trkpt><trkpt lat="44.469279" lon="7.3536646"><ele>625.0</ele><time>2026-04-25T16:27:01.228Z</time></trkpt><trkpt lat="44.4692403" lon="7.3538193"><ele>625.0</ele><time>2026-04-25T16:27:03.229Z</time></trkpt><trkpt lat="44.4692267" lon="7.3539763"><ele>625.0</ele><time>2026-04-25T16:27:05.228Z</time></trkpt><trkpt lat="44.4692107" lon="7.3541245"><ele>625.0</ele><time>2026-04-25T16:27:07.228Z</time></trkpt><trkpt lat="44.469197" lon="7.3542753"><ele>625.0</ele><time>2026-04-25T16:27:09.229Z</time></trkpt><trkpt lat="44.4691815" lon="7.3544253"><ele>625.0</ele><time>2026-04-25T16:27:11.229Z</time></trkpt><trkpt lat="44.4691733" lon="7.3545801"><ele>625.0</ele><time>2026-04-25T16:27:13.229Z</time></trkpt><trkpt lat="44.4691645" lon="7.3547151"><ele>625.0</ele><time>2026-04-25T16:27:15.229Z</time></trkpt><trkpt lat="44.4691454" lon="7.3548538"><ele>625.0</ele><time>2026-04-25T16:27:17.229Z</time></trkpt><trkpt lat="44.4691389" lon="7.3549881"><ele>625.0</ele><time>2026-04-25T16:27:19.229Z</time></trkpt><trkpt lat="44.4691392" lon="7.3551309"><ele>625.0</ele><time>2026-04-25T16:27:21.228Z</time></trkpt><trkpt lat="44.469146" lon="7.3552734"><ele>625.0</ele><time>2026-04-25T16:27:23.228Z</time></trkpt><trkpt lat="44.4691515" lon="7.3554114"><ele>625.1666666666667</ele><time>2026-04-25T16:27:25.228Z</time></trkpt><trkpt lat="44.4691561" lon="7.3555456"><ele>625.3333333333334</ele><time>2026-04-25T16:27:27.228Z</time></trkpt><trkpt lat="44.4691509" lon="7.3556716"><ele>625.5</ele><time>2026-04-25T16:27:29.229Z</time></trkpt><trkpt lat="44.4691215" lon="7.3557853"><ele>625.6666666666666</ele><time>2026-04-25T16:27:31.229Z</time></trkpt><trkpt lat="44.4690825" lon="7.3558945"><ele>625.8333333333333</ele><time>2026-04-25T16:27:33.228Z</time></trkpt><trkpt lat="44.4690493" lon="7.3560021"><ele>626.0</ele><time>2026-04-25T16:27:35.229Z</time></trkpt><trkpt lat="44.4690154" lon="7.3561099"><ele>626.0</ele><time>2026-04-25T16:27:37.228Z</time></trkpt><trkpt lat="44.468987" lon="7.3562193"><ele>626.0</ele><time>2026-04-25T16:27:39.228Z</time></trkpt><trkpt lat="44.4689648" lon="7.3563245"><ele>626.0</ele><time>2026-04-25T16:27:41.229Z</time></trkpt><trkpt lat="44.4689408" lon="7.3564261"><ele>626.0</ele><time>2026-04-25T16:27:43.23Z</time></trkpt><trkpt lat="44.4689196" lon="7.3565203"><ele>626.0</ele><time>2026-04-25T16:27:45.229Z</time></trkpt><trkpt lat="44.4688971" lon="7.3566103"><ele>626.0</ele><time>2026-04-25T16:27:47.229Z</time></trkpt><trkpt lat="44.468859" lon="7.3566971"><ele>626.0</ele><time>2026-04-25T16:27:49.229Z</time></trkpt><trkpt lat="44.4688115" lon="7.3567762"><ele>626.0</ele><time>2026-04-25T16:27:51.229Z</time></trkpt><trkpt lat="44.4687607" lon="7.3568604"><ele>626.0</ele><time>2026-04-25T16:27:53.228Z</time></trkpt><trkpt lat="44.4687019" lon="7.3569406"><ele>626.0</ele><time>2026-04-25T16:27:55.228Z</time></trkpt><trkpt lat="44.4686384" lon="7.3570144"><ele>626.0</ele><time>2026-04-25T16:27:57.23Z</time></trkpt><trkpt lat="44.4685665" lon="7.3570534"><ele>626.0</ele><time>2026-04-25T16:27:59.229Z</time></trkpt><trkpt lat="44.4685002" lon="7.3570724"><ele>626.0</ele><time>2026-04-25T16:28:01.228Z</time></trkpt><trkpt lat="44.4684674" lon="7.3571961"><ele>625.6666666666666</ele><time>2026-04-25T16:28:04.229Z</time></trkpt><trkpt lat="44.4684615" lon="7.3572846"><ele>625.3333333333333</ele><time>2026-04-25T16:28:06.229Z</time></trkpt><trkpt lat="44.4684399" lon="7.3574119"><ele>625.0</ele><time>2026-04-25T16:28:09.228Z</time></trkpt><trkpt lat="44.4684113" lon="7.3575292"><ele>624.6666666666666</ele><time>2026-04-25T16:28:12.229Z</time></trkpt><trkpt lat="44.4683857" lon="7.3576403"><ele>624.3333333333334</ele><time>2026-04-25T16:28:15.229Z</time></trkpt><trkpt lat="44.4683451" lon="7.3577381"><ele>624.0</ele><time>2026-04-25T16:28:18.229Z</time></trkpt><trkpt lat="44.4683058" lon="7.3578167"><ele>624.0</ele><time>2026-04-25T16:28:21.229Z</time></trkpt><trkpt lat="44.4682715" lon="7.3578937"><ele>624.0</ele><time>2026-04-25T16:28:35.229Z</time></trkpt><trkpt lat="44.4682707" lon="7.3580027"><ele>624.0</ele><time>2026-04-25T16:28:39.23Z</time></trkpt><trkpt lat="44.4682565" lon="7.3581057"><ele>624.0</ele><time>2026-04-25T16:28:42.228Z</time></trkpt><trkpt lat="44.4682416" lon="7.3582147"><ele>624.0</ele><time>2026-04-25T16:28:45.228Z</time></trkpt><trkpt lat="44.468218" lon="7.3583281"><ele>624.0</ele><time>2026-04-25T16:28:48.23Z</time></trkpt><trkpt lat="44.4681935" lon="7.3584464"><ele>624.3333333333334</ele><time>2026-04-25T16:28:51.229Z</time></trkpt><trkpt lat="44.4681563" lon="7.3585594"><ele>624.6666666666666</ele><time>2026-04-25T16:28:54.228Z</time></trkpt><trkpt lat="44.4681035" lon="7.3586413"><ele>625.0</ele><time>2026-04-25T16:28:57.228Z</time></trkpt><trkpt lat="44.4680712" lon="7.358743"><ele>625.3333333333333</ele><time>2026-04-25T16:29:00.229Z</time></trkpt><trkpt lat="44.4680399" lon="7.3588493"><ele>625.6666666666666</ele><time>2026-04-25T16:29:03.229Z</time></trkpt><trkpt lat="44.4679985" lon="7.3589431"><ele>626.0</ele><time>2026-04-25T16:29:06.23Z</time></trkpt><trkpt lat="44.4679661" lon="7.3590396"><ele>626.0</ele><time>2026-04-25T16:29:09.228Z</time></trkpt><trkpt lat="44.4679276" lon="7.3591305"><ele>626.0</ele><time>2026-04-25T16:29:12.228Z</time></trkpt><trkpt lat="44.4678917" lon="7.3592274"><ele>626.0</ele><time>2026-04-25T16:29:15.229Z</time></trkpt><trkpt lat="44.4678518" lon="7.3593446"><ele>626.0</ele><time>2026-04-25T16:29:18.228Z</time></trkpt><trkpt lat="44.4678171" lon="7.3594242"><ele>626.0</ele><time>2026-04-25T16:29:20.229Z</time></trkpt><trkpt lat="44.4677871" lon="7.3595022"><ele>626.0</ele><time>2026-04-25T16:29:22.228Z</time></trkpt><trkpt lat="44.4677474" lon="7.3596132"><ele>625.3333333333333</ele><time>2026-04-25T16:29:25.228Z</time></trkpt><trkpt lat="44.4676977" lon="7.3597081"><ele>624.6666666666666</ele><time>2026-04-25T16:29:28.229Z</time></trkpt><trkpt lat="44.4676553" lon="7.3598004"><ele>624.0</ele><time>2026-04-25T16:29:31.228Z</time></trkpt><trkpt lat="44.467641" lon="7.3599118"><ele>623.3333333333334</ele><time>2026-04-25T16:29:34.228Z</time></trkpt><trkpt lat="44.467656" lon="7.3600144"><ele>622.6666666666667</ele><time>2026-04-25T16:29:37.228Z</time></trkpt><trkpt lat="44.4677402" lon="7.3600704"><ele>622.0</ele><time>2026-04-25T16:29:40.229Z</time></trkpt><trkpt lat="44.4678056" lon="7.3600926"><ele>622.0</ele><time>2026-04-25T16:29:42.228Z</time></trkpt><trkpt lat="44.4678757" lon="7.3601129"><ele>622.0</ele><time>2026-04-25T16:29:44.228Z</time></trkpt><trkpt lat="44.4679519" lon="7.3601277"><ele>622.0</ele><time>2026-04-25T16:29:46.23Z</time></trkpt><trkpt lat="44.4680301" lon="7.3601242"><ele>622.0</ele><time>2026-04-25T16:29:48.229Z</time></trkpt><trkpt lat="44.4681086" lon="7.3601385"><ele>622.0</ele><time>2026-04-25T16:29:50.229Z</time></trkpt><trkpt lat="44.4681844" lon="7.3601692"><ele>622.0</ele><time>2026-04-25T16:29:52.228Z</time></trkpt><trkpt lat="44.4682536" lon="7.3602094"><ele>622.1666666666667</ele><time>2026-04-25T16:29:54.228Z</time></trkpt><trkpt lat="44.4683197" lon="7.3602347"><ele>622.3333333333334</ele><time>2026-04-25T16:29:56.228Z</time></trkpt><trkpt lat="44.4684046" lon="7.3603025"><ele>622.5</ele><time>2026-04-25T16:29:59.228Z</time></trkpt><trkpt lat="44.4684541" lon="7.3603594"><ele>622.6666666666666</ele><time>2026-04-25T16:30:02.229Z</time></trkpt><trkpt lat="44.468444" lon="7.3604656"><ele>622.8333333333333</ele><time>2026-04-25T16:30:05.228Z</time></trkpt><trkpt lat="44.4684198" lon="7.3605485"><ele>623.0</ele><time>2026-04-25T16:30:08.228Z</time></trkpt><trkpt lat="44.4683837" lon="7.3606554"><ele>623.0</ele><time>2026-04-25T16:30:12.229Z</time></trkpt><trkpt lat="44.4683455" lon="7.3607532"><ele>623.0</ele><time>2026-04-25T16:30:15.229Z</time></trkpt><trkpt lat="44.4683316" lon="7.3608892"><ele>623.0</ele><time>2026-04-25T16:30:18.229Z</time></trkpt><trkpt lat="44.468334" lon="7.3609826"><ele>623.0</ele><time>2026-04-25T16:30:20.227Z</time></trkpt><trkpt lat="44.4683889" lon="7.3610473"><ele>623.0</ele><time>2026-04-25T16:30:24.227Z</time></trkpt><trkpt lat="44.4684586" lon="7.361048"><ele>623.0</ele><time>2026-04-25T16:30:26.228Z</time></trkpt><trkpt lat="44.4685333" lon="7.3610492"><ele>623.0</ele><time>2026-04-25T16:30:28.227Z</time></trkpt><trkpt lat="44.4686052" lon="7.3610499"><ele>623.0</ele><time>2026-04-25T16:30:30.229Z</time></trkpt><trkpt lat="44.4686809" lon="7.3610564"><ele>623.0</ele><time>2026-04-25T16:30:32.229Z</time></trkpt><trkpt lat="44.4687523" lon="7.3610515"><ele>623.0</ele><time>2026-04-25T16:30:34.228Z</time></trkpt><trkpt lat="44.4688241" lon="7.3610427"><ele>623.0</ele><time>2026-04-25T16:30:36.227Z</time></trkpt><trkpt lat="44.4689033" lon="7.3610542"><ele>623.0</ele><time>2026-04-25T16:30:39.227Z</time></trkpt><trkpt lat="44.4689387" lon="7.3611316"><ele>623.0</ele><time>2026-04-25T16:30:41.227Z</time></trkpt><trkpt lat="44.4689382" lon="7.3612438"><ele>622.3333333333333</ele><time>2026-04-25T16:30:44.227Z</time></trkpt><trkpt lat="44.468933" lon="7.3613616"><ele>621.6666666666666</ele><time>2026-04-25T16:30:47.228Z</time></trkpt><trkpt lat="44.4689202" lon="7.3614502"><ele>621.0</ele><time>2026-04-25T16:30:49.228Z</time></trkpt><trkpt lat="44.4689054" lon="7.361548"><ele>620.3333333333334</ele><time>2026-04-25T16:30:51.228Z</time></trkpt><trkpt lat="44.4688872" lon="7.3616484"><ele>619.6666666666667</ele><time>2026-04-25T16:30:53.227Z</time></trkpt><trkpt lat="44.4688862" lon="7.3617637"><ele>619.0</ele><time>2026-04-25T16:30:55.227Z</time></trkpt><trkpt lat="44.4688873" lon="7.361896"><ele>618.8</ele><time>2026-04-25T16:30:57.227Z</time></trkpt><trkpt lat="44.4688966" lon="7.3620303"><ele>618.5999999999999</ele><time>2026-04-25T16:30:59.228Z</time></trkpt><trkpt lat="44.468927" lon="7.3621543"><ele>618.4</ele><time>2026-04-25T16:31:01.227Z</time></trkpt><trkpt lat="44.4689861" lon="7.3622623"><ele>618.1999999999999</ele><time>2026-04-25T16:31:03.228Z</time></trkpt><trkpt lat="44.4690472" lon="7.3623136"><ele>618.0</ele><time>2026-04-25T16:31:05.227Z</time></trkpt><trkpt lat="44.4691252" lon="7.3623944"><ele>618.0</ele><time>2026-04-25T16:31:07.228Z</time></trkpt><trkpt lat="44.4691572" lon="7.3624989"><ele>618.0</ele><time>2026-04-25T16:31:09.228Z</time></trkpt><trkpt lat="44.4691889" lon="7.3626007"><ele>618.0</ele><time>2026-04-25T16:31:11.227Z</time></trkpt><trkpt lat="44.4692298" lon="7.3626981"><ele>618.0</ele><time>2026-04-25T16:31:13.227Z</time></trkpt><trkpt lat="44.4692579" lon="7.362779"><ele>618.0</ele><time>2026-04-25T16:31:15.228Z</time></trkpt><trkpt lat="44.4692327" lon="7.3628759"><ele>618.0</ele><time>2026-04-25T16:31:17.228Z</time></trkpt><trkpt lat="44.4691368" lon="7.3629655"><ele>618.0</ele><time>2026-04-25T16:31:19.228Z</time></trkpt><trkpt lat="44.469052" lon="7.3630447"><ele>618.0</ele><time>2026-04-25T16:31:21.227Z</time></trkpt><trkpt lat="44.46903" lon="7.3631493"><ele>618.0</ele><time>2026-04-25T16:31:24.228Z</time></trkpt><trkpt lat="44.4689888" lon="7.3632681"><ele>618.0</ele><time>2026-04-25T16:31:27.227Z</time></trkpt><trkpt lat="44.4689148" lon="7.3633076"><ele>618.0</ele><time>2026-04-25T16:31:29.228Z</time></trkpt><trkpt lat="44.4688304" lon="7.3633002"><ele>618.0</ele><time>2026-04-25T16:31:31.228Z</time></trkpt><trkpt lat="44.4687435" lon="7.3632964"><ele>618.5</ele><time>2026-04-25T16:31:33.228Z</time></trkpt><trkpt lat="44.4686588" lon="7.3632963"><ele>619.0</ele><time>2026-04-25T16:31:35.228Z</time></trkpt><trkpt lat="44.4685808" lon="7.3632692"><ele>619.5</ele><time>2026-04-25T16:31:37.227Z</time></trkpt><trkpt lat="44.4685099" lon="7.3632157"><ele>620.0</ele><time>2026-04-25T16:31:39.227Z</time></trkpt><trkpt lat="44.4684372" lon="7.3631587"><ele>620.5</ele><time>2026-04-25T16:31:41.229Z</time></trkpt><trkpt lat="44.4683615" lon="7.3631015"><ele>621.0</ele><time>2026-04-25T16:31:43.228Z</time></trkpt><trkpt lat="44.468285" lon="7.3630407"><ele>621.3333333333334</ele><time>2026-04-25T16:31:45.227Z</time></trkpt><trkpt lat="44.4681845" lon="7.3630083"><ele>621.6666666666666</ele><time>2026-04-25T16:31:47.227Z</time></trkpt><trkpt lat="44.4681112" lon="7.3629446"><ele>622.0</ele><time>2026-04-25T16:31:49.227Z</time></trkpt><trkpt lat="44.4680575" lon="7.362881"><ele>622.3333333333333</ele><time>2026-04-25T16:31:51.228Z</time></trkpt><trkpt lat="44.4679791" lon="7.3629026"><ele>622.6666666666666</ele><time>2026-04-25T16:31:54.227Z</time></trkpt><trkpt lat="44.4679497" lon="7.3629834"><ele>623.0</ele><time>2026-04-25T16:31:56.229Z</time></trkpt><trkpt lat="44.4679196" lon="7.3630841"><ele>623.0</ele><time>2026-04-25T16:31:58.229Z</time></trkpt><trkpt lat="44.4679067" lon="7.3632023"><ele>623.0</ele><time>2026-04-25T16:32:00.227Z</time></trkpt><trkpt lat="44.467885" lon="7.3633515"><ele>623.0</ele><time>2026-04-25T16:32:02.227Z</time></trkpt><trkpt lat="44.4678608" lon="7.3635013"><ele>623.0</ele><time>2026-04-25T16:32:04.228Z</time></trkpt><trkpt lat="44.4678296" lon="7.3636437"><ele>623.0</ele><time>2026-04-25T16:32:06.227Z</time></trkpt><trkpt lat="44.4678071" lon="7.3637928"><ele>622.6</ele><time>2026-04-25T16:32:08.227Z</time></trkpt><trkpt lat="44.4677224" lon="7.3638757"><ele>622.1999999999999</ele><time>2026-04-25T16:32:10.228Z</time></trkpt><trkpt lat="44.4676615" lon="7.3639756"><ele>621.8</ele><time>2026-04-25T16:32:12.228Z</time></trkpt><trkpt lat="44.4676169" lon="7.3640967"><ele>621.4</ele><time>2026-04-25T16:32:14.227Z</time></trkpt><trkpt lat="44.4675882" lon="7.3642259"><ele>621.0</ele><time>2026-04-25T16:32:16.229Z</time></trkpt><trkpt lat="44.4675815" lon="7.3643584"><ele>621.0</ele><time>2026-04-25T16:32:18.229Z</time></trkpt><trkpt lat="44.4675717" lon="7.3644971"><ele>621.0</ele><time>2026-04-25T16:32:20.228Z</time></trkpt><trkpt lat="44.4675497" lon="7.3646294"><ele>621.0</ele><time>2026-04-25T16:32:22.229Z</time></trkpt><trkpt lat="44.4674994" lon="7.3647368"><ele>621.0</ele><time>2026-04-25T16:32:24.228Z</time></trkpt><trkpt lat="44.4674414" lon="7.3648238"><ele>621.0</ele><time>2026-04-25T16:32:26.227Z</time></trkpt><trkpt lat="44.4673714" lon="7.3648838"><ele>620.5</ele><time>2026-04-25T16:32:28.227Z</time></trkpt><trkpt lat="44.4672814" lon="7.3649236"><ele>620.0</ele><time>2026-04-25T16:32:30.227Z</time></trkpt><trkpt lat="44.4672097" lon="7.3649324"><ele>619.5</ele><time>2026-04-25T16:32:32.228Z</time></trkpt><trkpt lat="44.467145" lon="7.3649395"><ele>619.0</ele><time>2026-04-25T16:32:34.228Z</time></trkpt><trkpt lat="44.4670503" lon="7.3649363"><ele>618.5</ele><time>2026-04-25T16:32:37.228Z</time></trkpt><trkpt lat="44.4669804" lon="7.3649409"><ele>618.0</ele><time>2026-04-25T16:32:39.228Z</time></trkpt><trkpt lat="44.4669115" lon="7.3649478"><ele>618.0</ele><time>2026-04-25T16:32:41.228Z</time></trkpt><trkpt lat="44.4668267" lon="7.3649445"><ele>618.0</ele><time>2026-04-25T16:32:44.227Z</time></trkpt><trkpt lat="44.4667684" lon="7.3649823"><ele>618.0</ele><time>2026-04-25T16:32:47.228Z</time></trkpt><trkpt lat="44.4667603" lon="7.3650964"><ele>618.0</ele><time>2026-04-25T16:32:50.227Z</time></trkpt><trkpt lat="44.4667669" lon="7.3651965"><ele>618.0</ele><time>2026-04-25T16:32:52.228Z</time></trkpt><trkpt lat="44.466781" lon="7.3653117"><ele>618.0</ele><time>2026-04-25T16:32:54.227Z</time></trkpt><trkpt lat="44.4667865" lon="7.3654451"><ele>618.0</ele><time>2026-04-25T16:32:56.227Z</time></trkpt><trkpt lat="44.4667337" lon="7.3655677"><ele>618.0</ele><time>2026-04-25T16:32:58.229Z</time></trkpt><trkpt lat="44.4666243" lon="7.3656274"><ele>618.0</ele><time>2026-04-25T16:33:00.228Z</time></trkpt><trkpt lat="44.466557" lon="7.3656117"><ele>618.0</ele><time>2026-04-25T16:33:01.227Z</time></trkpt><trkpt lat="44.4664594" lon="7.3655069"><ele>618.0</ele><time>2026-04-25T16:33:03.228Z</time></trkpt><trkpt lat="44.4664089" lon="7.3654469"><ele>618.0000000000001</ele><time>2026-04-25T16:33:04.229Z</time></trkpt><trkpt lat="44.466365" lon="7.3653818"><ele>618.0</ele><time>2026-04-25T16:33:05.227Z</time></trkpt><trkpt lat="44.4663264" lon="7.3653091"><ele>618.0</ele><time>2026-04-25T16:33:06.227Z</time></trkpt><trkpt lat="44.4662897" lon="7.3652292"><ele>618.0</ele><time>2026-04-25T16:33:07.227Z</time></trkpt><trkpt lat="44.4662567" lon="7.3651512"><ele>618.0</ele><time>2026-04-25T16:33:08.227Z</time></trkpt><trkpt lat="44.4662293" lon="7.3650703"><ele>618.0000000000001</ele><time>2026-04-25T16:33:09.227Z</time></trkpt><trkpt lat="44.4661791" lon="7.3649466"><ele>618.0</ele><time>2026-04-25T16:33:11.227Z</time></trkpt><trkpt lat="44.4661395" lon="7.3648329"><ele>616.1999999999999</ele><time>2026-04-25T16:33:13.228Z</time></trkpt><trkpt lat="44.4660918" lon="7.3647486"><ele>614.4</ele><time>2026-04-25T16:33:15.229Z</time></trkpt><trkpt lat="44.4660254" lon="7.3646935"><ele>612.5999999999999</ele><time>2026-04-25T16:33:17.227Z</time></trkpt><trkpt lat="44.4659427" lon="7.364667"><ele>610.8</ele><time>2026-04-25T16:33:19.228Z</time></trkpt><trkpt lat="44.4658465" lon="7.3646698"><ele>609.0</ele><time>2026-04-25T16:33:21.228Z</time></trkpt><trkpt lat="44.4657401" lon="7.3647586"><ele>609.0</ele><time>2026-04-25T16:33:23.227Z</time></trkpt><trkpt lat="44.4656528" lon="7.36484"><ele>609.0</ele><time>2026-04-25T16:33:25.228Z</time></trkpt><trkpt lat="44.4655706" lon="7.3649307"><ele>609.0</ele><time>2026-04-25T16:33:27.227Z</time></trkpt><trkpt lat="44.4655092" lon="7.365011"><ele>609.0</ele><time>2026-04-25T16:33:29.227Z</time></trkpt><trkpt lat="44.4654558" lon="7.3650738"><ele>609.0</ele><time>2026-04-25T16:33:31.228Z</time></trkpt><trkpt lat="44.4653893" lon="7.3650887"><ele>609.0</ele><time>2026-04-25T16:33:33.227Z</time></trkpt><trkpt lat="44.4653011" lon="7.3650315"><ele>607.6666666666666</ele><time>2026-04-25T16:33:35.228Z</time></trkpt><trkpt lat="44.4651876" lon="7.3649632"><ele>606.3333333333334</ele><time>2026-04-25T16:33:37.228Z</time></trkpt><trkpt lat="44.465129" lon="7.3649294"><ele>605.0</ele><time>2026-04-25T16:33:38.227Z</time></trkpt><trkpt lat="44.4650657" lon="7.3649061"><ele>603.6666666666667</ele><time>2026-04-25T16:33:39.228Z</time></trkpt><trkpt lat="44.4650013" lon="7.3648781"><ele>602.3333333333334</ele><time>2026-04-25T16:33:40.228Z</time></trkpt><trkpt lat="44.4649028" lon="7.364807"><ele>601.0</ele><time>2026-04-25T16:33:42.228Z</time></trkpt><trkpt lat="44.4648099" lon="7.3647964"><ele>601.0</ele><time>2026-04-25T16:33:44.228Z</time></trkpt><trkpt lat="44.4647198" lon="7.3648336"><ele>601.0</ele><time>2026-04-25T16:33:46.227Z</time></trkpt><trkpt lat="44.4646228" lon="7.364868"><ele>601.0</ele><time>2026-04-25T16:33:48.227Z</time></trkpt><trkpt lat="44.4645249" lon="7.3649032"><ele>601.0</ele><time>2026-04-25T16:33:50.228Z</time></trkpt><trkpt lat="44.4644196" lon="7.3649252"><ele>601.0</ele><time>2026-04-25T16:33:52.227Z</time></trkpt><trkpt lat="44.4643129" lon="7.3649596"><ele>603.2</ele><time>2026-04-25T16:33:54.228Z</time></trkpt><trkpt lat="44.4642202" lon="7.3650376"><ele>605.4000000000001</ele><time>2026-04-25T16:33:56.228Z</time></trkpt><trkpt lat="44.4641494" lon="7.3651669"><ele>607.6</ele><time>2026-04-25T16:33:58.228Z</time></trkpt><trkpt lat="44.4641092" lon="7.365235"><ele>609.8000000000001</ele><time>2026-04-25T16:33:59.228Z</time></trkpt><trkpt lat="44.4640368" lon="7.3653772"><ele>612.0</ele><time>2026-04-25T16:34:01.228Z</time></trkpt><trkpt lat="44.4639636" lon="7.36551"><ele>611.6</ele><time>2026-04-25T16:34:03.228Z</time></trkpt><trkpt lat="44.4638897" lon="7.3656269"><ele>611.2</ele><time>2026-04-25T16:34:05.228Z</time></trkpt><trkpt lat="44.4638223" lon="7.3657425"><ele>610.8</ele><time>2026-04-25T16:34:07.228Z</time></trkpt><trkpt lat="44.4637537" lon="7.365851"><ele>610.4</ele><time>2026-04-25T16:34:09.227Z</time></trkpt><trkpt lat="44.4636811" lon="7.3659544"><ele>610.0</ele><time>2026-04-25T16:34:11.228Z</time></trkpt><trkpt lat="44.4636062" lon="7.3660663"><ele>611.0</ele><time>2026-04-25T16:34:13.227Z</time></trkpt><trkpt lat="44.4635224" lon="7.3661674"><ele>612.0</ele><time>2026-04-25T16:34:15.228Z</time></trkpt><trkpt lat="44.4634627" lon="7.3662995"><ele>613.0</ele><time>2026-04-25T16:34:17.227Z</time></trkpt><trkpt lat="44.4634367" lon="7.3664485"><ele>614.0</ele><time>2026-04-25T16:34:19.227Z</time></trkpt><trkpt lat="44.4634204" lon="7.3666107"><ele>615.0</ele><time>2026-04-25T16:34:21.227Z</time></trkpt><trkpt lat="44.4634135" lon="7.3667641"><ele>615.0</ele><time>2026-04-25T16:34:23.227Z</time></trkpt><trkpt lat="44.4633967" lon="7.366918"><ele>615.0</ele><time>2026-04-25T16:34:25.228Z</time></trkpt><trkpt lat="44.4633795" lon="7.3670749"><ele>615.0</ele><time>2026-04-25T16:34:27.229Z</time></trkpt><trkpt lat="44.4633673" lon="7.3672137"><ele>615.0</ele><time>2026-04-25T16:34:29.227Z</time></trkpt><trkpt lat="44.4633495" lon="7.3673389"><ele>615.0</ele><time>2026-04-25T16:34:31.227Z</time></trkpt><trkpt lat="44.4632872" lon="7.367432"><ele>615.0</ele><time>2026-04-25T16:34:33.227Z</time></trkpt><trkpt lat="44.4632257" lon="7.3675357"><ele>615.0</ele><time>2026-04-25T16:34:35.228Z</time></trkpt><trkpt lat="44.4632072" lon="7.3676756"><ele>615.0</ele><time>2026-04-25T16:34:37.228Z</time></trkpt><trkpt lat="44.4631898" lon="7.367824"><ele>615.0</ele><time>2026-04-25T16:34:39.227Z</time></trkpt><trkpt lat="44.4631298" lon="7.3679514"><ele>615.0</ele><time>2026-04-25T16:34:41.227Z</time></trkpt><trkpt lat="44.463062" lon="7.3680816"><ele>614.8</ele><time>2026-04-25T16:34:43.228Z</time></trkpt><trkpt lat="44.4629949" lon="7.3682042"><ele>614.6</ele><time>2026-04-25T16:34:45.227Z</time></trkpt><trkpt lat="44.4629285" lon="7.3683299"><ele>614.4</ele><time>2026-04-25T16:34:47.228Z</time></trkpt><trkpt lat="44.4628641" lon="7.3684561"><ele>614.2</ele><time>2026-04-25T16:34:49.228Z</time></trkpt><trkpt lat="44.4627993" lon="7.3685794"><ele>614.0</ele><time>2026-04-25T16:34:51.229Z</time></trkpt><trkpt lat="44.4627376" lon="7.3687057"><ele>614.4</ele><time>2026-04-25T16:34:53.228Z</time></trkpt><trkpt lat="44.4626722" lon="7.3688271"><ele>614.8</ele><time>2026-04-25T16:34:55.228Z</time></trkpt><trkpt lat="44.4626108" lon="7.3689586"><ele>615.2</ele><time>2026-04-25T16:34:57.229Z</time></trkpt><trkpt lat="44.4625441" lon="7.3690829"><ele>615.6</ele><time>2026-04-25T16:34:59.227Z</time></trkpt><trkpt lat="44.4624825" lon="7.3692154"><ele>616.0</ele><time>2026-04-25T16:35:01.228Z</time></trkpt><trkpt lat="44.4624237" lon="7.3693403"><ele>616.2</ele><time>2026-04-25T16:35:03.228Z</time></trkpt><trkpt lat="44.4623628" lon="7.36946"><ele>616.4000000000001</ele><time>2026-04-25T16:35:05.229Z</time></trkpt><trkpt lat="44.4622956" lon="7.3695738"><ele>616.6</ele><time>2026-04-25T16:35:07.227Z</time></trkpt><trkpt lat="44.4622321" lon="7.3696819"><ele>616.8000000000001</ele><time>2026-04-25T16:35:09.228Z</time></trkpt><trkpt lat="44.4621696" lon="7.3698019"><ele>617.0</ele><time>2026-04-25T16:35:11.227Z</time></trkpt><trkpt lat="44.4621135" lon="7.3699232"><ele>616.6</ele><time>2026-04-25T16:35:13.227Z</time></trkpt><trkpt lat="44.4620564" lon="7.3700417"><ele>616.2</ele><time>2026-04-25T16:35:15.226Z</time></trkpt><trkpt lat="44.4619932" lon="7.3701613"><ele>615.8</ele><time>2026-04-25T16:35:17.227Z</time></trkpt><trkpt lat="44.4619327" lon="7.3702837"><ele>615.4</ele><time>2026-04-25T16:35:19.227Z</time></trkpt><trkpt lat="44.4618678" lon="7.370408"><ele>615.0</ele><time>2026-04-25T16:35:21.227Z</time></trkpt><trkpt lat="44.4618106" lon="7.3705416"><ele>615.0</ele><time>2026-04-25T16:35:23.226Z</time></trkpt><trkpt lat="44.4617477" lon="7.3706658"><ele>615.0</ele><time>2026-04-25T16:35:25.226Z</time></trkpt><trkpt lat="44.4616809" lon="7.3707804"><ele>615.0</ele><time>2026-04-25T16:35:27.227Z</time></trkpt><trkpt lat="44.4616218" lon="7.3708994"><ele>615.0</ele><time>2026-04-25T16:35:29.228Z</time></trkpt><trkpt lat="44.461557" lon="7.3710177"><ele>615.0</ele><time>2026-04-25T16:35:31.227Z</time></trkpt><trkpt lat="44.4614936" lon="7.3711379"><ele>615.0</ele><time>2026-04-25T16:35:33.226Z</time></trkpt><trkpt lat="44.4614276" lon="7.3712627"><ele>615.0</ele><time>2026-04-25T16:35:35.226Z</time></trkpt><trkpt lat="44.4613651" lon="7.3713844"><ele>615.0</ele><time>2026-04-25T16:35:37.226Z</time></trkpt><trkpt lat="44.4613026" lon="7.371506"><ele>615.0</ele><time>2026-04-25T16:35:39.226Z</time></trkpt><trkpt lat="44.4612347" lon="7.3716245"><ele>615.0</ele><time>2026-04-25T16:35:41.226Z</time></trkpt><trkpt lat="44.4611717" lon="7.3717487"><ele>615.25</ele><time>2026-04-25T16:35:43.227Z</time></trkpt><trkpt lat="44.4611131" lon="7.3718796"><ele>615.5</ele><time>2026-04-25T16:35:45.226Z</time></trkpt><trkpt lat="44.4610486" lon="7.3720085"><ele>615.75</ele><time>2026-04-25T16:35:47.226Z</time></trkpt><trkpt lat="44.4609805" lon="7.372144"><ele>616.0</ele><time>2026-04-25T16:35:49.227Z</time></trkpt><trkpt lat="44.4609147" lon="7.3722819"><ele>616.25</ele><time>2026-04-25T16:35:51.226Z</time></trkpt><trkpt lat="44.4608467" lon="7.3724215"><ele>616.5</ele><time>2026-04-25T16:35:53.226Z</time></trkpt><trkpt lat="44.460776" lon="7.3725559"><ele>616.75</ele><time>2026-04-25T16:35:55.226Z</time></trkpt><trkpt lat="44.460705" lon="7.3726908"><ele>617.0</ele><time>2026-04-25T16:35:57.227Z</time></trkpt><trkpt lat="44.4606387" lon="7.3728287"><ele>617.0</ele><time>2026-04-25T16:35:59.226Z</time></trkpt><trkpt lat="44.460569" lon="7.3729633"><ele>617.0</ele><time>2026-04-25T16:36:01.227Z</time></trkpt><trkpt lat="44.4605048" lon="7.3730915"><ele>617.0</ele><time>2026-04-25T16:36:03.227Z</time></trkpt><trkpt lat="44.4604355" lon="7.3732033"><ele>617.0</ele><time>2026-04-25T16:36:05.227Z</time></trkpt><trkpt lat="44.4603364" lon="7.3732296"><ele>617.0</ele><time>2026-04-25T16:36:07.226Z</time></trkpt><trkpt lat="44.4602275" lon="7.3732378"><ele>616.5</ele><time>2026-04-25T16:36:09.227Z</time></trkpt><trkpt lat="44.4601142" lon="7.3732507"><ele>616.0</ele><time>2026-04-25T16:36:11.227Z</time></trkpt><trkpt lat="44.4599941" lon="7.3732663"><ele>615.5</ele><time>2026-04-25T16:36:13.227Z</time></trkpt><trkpt lat="44.4598726" lon="7.3732848"><ele>615.0</ele><time>2026-04-25T16:36:15.227Z</time></trkpt><trkpt lat="44.4597528" lon="7.3733091"><ele>615.0</ele><time>2026-04-25T16:36:17.227Z</time></trkpt><trkpt lat="44.4596384" lon="7.3733299"><ele>615.0</ele><time>2026-04-25T16:36:19.226Z</time></trkpt><trkpt lat="44.4595251" lon="7.3733405"><ele>615.0</ele><time>2026-04-25T16:36:21.226Z</time></trkpt><trkpt lat="44.4594142" lon="7.3733587"><ele>615.0</ele><time>2026-04-25T16:36:23.227Z</time></trkpt><trkpt lat="44.4593067" lon="7.3733766"><ele>615.0</ele><time>2026-04-25T16:36:25.227Z</time></trkpt><trkpt lat="44.4591986" lon="7.3733934"><ele>615.0</ele><time>2026-04-25T16:36:27.227Z</time></trkpt><trkpt lat="44.4590941" lon="7.3734081"><ele>615.0</ele><time>2026-04-25T16:36:29.227Z</time></trkpt><trkpt lat="44.4589942" lon="7.3733991"><ele>615.0</ele><time>2026-04-25T16:36:31.226Z</time></trkpt><trkpt lat="44.4589138" lon="7.3734384"><ele>615.0</ele><time>2026-04-25T16:36:33.227Z</time></trkpt><trkpt lat="44.4588805" lon="7.3735568"><ele>615.0</ele><time>2026-04-25T16:36:35.227Z</time></trkpt><trkpt lat="44.4588748" lon="7.3736845"><ele>615.0</ele><time>2026-04-25T16:36:37.227Z</time></trkpt><trkpt lat="44.4588795" lon="7.3738137"><ele>615.0</ele><time>2026-04-25T16:36:39.226Z</time></trkpt><trkpt lat="44.4588574" lon="7.3739422"><ele>615.0</ele><time>2026-04-25T16:36:41.228Z</time></trkpt><trkpt lat="44.4587842" lon="7.3740395"><ele>615.0</ele><time>2026-04-25T16:36:43.226Z</time></trkpt><trkpt lat="44.4586798" lon="7.3740708"><ele>615.0</ele><time>2026-04-25T16:36:45.227Z</time></trkpt><trkpt lat="44.4585727" lon="7.3740755"><ele>615.2</ele><time>2026-04-25T16:36:47.227Z</time></trkpt><trkpt lat="44.4584691" lon="7.3740937"><ele>615.4</ele><time>2026-04-25T16:36:49.226Z</time></trkpt><trkpt lat="44.4583644" lon="7.3741113"><ele>615.6</ele><time>2026-04-25T16:36:51.226Z</time></trkpt><trkpt lat="44.4582563" lon="7.3741214"><ele>615.8</ele><time>2026-04-25T16:36:53.226Z</time></trkpt><trkpt lat="44.458152" lon="7.3741444"><ele>616.0</ele><time>2026-04-25T16:36:55.227Z</time></trkpt><trkpt lat="44.4580535" lon="7.3741702"><ele>616.0</ele><time>2026-04-25T16:36:57.227Z</time></trkpt><trkpt lat="44.4579603" lon="7.374189"><ele>616.0</ele><time>2026-04-25T16:36:59.226Z</time></trkpt><trkpt lat="44.4578802" lon="7.374204"><ele>616.0</ele><time>2026-04-25T16:37:01.226Z</time></trkpt><trkpt lat="44.4578201" lon="7.3741668"><ele>616.0</ele><time>2026-04-25T16:37:04.226Z</time></trkpt><trkpt lat="44.4578076" lon="7.3740794"><ele>616.0</ele><time>2026-04-25T16:37:44.227Z</time></trkpt><trkpt lat="44.4577955" lon="7.3739605"><ele>616.0</ele><time>2026-04-25T16:37:48.228Z</time></trkpt></trkseg></trk></gpx>